<?xml version="1.0" encoding="UTF-8" standalone="no" ?>
<gpx xmlns="http://www.topografix.com/GPX/1/1" xmlns:xsi="http://www.w3.org/2001/XMLSchema-instance" xsi:schemaLocation="http://www.topografix.com/GPX/1/1 http://www.topografix.com/GPX/1/1/gpx.xsd" version="1.1" creator="VisuGPX - https://www.visugpx.com">
  <metadata>
    <name>Vallée du Segre</name>
    <desc><![CDATA[avec la Tour et la Chapelle]]></desc>
  </metadata>
  <trk>
    <name><![CDATA[2013-08-11-01]]></name>
    <trkseg>
      <trkpt lat="42.45538" lon="2.06463">
        <ele>1496.5</ele>
        <time>2013-08-11T15:52:08Z</time>
      </trkpt>
      <trkpt lat="42.45542" lon="2.06466">
        <ele>1495.4</ele>
        <time>2013-08-11T15:52:17Z</time>
      </trkpt>
      <trkpt lat="42.45542" lon="2.06466">
        <ele>1495.5</ele>
        <time>2013-08-11T15:52:18Z</time>
      </trkpt>
      <trkpt lat="42.45545" lon="2.06474">
        <ele>1494.9</ele>
        <time>2013-08-11T15:52:53Z</time>
      </trkpt>
      <trkpt lat="42.45544" lon="2.06479">
        <ele>1494.4</ele>
        <time>2013-08-11T15:52:56Z</time>
      </trkpt>
      <trkpt lat="42.45544" lon="2.06484">
        <ele>1494.2</ele>
        <time>2013-08-11T15:52:59Z</time>
      </trkpt>
      <trkpt lat="42.45545" lon="2.06488">
        <ele>1494</ele>
        <time>2013-08-11T15:53:02Z</time>
      </trkpt>
      <trkpt lat="42.45546" lon="2.06493">
        <ele>1493.7</ele>
        <time>2013-08-11T15:53:05Z</time>
      </trkpt>
      <trkpt lat="42.45547" lon="2.06498">
        <ele>1493</ele>
        <time>2013-08-11T15:53:08Z</time>
      </trkpt>
      <trkpt lat="42.45547" lon="2.06503">
        <ele>1492.4</ele>
        <time>2013-08-11T15:53:11Z</time>
      </trkpt>
      <trkpt lat="42.45548" lon="2.06509">
        <ele>1491.5</ele>
        <time>2013-08-11T15:53:15Z</time>
      </trkpt>
      <trkpt lat="42.45547" lon="2.06515">
        <ele>1491.4</ele>
        <time>2013-08-11T15:53:18Z</time>
      </trkpt>
      <trkpt lat="42.45547" lon="2.06517">
        <ele>1491.4</ele>
        <time>2013-08-11T15:53:19Z</time>
      </trkpt>
      <trkpt lat="42.45545" lon="2.06525">
        <ele>1489.2</ele>
        <time>2013-08-11T15:53:27Z</time>
      </trkpt>
      <trkpt lat="42.45541" lon="2.06526">
        <ele>1488.6</ele>
        <time>2013-08-11T15:53:32Z</time>
      </trkpt>
      <trkpt lat="42.45537" lon="2.06525">
        <ele>1487.9</ele>
        <time>2013-08-11T15:53:35Z</time>
      </trkpt>
      <trkpt lat="42.45533" lon="2.06529">
        <ele>1487</ele>
        <time>2013-08-11T15:53:42Z</time>
      </trkpt>
      <trkpt lat="42.45529" lon="2.06529">
        <ele>1487.1</ele>
        <time>2013-08-11T15:53:50Z</time>
      </trkpt>
      <trkpt lat="42.45526" lon="2.06528">
        <ele>1487.6</ele>
        <time>2013-08-11T15:53:54Z</time>
      </trkpt>
      <trkpt lat="42.45522" lon="2.06527">
        <ele>1488</ele>
        <time>2013-08-11T15:53:57Z</time>
      </trkpt>
      <trkpt lat="42.45519" lon="2.06525">
        <ele>1489.3</ele>
        <time>2013-08-11T15:54:00Z</time>
      </trkpt>
      <trkpt lat="42.45515" lon="2.06523">
        <ele>1490</ele>
        <time>2013-08-11T15:54:04Z</time>
      </trkpt>
      <trkpt lat="42.4551" lon="2.06523">
        <ele>1491.4</ele>
        <time>2013-08-11T15:54:09Z</time>
      </trkpt>
      <trkpt lat="42.45506" lon="2.06523">
        <ele>1491.8</ele>
        <time>2013-08-11T15:54:13Z</time>
      </trkpt>
      <trkpt lat="42.45503" lon="2.06524">
        <ele>1492.4</ele>
        <time>2013-08-11T15:54:16Z</time>
      </trkpt>
      <trkpt lat="42.45499" lon="2.06523">
        <ele>1493.6</ele>
        <time>2013-08-11T15:54:20Z</time>
      </trkpt>
      <trkpt lat="42.45498" lon="2.06524">
        <ele>1493.5</ele>
        <time>2013-08-11T15:54:21Z</time>
      </trkpt>
      <trkpt lat="42.45491" lon="2.06523">
        <ele>1495.1</ele>
        <time>2013-08-11T15:54:29Z</time>
      </trkpt>
      <trkpt lat="42.45487" lon="2.06523">
        <ele>1496</ele>
        <time>2013-08-11T15:54:33Z</time>
      </trkpt>
      <trkpt lat="42.45483" lon="2.06524">
        <ele>1496.6</ele>
        <time>2013-08-11T15:54:37Z</time>
      </trkpt>
      <trkpt lat="42.45479" lon="2.06524">
        <ele>1497.7</ele>
        <time>2013-08-11T15:54:46Z</time>
      </trkpt>
      <trkpt lat="42.45475" lon="2.06524">
        <ele>1497.6</ele>
        <time>2013-08-11T15:54:50Z</time>
      </trkpt>
      <trkpt lat="42.45471" lon="2.06525">
        <ele>1498.3</ele>
        <time>2013-08-11T15:54:53Z</time>
      </trkpt>
      <trkpt lat="42.45467" lon="2.06524">
        <ele>1499.4</ele>
        <time>2013-08-11T15:55:08Z</time>
      </trkpt>
      <trkpt lat="42.45464" lon="2.06528">
        <ele>1499.2</ele>
        <time>2013-08-11T15:55:12Z</time>
      </trkpt>
      <trkpt lat="42.45461" lon="2.06531">
        <ele>1499.5</ele>
        <time>2013-08-11T15:55:17Z</time>
      </trkpt>
      <trkpt lat="42.45458" lon="2.06532">
        <ele>1499.7</ele>
        <time>2013-08-11T15:55:20Z</time>
      </trkpt>
      <trkpt lat="42.45454" lon="2.06534">
        <ele>1499.5</ele>
        <time>2013-08-11T15:55:24Z</time>
      </trkpt>
      <trkpt lat="42.45453" lon="2.06535">
        <ele>1499.7</ele>
        <time>2013-08-11T15:55:25Z</time>
      </trkpt>
      <trkpt lat="42.45448" lon="2.06541">
        <ele>1500.7</ele>
        <time>2013-08-11T15:55:33Z</time>
      </trkpt>
      <trkpt lat="42.45447" lon="2.06545">
        <ele>1503</ele>
        <time>2013-08-11T15:55:38Z</time>
      </trkpt>
      <trkpt lat="42.45444" lon="2.06549">
        <ele>1504</ele>
        <time>2013-08-11T15:55:42Z</time>
      </trkpt>
      <trkpt lat="42.45442" lon="2.06553">
        <ele>1504.6</ele>
        <time>2013-08-11T15:55:46Z</time>
      </trkpt>
      <trkpt lat="42.4544" lon="2.06557">
        <ele>1505.5</ele>
        <time>2013-08-11T15:55:50Z</time>
      </trkpt>
      <trkpt lat="42.45438" lon="2.06561">
        <ele>1506.6</ele>
        <time>2013-08-11T15:55:54Z</time>
      </trkpt>
      <trkpt lat="42.45435" lon="2.06565">
        <ele>1507.1</ele>
        <time>2013-08-11T15:55:58Z</time>
      </trkpt>
      <trkpt lat="42.45433" lon="2.0657">
        <ele>1507.5</ele>
        <time>2013-08-11T15:56:02Z</time>
      </trkpt>
      <trkpt lat="42.4543" lon="2.06573">
        <ele>1508.8</ele>
        <time>2013-08-11T15:56:07Z</time>
      </trkpt>
      <trkpt lat="42.45428" lon="2.06578">
        <ele>1509.8</ele>
        <time>2013-08-11T15:56:10Z</time>
      </trkpt>
      <trkpt lat="42.45427" lon="2.06582">
        <ele>1510.1</ele>
        <time>2013-08-11T15:56:13Z</time>
      </trkpt>
      <trkpt lat="42.45425" lon="2.06588">
        <ele>1511.1</ele>
        <time>2013-08-11T15:56:17Z</time>
      </trkpt>
      <trkpt lat="42.45424" lon="2.06593">
        <ele>1512.1</ele>
        <time>2013-08-11T15:56:21Z</time>
      </trkpt>
      <trkpt lat="42.45423" lon="2.06598">
        <ele>1513.3</ele>
        <time>2013-08-11T15:56:24Z</time>
      </trkpt>
      <trkpt lat="42.45422" lon="2.06603">
        <ele>1513.9</ele>
        <time>2013-08-11T15:56:28Z</time>
      </trkpt>
      <trkpt lat="42.45422" lon="2.06604">
        <ele>1514.1</ele>
        <time>2013-08-11T15:56:29Z</time>
      </trkpt>
      <trkpt lat="42.45418" lon="2.06613">
        <ele>1515.1</ele>
        <time>2013-08-11T15:56:39Z</time>
      </trkpt>
      <trkpt lat="42.45417" lon="2.06619">
        <ele>1515.7</ele>
        <time>2013-08-11T15:56:43Z</time>
      </trkpt>
      <trkpt lat="42.45421" lon="2.06621">
        <ele>1518</ele>
        <time>2013-08-11T15:56:58Z</time>
      </trkpt>
      <trkpt lat="42.45425" lon="2.06618">
        <ele>1519.3</ele>
        <time>2013-08-11T15:57:29Z</time>
      </trkpt>
      <trkpt lat="42.45425" lon="2.06618">
        <ele>1519.5</ele>
        <time>2013-08-11T15:57:30Z</time>
      </trkpt>
      <trkpt lat="42.45419" lon="2.06622">
        <ele>1519.6</ele>
        <time>2013-08-11T15:58:01Z</time>
      </trkpt>
      <trkpt lat="42.45416" lon="2.06626">
        <ele>1519.5</ele>
        <time>2013-08-11T15:58:05Z</time>
      </trkpt>
      <trkpt lat="42.45414" lon="2.06631">
        <ele>1519.7</ele>
        <time>2013-08-11T15:58:08Z</time>
      </trkpt>
      <trkpt lat="42.45414" lon="2.06637">
        <ele>1519.9</ele>
        <time>2013-08-11T15:58:11Z</time>
      </trkpt>
      <trkpt lat="42.45413" lon="2.06642">
        <ele>1519.7</ele>
        <time>2013-08-11T15:58:14Z</time>
      </trkpt>
      <trkpt lat="42.45413" lon="2.06647">
        <ele>1519.8</ele>
        <time>2013-08-11T15:58:17Z</time>
      </trkpt>
      <trkpt lat="42.45413" lon="2.06652">
        <ele>1520.3</ele>
        <time>2013-08-11T15:58:20Z</time>
      </trkpt>
      <trkpt lat="42.45413" lon="2.06657">
        <ele>1520.3</ele>
        <time>2013-08-11T15:58:23Z</time>
      </trkpt>
      <trkpt lat="42.45413" lon="2.06651">
        <ele>1520.7</ele>
        <time>2013-08-11T15:58:38Z</time>
      </trkpt>
      <trkpt lat="42.45413" lon="2.0665">
        <ele>1520.8</ele>
        <time>2013-08-11T15:58:39Z</time>
      </trkpt>
      <trkpt lat="42.45415" lon="2.06641">
        <ele>1520.5</ele>
        <time>2013-08-11T15:58:46Z</time>
      </trkpt>
      <trkpt lat="42.45417" lon="2.06637">
        <ele>1520.1</ele>
        <time>2013-08-11T15:58:49Z</time>
      </trkpt>
      <trkpt lat="42.45419" lon="2.06631">
        <ele>1520</ele>
        <time>2013-08-11T15:58:52Z</time>
      </trkpt>
      <trkpt lat="42.45421" lon="2.06627">
        <ele>1519.9</ele>
        <time>2013-08-11T15:58:55Z</time>
      </trkpt>
      <trkpt lat="42.45424" lon="2.06623">
        <ele>1519.8</ele>
        <time>2013-08-11T15:58:58Z</time>
      </trkpt>
      <trkpt lat="42.45426" lon="2.06618">
        <ele>1519.3</ele>
        <time>2013-08-11T15:59:01Z</time>
      </trkpt>
      <trkpt lat="42.45428" lon="2.06615">
        <ele>1520.1</ele>
        <time>2013-08-11T15:59:04Z</time>
      </trkpt>
      <trkpt lat="42.45432" lon="2.06612">
        <ele>1521</ele>
        <time>2013-08-11T15:59:09Z</time>
      </trkpt>
      <trkpt lat="42.45436" lon="2.0661">
        <ele>1522.2</ele>
        <time>2013-08-11T15:59:13Z</time>
      </trkpt>
      <trkpt lat="42.4544" lon="2.06608">
        <ele>1522.4</ele>
        <time>2013-08-11T15:59:17Z</time>
      </trkpt>
      <trkpt lat="42.45444" lon="2.06605">
        <ele>1522.6</ele>
        <time>2013-08-11T15:59:21Z</time>
      </trkpt>
      <trkpt lat="42.45447" lon="2.06602">
        <ele>1523.7</ele>
        <time>2013-08-11T15:59:25Z</time>
      </trkpt>
      <trkpt lat="42.45451" lon="2.066">
        <ele>1524.7</ele>
        <time>2013-08-11T15:59:29Z</time>
      </trkpt>
      <trkpt lat="42.45454" lon="2.06598">
        <ele>1524.9</ele>
        <time>2013-08-11T15:59:34Z</time>
      </trkpt>
      <trkpt lat="42.45458" lon="2.06598">
        <ele>1525.2</ele>
        <time>2013-08-11T15:59:37Z</time>
      </trkpt>
      <trkpt lat="42.45462" lon="2.06598">
        <ele>1526.7</ele>
        <time>2013-08-11T15:59:41Z</time>
      </trkpt>
      <trkpt lat="42.45464" lon="2.06598">
        <ele>1527.1</ele>
        <time>2013-08-11T15:59:42Z</time>
      </trkpt>
      <trkpt lat="42.45469" lon="2.06596">
        <ele>1527.7</ele>
        <time>2013-08-11T15:59:47Z</time>
      </trkpt>
      <trkpt lat="42.45474" lon="2.06597">
        <ele>1528.2</ele>
        <time>2013-08-11T15:59:51Z</time>
      </trkpt>
      <trkpt lat="42.45477" lon="2.06598">
        <ele>1528.8</ele>
        <time>2013-08-11T15:59:54Z</time>
      </trkpt>
      <trkpt lat="42.4548" lon="2.066">
        <ele>1528.4</ele>
        <time>2013-08-11T15:59:57Z</time>
      </trkpt>
      <trkpt lat="42.45484" lon="2.06603">
        <ele>1528</ele>
        <time>2013-08-11T16:00:00Z</time>
      </trkpt>
      <trkpt lat="42.45487" lon="2.06606">
        <ele>1528.9</ele>
        <time>2013-08-11T16:00:04Z</time>
      </trkpt>
      <trkpt lat="42.4549" lon="2.0661">
        <ele>1529.6</ele>
        <time>2013-08-11T16:00:08Z</time>
      </trkpt>
      <trkpt lat="42.45491" lon="2.06615">
        <ele>1529.7</ele>
        <time>2013-08-11T16:00:11Z</time>
      </trkpt>
      <trkpt lat="42.45492" lon="2.06619">
        <ele>1529.9</ele>
        <time>2013-08-11T16:00:14Z</time>
      </trkpt>
      <trkpt lat="42.45492" lon="2.06624">
        <ele>1529.9</ele>
        <time>2013-08-11T16:00:18Z</time>
      </trkpt>
      <trkpt lat="42.45493" lon="2.06629">
        <ele>1530.1</ele>
        <time>2013-08-11T16:00:22Z</time>
      </trkpt>
      <trkpt lat="42.45493" lon="2.06635">
        <ele>1530.1</ele>
        <time>2013-08-11T16:00:26Z</time>
      </trkpt>
      <trkpt lat="42.45494" lon="2.0664">
        <ele>1530</ele>
        <time>2013-08-11T16:00:30Z</time>
      </trkpt>
      <trkpt lat="42.45493" lon="2.06646">
        <ele>1532.7</ele>
        <time>2013-08-11T16:00:41Z</time>
      </trkpt>
      <trkpt lat="42.45489" lon="2.06648">
        <ele>1534.5</ele>
        <time>2013-08-11T16:00:49Z</time>
      </trkpt>
      <trkpt lat="42.45489" lon="2.06649">
        <ele>1534.8</ele>
        <time>2013-08-11T16:00:50Z</time>
      </trkpt>
      <trkpt lat="42.45483" lon="2.06654">
        <ele>1540.9</ele>
        <time>2013-08-11T16:01:27Z</time>
      </trkpt>
      <trkpt lat="42.45479" lon="2.06653">
        <ele>1542.5</ele>
        <time>2013-08-11T16:01:40Z</time>
      </trkpt>
      <trkpt lat="42.45475" lon="2.06651">
        <ele>1546.7</ele>
        <time>2013-08-11T16:02:07Z</time>
      </trkpt>
      <trkpt lat="42.45475" lon="2.0665">
        <ele>1547</ele>
        <time>2013-08-11T16:02:08Z</time>
      </trkpt>
      <trkpt lat="42.45475" lon="2.06645">
        <ele>1551.6</ele>
        <time>2013-08-11T16:02:35Z</time>
      </trkpt>
      <trkpt lat="42.45472" lon="2.06645">
        <ele>1551.2</ele>
        <time>2013-08-11T16:03:43Z</time>
      </trkpt>
      <trkpt lat="42.4547" lon="2.06645">
        <ele>1551</ele>
        <time>2013-08-11T16:03:44Z</time>
      </trkpt>
      <trkpt lat="42.45475" lon="2.0665">
        <ele>1551.2</ele>
        <time>2013-08-11T16:06:01Z</time>
      </trkpt>
      <trkpt lat="42.45475" lon="2.06649">
        <ele>1549.1</ele>
        <time>2013-08-11T16:06:35Z</time>
      </trkpt>
      <trkpt lat="42.45479" lon="2.06652">
        <ele>1548</ele>
        <time>2013-08-11T16:06:44Z</time>
      </trkpt>
      <trkpt lat="42.45482" lon="2.06656">
        <ele>1546.1</ele>
        <time>2013-08-11T16:06:54Z</time>
      </trkpt>
      <trkpt lat="42.45486" lon="2.06654">
        <ele>1540.4</ele>
        <time>2013-08-11T16:07:29Z</time>
      </trkpt>
      <trkpt lat="42.45486" lon="2.06653">
        <ele>1540.2</ele>
        <time>2013-08-11T16:07:30Z</time>
      </trkpt>
      <trkpt lat="42.45494" lon="2.06651">
        <ele>1537.8</ele>
        <time>2013-08-11T16:07:52Z</time>
      </trkpt>
      <trkpt lat="42.45498" lon="2.06648">
        <ele>1536.4</ele>
        <time>2013-08-11T16:07:58Z</time>
      </trkpt>
      <trkpt lat="42.455" lon="2.06643">
        <ele>1533.8</ele>
        <time>2013-08-11T16:08:08Z</time>
      </trkpt>
      <trkpt lat="42.45498" lon="2.06638">
        <ele>1532.8</ele>
        <time>2013-08-11T16:08:13Z</time>
      </trkpt>
      <trkpt lat="42.45497" lon="2.06633">
        <ele>1531.7</ele>
        <time>2013-08-11T16:08:16Z</time>
      </trkpt>
      <trkpt lat="42.45496" lon="2.06629">
        <ele>1531</ele>
        <time>2013-08-11T16:08:19Z</time>
      </trkpt>
      <trkpt lat="42.45496" lon="2.06623">
        <ele>1530.2</ele>
        <time>2013-08-11T16:08:23Z</time>
      </trkpt>
      <trkpt lat="42.45495" lon="2.06617">
        <ele>1529.8</ele>
        <time>2013-08-11T16:08:26Z</time>
      </trkpt>
      <trkpt lat="42.45494" lon="2.06613">
        <ele>1529.8</ele>
        <time>2013-08-11T16:08:28Z</time>
      </trkpt>
      <trkpt lat="42.45492" lon="2.06609">
        <ele>1529.9</ele>
        <time>2013-08-11T16:08:30Z</time>
      </trkpt>
      <trkpt lat="42.45492" lon="2.06607">
        <ele>1530.1</ele>
        <time>2013-08-11T16:08:31Z</time>
      </trkpt>
      <trkpt lat="42.45488" lon="2.066">
        <ele>1530</ele>
        <time>2013-08-11T16:08:36Z</time>
      </trkpt>
      <trkpt lat="42.45485" lon="2.06596">
        <ele>1529.6</ele>
        <time>2013-08-11T16:08:39Z</time>
      </trkpt>
      <trkpt lat="42.45482" lon="2.06594">
        <ele>1529.3</ele>
        <time>2013-08-11T16:08:42Z</time>
      </trkpt>
      <trkpt lat="42.45478" lon="2.06593">
        <ele>1528.7</ele>
        <time>2013-08-11T16:08:45Z</time>
      </trkpt>
      <trkpt lat="42.45474" lon="2.06592">
        <ele>1528.7</ele>
        <time>2013-08-11T16:08:49Z</time>
      </trkpt>
      <trkpt lat="42.4547" lon="2.06594">
        <ele>1528.4</ele>
        <time>2013-08-11T16:08:53Z</time>
      </trkpt>
      <trkpt lat="42.45467" lon="2.06596">
        <ele>1527.5</ele>
        <time>2013-08-11T16:08:56Z</time>
      </trkpt>
      <trkpt lat="42.45463" lon="2.06598">
        <ele>1526.9</ele>
        <time>2013-08-11T16:09:01Z</time>
      </trkpt>
      <trkpt lat="42.4546" lon="2.066">
        <ele>1525.9</ele>
        <time>2013-08-11T16:09:05Z</time>
      </trkpt>
      <trkpt lat="42.45456" lon="2.06602">
        <ele>1524.9</ele>
        <time>2013-08-11T16:09:08Z</time>
      </trkpt>
      <trkpt lat="42.45453" lon="2.06604">
        <ele>1524.6</ele>
        <time>2013-08-11T16:09:11Z</time>
      </trkpt>
      <trkpt lat="42.4545" lon="2.06605">
        <ele>1524.2</ele>
        <time>2013-08-11T16:09:14Z</time>
      </trkpt>
      <trkpt lat="42.45447" lon="2.06606">
        <ele>1524.1</ele>
        <time>2013-08-11T16:09:17Z</time>
      </trkpt>
      <trkpt lat="42.45442" lon="2.06606">
        <ele>1524.6</ele>
        <time>2013-08-11T16:09:20Z</time>
      </trkpt>
      <trkpt lat="42.45439" lon="2.06607">
        <ele>1523.8</ele>
        <time>2013-08-11T16:09:23Z</time>
      </trkpt>
      <trkpt lat="42.45436" lon="2.06609">
        <ele>1522.9</ele>
        <time>2013-08-11T16:09:26Z</time>
      </trkpt>
      <trkpt lat="42.45432" lon="2.06609">
        <ele>1521.5</ele>
        <time>2013-08-11T16:09:29Z</time>
      </trkpt>
      <trkpt lat="42.45428" lon="2.06611">
        <ele>1521</ele>
        <time>2013-08-11T16:09:32Z</time>
      </trkpt>
      <trkpt lat="42.45427" lon="2.06612">
        <ele>1520.9</ele>
        <time>2013-08-11T16:09:33Z</time>
      </trkpt>
      <trkpt lat="42.45421" lon="2.06616">
        <ele>1519.6</ele>
        <time>2013-08-11T16:09:40Z</time>
      </trkpt>
      <trkpt lat="42.45417" lon="2.06618">
        <ele>1519.1</ele>
        <time>2013-08-11T16:09:43Z</time>
      </trkpt>
      <trkpt lat="42.45414" lon="2.06622">
        <ele>1518.9</ele>
        <time>2013-08-11T16:09:46Z</time>
      </trkpt>
      <trkpt lat="42.45412" lon="2.06625">
        <ele>1518.4</ele>
        <time>2013-08-11T16:09:49Z</time>
      </trkpt>
      <trkpt lat="42.4541" lon="2.0663">
        <ele>1517.6</ele>
        <time>2013-08-11T16:09:52Z</time>
      </trkpt>
      <trkpt lat="42.45409" lon="2.06635">
        <ele>1516.9</ele>
        <time>2013-08-11T16:09:55Z</time>
      </trkpt>
      <trkpt lat="42.45408" lon="2.0664">
        <ele>1516.2</ele>
        <time>2013-08-11T16:09:58Z</time>
      </trkpt>
      <trkpt lat="42.45407" lon="2.06645">
        <ele>1516</ele>
        <time>2013-08-11T16:10:01Z</time>
      </trkpt>
      <trkpt lat="42.45405" lon="2.06651">
        <ele>1515</ele>
        <time>2013-08-11T16:10:04Z</time>
      </trkpt>
      <trkpt lat="42.45405" lon="2.06655">
        <ele>1515.1</ele>
        <time>2013-08-11T16:10:07Z</time>
      </trkpt>
      <trkpt lat="42.45404" lon="2.06661">
        <ele>1516.1</ele>
        <time>2013-08-11T16:10:11Z</time>
      </trkpt>
      <trkpt lat="42.45402" lon="2.06667">
        <ele>1515.2</ele>
        <time>2013-08-11T16:10:15Z</time>
      </trkpt>
      <trkpt lat="42.45401" lon="2.06671">
        <ele>1514.3</ele>
        <time>2013-08-11T16:10:18Z</time>
      </trkpt>
      <trkpt lat="42.45399" lon="2.06675">
        <ele>1513.9</ele>
        <time>2013-08-11T16:10:21Z</time>
      </trkpt>
      <trkpt lat="42.45398" lon="2.0668">
        <ele>1513.8</ele>
        <time>2013-08-11T16:10:24Z</time>
      </trkpt>
      <trkpt lat="42.45397" lon="2.06685">
        <ele>1513.8</ele>
        <time>2013-08-11T16:10:27Z</time>
      </trkpt>
      <trkpt lat="42.45396" lon="2.06689">
        <ele>1513.4</ele>
        <time>2013-08-11T16:10:30Z</time>
      </trkpt>
      <trkpt lat="42.45395" lon="2.06693">
        <ele>1513.5</ele>
        <time>2013-08-11T16:10:33Z</time>
      </trkpt>
      <trkpt lat="42.45394" lon="2.06695">
        <ele>1513.4</ele>
        <time>2013-08-11T16:10:34Z</time>
      </trkpt>
      <trkpt lat="42.45392" lon="2.06703">
        <ele>1513.2</ele>
        <time>2013-08-11T16:10:39Z</time>
      </trkpt>
      <trkpt lat="42.45391" lon="2.06708">
        <ele>1512.8</ele>
        <time>2013-08-11T16:10:42Z</time>
      </trkpt>
      <trkpt lat="42.4539" lon="2.06713">
        <ele>1513</ele>
        <time>2013-08-11T16:10:45Z</time>
      </trkpt>
      <trkpt lat="42.45388" lon="2.06717">
        <ele>1512.9</ele>
        <time>2013-08-11T16:10:49Z</time>
      </trkpt>
      <trkpt lat="42.45385" lon="2.06721">
        <ele>1513.1</ele>
        <time>2013-08-11T16:10:53Z</time>
      </trkpt>
      <trkpt lat="42.45382" lon="2.06725">
        <ele>1514</ele>
        <time>2013-08-11T16:10:58Z</time>
      </trkpt>
      <trkpt lat="42.45379" lon="2.06728">
        <ele>1515.1</ele>
        <time>2013-08-11T16:11:05Z</time>
      </trkpt>
      <trkpt lat="42.45377" lon="2.06732">
        <ele>1515.2</ele>
        <time>2013-08-11T16:11:10Z</time>
      </trkpt>
      <trkpt lat="42.45375" lon="2.06738">
        <ele>1514.9</ele>
        <time>2013-08-11T16:11:14Z</time>
      </trkpt>
      <trkpt lat="42.45374" lon="2.06743">
        <ele>1516.8</ele>
        <time>2013-08-11T16:11:20Z</time>
      </trkpt>
      <trkpt lat="42.45373" lon="2.06748">
        <ele>1517.6</ele>
        <time>2013-08-11T16:11:24Z</time>
      </trkpt>
      <trkpt lat="42.45371" lon="2.06752">
        <ele>1517.8</ele>
        <time>2013-08-11T16:11:28Z</time>
      </trkpt>
      <trkpt lat="42.45369" lon="2.06757">
        <ele>1518.9</ele>
        <time>2013-08-11T16:11:33Z</time>
      </trkpt>
      <trkpt lat="42.45366" lon="2.06761">
        <ele>1520.2</ele>
        <time>2013-08-11T16:11:37Z</time>
      </trkpt>
      <trkpt lat="42.45366" lon="2.06762">
        <ele>1520.7</ele>
        <time>2013-08-11T16:11:38Z</time>
      </trkpt>
      <trkpt lat="42.45362" lon="2.06771">
        <ele>1521.7</ele>
        <time>2013-08-11T16:11:46Z</time>
      </trkpt>
      <trkpt lat="42.4536" lon="2.06776">
        <ele>1522</ele>
        <time>2013-08-11T16:11:50Z</time>
      </trkpt>
      <trkpt lat="42.45359" lon="2.06781">
        <ele>1523.9</ele>
        <time>2013-08-11T16:11:55Z</time>
      </trkpt>
      <trkpt lat="42.45358" lon="2.06786">
        <ele>1524.6</ele>
        <time>2013-08-11T16:12:00Z</time>
      </trkpt>
      <trkpt lat="42.45356" lon="2.0679">
        <ele>1525.5</ele>
        <time>2013-08-11T16:12:05Z</time>
      </trkpt>
      <trkpt lat="42.45355" lon="2.06796">
        <ele>1526.3</ele>
        <time>2013-08-11T16:12:10Z</time>
      </trkpt>
      <trkpt lat="42.45353" lon="2.06801">
        <ele>1527.2</ele>
        <time>2013-08-11T16:12:15Z</time>
      </trkpt>
      <trkpt lat="42.45351" lon="2.06806">
        <ele>1528.9</ele>
        <time>2013-08-11T16:12:20Z</time>
      </trkpt>
      <trkpt lat="42.45349" lon="2.0681">
        <ele>1529.3</ele>
        <time>2013-08-11T16:12:25Z</time>
      </trkpt>
      <trkpt lat="42.45346" lon="2.06814">
        <ele>1530.7</ele>
        <time>2013-08-11T16:12:30Z</time>
      </trkpt>
      <trkpt lat="42.45345" lon="2.06819">
        <ele>1531.5</ele>
        <time>2013-08-11T16:12:37Z</time>
      </trkpt>
      <trkpt lat="42.45343" lon="2.06824">
        <ele>1533.3</ele>
        <time>2013-08-11T16:12:43Z</time>
      </trkpt>
      <trkpt lat="42.45343" lon="2.06824">
        <ele>1533.7</ele>
        <time>2013-08-11T16:12:44Z</time>
      </trkpt>
      <trkpt lat="42.45339" lon="2.06833">
        <ele>1535.5</ele>
        <time>2013-08-11T16:12:55Z</time>
      </trkpt>
      <trkpt lat="42.45338" lon="2.06838">
        <ele>1536.6</ele>
        <time>2013-08-11T16:13:01Z</time>
      </trkpt>
      <trkpt lat="42.45336" lon="2.06844">
        <ele>1539.1</ele>
        <time>2013-08-11T16:13:21Z</time>
      </trkpt>
      <trkpt lat="42.45336" lon="2.06849">
        <ele>1539</ele>
        <time>2013-08-11T16:13:49Z</time>
      </trkpt>
      <trkpt lat="42.45335" lon="2.06851">
        <ele>1539.3</ele>
        <time>2013-08-11T16:13:50Z</time>
      </trkpt>
      <trkpt lat="42.45333" lon="2.0686">
        <ele>1541.4</ele>
        <time>2013-08-11T16:14:05Z</time>
      </trkpt>
      <trkpt lat="42.45329" lon="2.06864">
        <ele>1542.8</ele>
        <time>2013-08-11T16:14:11Z</time>
      </trkpt>
      <trkpt lat="42.45327" lon="2.06869">
        <ele>1543.3</ele>
        <time>2013-08-11T16:14:18Z</time>
      </trkpt>
      <trkpt lat="42.45326" lon="2.06875">
        <ele>1545.1</ele>
        <time>2013-08-11T16:14:26Z</time>
      </trkpt>
      <trkpt lat="42.45324" lon="2.0688">
        <ele>1546.5</ele>
        <time>2013-08-11T16:14:32Z</time>
      </trkpt>
      <trkpt lat="42.45322" lon="2.06886">
        <ele>1547.9</ele>
        <time>2013-08-11T16:14:40Z</time>
      </trkpt>
      <trkpt lat="42.45319" lon="2.0689">
        <ele>1548.8</ele>
        <time>2013-08-11T16:14:46Z</time>
      </trkpt>
      <trkpt lat="42.45316" lon="2.06894">
        <ele>1549.8</ele>
        <time>2013-08-11T16:14:51Z</time>
      </trkpt>
      <trkpt lat="42.45316" lon="2.06894">
        <ele>1550.1</ele>
        <time>2013-08-11T16:14:52Z</time>
      </trkpt>
      <trkpt lat="42.45311" lon="2.06902">
        <ele>1552</ele>
        <time>2013-08-11T16:15:03Z</time>
      </trkpt>
      <trkpt lat="42.45308" lon="2.06906">
        <ele>1553.1</ele>
        <time>2013-08-11T16:15:09Z</time>
      </trkpt>
      <trkpt lat="42.45306" lon="2.06911">
        <ele>1554.1</ele>
        <time>2013-08-11T16:15:14Z</time>
      </trkpt>
      <trkpt lat="42.45304" lon="2.06915">
        <ele>1554.4</ele>
        <time>2013-08-11T16:15:20Z</time>
      </trkpt>
      <trkpt lat="42.45302" lon="2.0692">
        <ele>1555.3</ele>
        <time>2013-08-11T16:15:26Z</time>
      </trkpt>
      <trkpt lat="42.45299" lon="2.06924">
        <ele>1556.3</ele>
        <time>2013-08-11T16:15:32Z</time>
      </trkpt>
      <trkpt lat="42.45295" lon="2.06924">
        <ele>1556.9</ele>
        <time>2013-08-11T16:15:38Z</time>
      </trkpt>
      <trkpt lat="42.45292" lon="2.06928">
        <ele>1558.4</ele>
        <time>2013-08-11T16:16:27Z</time>
      </trkpt>
      <trkpt lat="42.45291" lon="2.06928">
        <ele>1558.2</ele>
        <time>2013-08-11T16:16:28Z</time>
      </trkpt>
      <trkpt lat="42.45284" lon="2.06924">
        <ele>1559.4</ele>
        <time>2013-08-11T16:16:37Z</time>
      </trkpt>
      <trkpt lat="42.4528" lon="2.06921">
        <ele>1560</ele>
        <time>2013-08-11T16:16:44Z</time>
      </trkpt>
      <trkpt lat="42.45276" lon="2.0692">
        <ele>1561.5</ele>
        <time>2013-08-11T16:16:52Z</time>
      </trkpt>
      <trkpt lat="42.45272" lon="2.06919">
        <ele>1563.5</ele>
        <time>2013-08-11T16:17:02Z</time>
      </trkpt>
      <trkpt lat="42.45268" lon="2.06918">
        <ele>1564.8</ele>
        <time>2013-08-11T16:17:09Z</time>
      </trkpt>
      <trkpt lat="42.45265" lon="2.06916">
        <ele>1565.1</ele>
        <time>2013-08-11T16:17:13Z</time>
      </trkpt>
      <trkpt lat="42.45261" lon="2.06915">
        <ele>1566.5</ele>
        <time>2013-08-11T16:17:17Z</time>
      </trkpt>
      <trkpt lat="42.45258" lon="2.06914">
        <ele>1567</ele>
        <time>2013-08-11T16:17:21Z</time>
      </trkpt>
      <trkpt lat="42.45254" lon="2.06913">
        <ele>1567.7</ele>
        <time>2013-08-11T16:17:28Z</time>
      </trkpt>
      <trkpt lat="42.45252" lon="2.06913">
        <ele>1567.9</ele>
        <time>2013-08-11T16:17:29Z</time>
      </trkpt>
      <trkpt lat="42.45246" lon="2.06914">
        <ele>1568.7</ele>
        <time>2013-08-11T16:17:41Z</time>
      </trkpt>
      <trkpt lat="42.45242" lon="2.06914">
        <ele>1570.3</ele>
        <time>2013-08-11T16:17:47Z</time>
      </trkpt>
      <trkpt lat="42.45238" lon="2.06915">
        <ele>1571.1</ele>
        <time>2013-08-11T16:17:54Z</time>
      </trkpt>
      <trkpt lat="42.45234" lon="2.06914">
        <ele>1572.7</ele>
        <time>2013-08-11T16:18:23Z</time>
      </trkpt>
      <trkpt lat="42.4523" lon="2.06914">
        <ele>1574.6</ele>
        <time>2013-08-11T16:18:34Z</time>
      </trkpt>
      <trkpt lat="42.45229" lon="2.06914">
        <ele>1574.8</ele>
        <time>2013-08-11T16:18:35Z</time>
      </trkpt>
      <trkpt lat="42.45222" lon="2.0691">
        <ele>1576</ele>
        <time>2013-08-11T16:18:46Z</time>
      </trkpt>
      <trkpt lat="42.45219" lon="2.06909">
        <ele>1576.4</ele>
        <time>2013-08-11T16:18:49Z</time>
      </trkpt>
      <trkpt lat="42.45215" lon="2.06907">
        <ele>1577.6</ele>
        <time>2013-08-11T16:18:56Z</time>
      </trkpt>
      <trkpt lat="42.4521" lon="2.06906">
        <ele>1579.3</ele>
        <time>2013-08-11T16:19:03Z</time>
      </trkpt>
      <trkpt lat="42.45208" lon="2.06903">
        <ele>1579.9</ele>
        <time>2013-08-11T16:19:07Z</time>
      </trkpt>
      <trkpt lat="42.45204" lon="2.06903">
        <ele>1580.6</ele>
        <time>2013-08-11T16:19:12Z</time>
      </trkpt>
      <trkpt lat="42.452" lon="2.06904">
        <ele>1583</ele>
        <time>2013-08-11T16:20:10Z</time>
      </trkpt>
      <trkpt lat="42.45199" lon="2.06904">
        <ele>1582.9</ele>
        <time>2013-08-11T16:20:11Z</time>
      </trkpt>
      <trkpt lat="42.45191" lon="2.06906">
        <ele>1584.9</ele>
        <time>2013-08-11T16:20:23Z</time>
      </trkpt>
      <trkpt lat="42.45188" lon="2.06908">
        <ele>1585.6</ele>
        <time>2013-08-11T16:20:29Z</time>
      </trkpt>
      <trkpt lat="42.45183" lon="2.06909">
        <ele>1586.4</ele>
        <time>2013-08-11T16:20:35Z</time>
      </trkpt>
      <trkpt lat="42.45179" lon="2.06911">
        <ele>1587.6</ele>
        <time>2013-08-11T16:20:41Z</time>
      </trkpt>
      <trkpt lat="42.45175" lon="2.06914">
        <ele>1588.6</ele>
        <time>2013-08-11T16:20:47Z</time>
      </trkpt>
      <trkpt lat="42.45172" lon="2.06918">
        <ele>1588.4</ele>
        <time>2013-08-11T16:20:53Z</time>
      </trkpt>
      <trkpt lat="42.4517" lon="2.06922">
        <ele>1589.2</ele>
        <time>2013-08-11T16:20:59Z</time>
      </trkpt>
      <trkpt lat="42.45167" lon="2.06927">
        <ele>1590.7</ele>
        <time>2013-08-11T16:21:05Z</time>
      </trkpt>
      <trkpt lat="42.45164" lon="2.06931">
        <ele>1592.9</ele>
        <time>2013-08-11T16:21:17Z</time>
      </trkpt>
      <trkpt lat="42.45164" lon="2.06931">
        <ele>1593.1</ele>
        <time>2013-08-11T16:21:18Z</time>
      </trkpt>
      <trkpt lat="42.45158" lon="2.06938">
        <ele>1594.1</ele>
        <time>2013-08-11T16:21:31Z</time>
      </trkpt>
      <trkpt lat="42.45155" lon="2.06943">
        <ele>1595.3</ele>
        <time>2013-08-11T16:21:38Z</time>
      </trkpt>
      <trkpt lat="42.45152" lon="2.06948">
        <ele>1596.2</ele>
        <time>2013-08-11T16:21:45Z</time>
      </trkpt>
      <trkpt lat="42.45149" lon="2.06952">
        <ele>1596.6</ele>
        <time>2013-08-11T16:21:52Z</time>
      </trkpt>
      <trkpt lat="42.45147" lon="2.06957">
        <ele>1597</ele>
        <time>2013-08-11T16:21:59Z</time>
      </trkpt>
      <trkpt lat="42.45142" lon="2.06957">
        <ele>1598.5</ele>
        <time>2013-08-11T16:22:12Z</time>
      </trkpt>
      <trkpt lat="42.45138" lon="2.06955">
        <ele>1597.4</ele>
        <time>2013-08-11T16:22:24Z</time>
      </trkpt>
      <trkpt lat="42.45138" lon="2.06955">
        <ele>1597.3</ele>
        <time>2013-08-11T16:22:25Z</time>
      </trkpt>
      <trkpt lat="42.45132" lon="2.06961">
        <ele>1599.6</ele>
        <time>2013-08-11T16:22:55Z</time>
      </trkpt>
      <trkpt lat="42.45131" lon="2.06966">
        <ele>1600.8</ele>
        <time>2013-08-11T16:23:03Z</time>
      </trkpt>
      <trkpt lat="42.45129" lon="2.06971">
        <ele>1601.8</ele>
        <time>2013-08-11T16:23:12Z</time>
      </trkpt>
      <trkpt lat="42.45126" lon="2.06975">
        <ele>1603</ele>
        <time>2013-08-11T16:23:20Z</time>
      </trkpt>
      <trkpt lat="42.45123" lon="2.06978">
        <ele>1603.3</ele>
        <time>2013-08-11T16:23:31Z</time>
      </trkpt>
      <trkpt lat="42.45122" lon="2.06979">
        <ele>1603.3</ele>
        <time>2013-08-11T16:23:32Z</time>
      </trkpt>
      <trkpt lat="42.45116" lon="2.06984">
        <ele>1605.8</ele>
        <time>2013-08-11T16:23:46Z</time>
      </trkpt>
      <trkpt lat="42.45112" lon="2.06988">
        <ele>1608</ele>
        <time>2013-08-11T16:23:56Z</time>
      </trkpt>
      <trkpt lat="42.4511" lon="2.06992">
        <ele>1609.4</ele>
        <time>2013-08-11T16:24:03Z</time>
      </trkpt>
      <trkpt lat="42.45106" lon="2.06993">
        <ele>1610.1</ele>
        <time>2013-08-11T16:24:09Z</time>
      </trkpt>
      <trkpt lat="42.45102" lon="2.06995">
        <ele>1611.5</ele>
        <time>2013-08-11T16:24:15Z</time>
      </trkpt>
      <trkpt lat="42.45098" lon="2.06996">
        <ele>1613.4</ele>
        <time>2013-08-11T16:24:39Z</time>
      </trkpt>
      <trkpt lat="42.45098" lon="2.06997">
        <ele>1613.4</ele>
        <time>2013-08-11T16:24:40Z</time>
      </trkpt>
      <trkpt lat="42.45093" lon="2.07005">
        <ele>1616.6</ele>
        <time>2013-08-11T16:25:27Z</time>
      </trkpt>
      <trkpt lat="42.45089" lon="2.07008">
        <ele>1616.7</ele>
        <time>2013-08-11T16:25:34Z</time>
      </trkpt>
      <trkpt lat="42.45085" lon="2.0701">
        <ele>1617.9</ele>
        <time>2013-08-11T16:25:41Z</time>
      </trkpt>
      <trkpt lat="42.45084" lon="2.0701">
        <ele>1617.9</ele>
        <time>2013-08-11T16:25:42Z</time>
      </trkpt>
      <trkpt lat="42.45076" lon="2.0701">
        <ele>1619.8</ele>
        <time>2013-08-11T16:26:02Z</time>
      </trkpt>
      <trkpt lat="42.45076" lon="2.07016">
        <ele>1620.2</ele>
        <time>2013-08-11T16:26:23Z</time>
      </trkpt>
      <trkpt lat="42.45079" lon="2.0702">
        <ele>1621.6</ele>
        <time>2013-08-11T16:26:30Z</time>
      </trkpt>
      <trkpt lat="42.45076" lon="2.07024">
        <ele>1620.6</ele>
        <time>2013-08-11T16:27:36Z</time>
      </trkpt>
      <trkpt lat="42.45076" lon="2.07025">
        <ele>1620.6</ele>
        <time>2013-08-11T16:27:37Z</time>
      </trkpt>
      <trkpt lat="42.45068" lon="2.07027">
        <ele>1623.1</ele>
        <time>2013-08-11T16:27:46Z</time>
      </trkpt>
      <trkpt lat="42.45064" lon="2.0703">
        <ele>1622.6</ele>
        <time>2013-08-11T16:27:50Z</time>
      </trkpt>
      <trkpt lat="42.45063" lon="2.07034">
        <ele>1623.2</ele>
        <time>2013-08-11T16:27:52Z</time>
      </trkpt>
      <trkpt lat="42.45061" lon="2.07038">
        <ele>1623.6</ele>
        <time>2013-08-11T16:27:55Z</time>
      </trkpt>
      <trkpt lat="42.45058" lon="2.07041">
        <ele>1624.1</ele>
        <time>2013-08-11T16:27:59Z</time>
      </trkpt>
      <trkpt lat="42.45056" lon="2.07046">
        <ele>1624.8</ele>
        <time>2013-08-11T16:28:03Z</time>
      </trkpt>
      <trkpt lat="42.45054" lon="2.07051">
        <ele>1625.3</ele>
        <time>2013-08-11T16:28:07Z</time>
      </trkpt>
      <trkpt lat="42.45051" lon="2.07055">
        <ele>1625.4</ele>
        <time>2013-08-11T16:28:13Z</time>
      </trkpt>
      <trkpt lat="42.45049" lon="2.0705">
        <ele>1626.6</ele>
        <time>2013-08-11T16:28:22Z</time>
      </trkpt>
      <trkpt lat="42.4505" lon="2.07044">
        <ele>1626.7</ele>
        <time>2013-08-11T16:28:26Z</time>
      </trkpt>
      <trkpt lat="42.4505" lon="2.07039">
        <ele>1627.1</ele>
        <time>2013-08-11T16:28:29Z</time>
      </trkpt>
      <trkpt lat="42.45049" lon="2.07034">
        <ele>1628</ele>
        <time>2013-08-11T16:28:34Z</time>
      </trkpt>
      <trkpt lat="42.45048" lon="2.07028">
        <ele>1628.9</ele>
        <time>2013-08-11T16:28:38Z</time>
      </trkpt>
      <trkpt lat="42.45048" lon="2.07027">
        <ele>1628.7</ele>
        <time>2013-08-11T16:28:39Z</time>
      </trkpt>
      <trkpt lat="42.45048" lon="2.07017">
        <ele>1629.1</ele>
        <time>2013-08-11T16:28:51Z</time>
      </trkpt>
      <trkpt lat="42.45049" lon="2.07011">
        <ele>1630.8</ele>
        <time>2013-08-11T16:28:59Z</time>
      </trkpt>
      <trkpt lat="42.45053" lon="2.07008">
        <ele>1630.9</ele>
        <time>2013-08-11T16:29:20Z</time>
      </trkpt>
      <trkpt lat="42.45055" lon="2.07004">
        <ele>1633.2</ele>
        <time>2013-08-11T16:29:27Z</time>
      </trkpt>
      <trkpt lat="42.45056" lon="2.06998">
        <ele>1634.3</ele>
        <time>2013-08-11T16:29:34Z</time>
      </trkpt>
      <trkpt lat="42.45057" lon="2.06993">
        <ele>1634.8</ele>
        <time>2013-08-11T16:29:41Z</time>
      </trkpt>
      <trkpt lat="42.45057" lon="2.06992">
        <ele>1634.9</ele>
        <time>2013-08-11T16:29:42Z</time>
      </trkpt>
      <trkpt lat="42.45058" lon="2.06982">
        <ele>1637.1</ele>
        <time>2013-08-11T16:30:01Z</time>
      </trkpt>
      <trkpt lat="42.45061" lon="2.06978">
        <ele>1639.2</ele>
        <time>2013-08-11T16:30:10Z</time>
      </trkpt>
      <trkpt lat="42.45063" lon="2.06972">
        <ele>1640</ele>
        <time>2013-08-11T16:30:17Z</time>
      </trkpt>
      <trkpt lat="42.45063" lon="2.06966">
        <ele>1640.4</ele>
        <time>2013-08-11T16:30:22Z</time>
      </trkpt>
      <trkpt lat="42.45064" lon="2.06961">
        <ele>1641.1</ele>
        <time>2013-08-11T16:30:27Z</time>
      </trkpt>
      <trkpt lat="42.45067" lon="2.06956">
        <ele>1641.6</ele>
        <time>2013-08-11T16:30:32Z</time>
      </trkpt>
      <trkpt lat="42.45069" lon="2.06953">
        <ele>1641.9</ele>
        <time>2013-08-11T16:30:37Z</time>
      </trkpt>
      <trkpt lat="42.4507" lon="2.06947">
        <ele>1641.6</ele>
        <time>2013-08-11T16:30:41Z</time>
      </trkpt>
      <trkpt lat="42.45071" lon="2.06942">
        <ele>1641.6</ele>
        <time>2013-08-11T16:30:45Z</time>
      </trkpt>
      <trkpt lat="42.45071" lon="2.06941">
        <ele>1641.7</ele>
        <time>2013-08-11T16:30:46Z</time>
      </trkpt>
      <trkpt lat="42.4507" lon="2.06931">
        <ele>1642.8</ele>
        <time>2013-08-11T16:30:53Z</time>
      </trkpt>
      <trkpt lat="42.45072" lon="2.06927">
        <ele>1642.5</ele>
        <time>2013-08-11T16:30:57Z</time>
      </trkpt>
      <trkpt lat="42.45074" lon="2.06922">
        <ele>1643.4</ele>
        <time>2013-08-11T16:31:02Z</time>
      </trkpt>
      <trkpt lat="42.45075" lon="2.06917">
        <ele>1643.3</ele>
        <time>2013-08-11T16:31:06Z</time>
      </trkpt>
      <trkpt lat="42.45074" lon="2.06911">
        <ele>1644</ele>
        <time>2013-08-11T16:31:14Z</time>
      </trkpt>
      <trkpt lat="42.45074" lon="2.06906">
        <ele>1645.6</ele>
        <time>2013-08-11T16:31:27Z</time>
      </trkpt>
      <trkpt lat="42.45076" lon="2.06901">
        <ele>1647</ele>
        <time>2013-08-11T16:31:34Z</time>
      </trkpt>
      <trkpt lat="42.45078" lon="2.06896">
        <ele>1647</ele>
        <time>2013-08-11T16:31:41Z</time>
      </trkpt>
      <trkpt lat="42.45077" lon="2.06891">
        <ele>1647.3</ele>
        <time>2013-08-11T16:31:50Z</time>
      </trkpt>
      <trkpt lat="42.45077" lon="2.0689">
        <ele>1647.9</ele>
        <time>2013-08-11T16:31:51Z</time>
      </trkpt>
      <trkpt lat="42.45077" lon="2.06882">
        <ele>1649.8</ele>
        <time>2013-08-11T16:31:58Z</time>
      </trkpt>
      <trkpt lat="42.45075" lon="2.06876">
        <ele>1650.6</ele>
        <time>2013-08-11T16:32:03Z</time>
      </trkpt>
      <trkpt lat="42.45074" lon="2.06871">
        <ele>1651.4</ele>
        <time>2013-08-11T16:32:16Z</time>
      </trkpt>
      <trkpt lat="42.45075" lon="2.06866">
        <ele>1650.9</ele>
        <time>2013-08-11T16:32:31Z</time>
      </trkpt>
      <trkpt lat="42.45077" lon="2.0686">
        <ele>1650.8</ele>
        <time>2013-08-11T16:32:38Z</time>
      </trkpt>
      <trkpt lat="42.45078" lon="2.06855">
        <ele>1651.5</ele>
        <time>2013-08-11T16:32:47Z</time>
      </trkpt>
      <trkpt lat="42.45079" lon="2.06849">
        <ele>1652.5</ele>
        <time>2013-08-11T16:33:02Z</time>
      </trkpt>
      <trkpt lat="42.45079" lon="2.06849">
        <ele>1652.4</ele>
        <time>2013-08-11T16:33:03Z</time>
      </trkpt>
      <trkpt lat="42.45076" lon="2.06839">
        <ele>1653.2</ele>
        <time>2013-08-11T16:33:14Z</time>
      </trkpt>
      <trkpt lat="42.45074" lon="2.06834">
        <ele>1653.8</ele>
        <time>2013-08-11T16:33:19Z</time>
      </trkpt>
      <trkpt lat="42.45072" lon="2.06829">
        <ele>1654.5</ele>
        <time>2013-08-11T16:33:25Z</time>
      </trkpt>
      <trkpt lat="42.45072" lon="2.06823">
        <ele>1655</ele>
        <time>2013-08-11T16:33:32Z</time>
      </trkpt>
      <trkpt lat="42.45071" lon="2.06818">
        <ele>1656.2</ele>
        <time>2013-08-11T16:33:38Z</time>
      </trkpt>
      <trkpt lat="42.45071" lon="2.06813">
        <ele>1657.2</ele>
        <time>2013-08-11T16:33:42Z</time>
      </trkpt>
      <trkpt lat="42.45068" lon="2.06809">
        <ele>1657.9</ele>
        <time>2013-08-11T16:33:48Z</time>
      </trkpt>
      <trkpt lat="42.45064" lon="2.06807">
        <ele>1659</ele>
        <time>2013-08-11T16:33:56Z</time>
      </trkpt>
      <trkpt lat="42.4506" lon="2.06803">
        <ele>1660.2</ele>
        <time>2013-08-11T16:34:03Z</time>
      </trkpt>
      <trkpt lat="42.4506" lon="2.06803">
        <ele>1660.3</ele>
        <time>2013-08-11T16:34:04Z</time>
      </trkpt>
      <trkpt lat="42.45068" lon="2.06801">
        <ele>1660.4</ele>
        <time>2013-08-11T16:34:44Z</time>
      </trkpt>
      <trkpt lat="42.45069" lon="2.06796">
        <ele>1659.7</ele>
        <time>2013-08-11T16:34:51Z</time>
      </trkpt>
      <trkpt lat="42.4507" lon="2.0679">
        <ele>1660.9</ele>
        <time>2013-08-11T16:34:57Z</time>
      </trkpt>
      <trkpt lat="42.4507" lon="2.06784">
        <ele>1660.8</ele>
        <time>2013-08-11T16:35:03Z</time>
      </trkpt>
      <trkpt lat="42.45067" lon="2.0678">
        <ele>1661.9</ele>
        <time>2013-08-11T16:35:09Z</time>
      </trkpt>
      <trkpt lat="42.45066" lon="2.06779">
        <ele>1662</ele>
        <time>2013-08-11T16:35:10Z</time>
      </trkpt>
      <trkpt lat="42.45063" lon="2.06769">
        <ele>1659.8</ele>
        <time>2013-08-11T16:36:01Z</time>
      </trkpt>
      <trkpt lat="42.45066" lon="2.06774">
        <ele>1659.9</ele>
        <time>2013-08-11T16:36:35Z</time>
      </trkpt>
      <trkpt lat="42.45066" lon="2.06774">
        <ele>1659.9</ele>
        <time>2013-08-11T16:36:36Z</time>
      </trkpt>
      <trkpt lat="42.4507" lon="2.06783">
        <ele>1661</ele>
        <time>2013-08-11T16:36:59Z</time>
      </trkpt>
      <trkpt lat="42.4507" lon="2.06789">
        <ele>1661.1</ele>
        <time>2013-08-11T16:37:03Z</time>
      </trkpt>
      <trkpt lat="42.45069" lon="2.06794">
        <ele>1661.4</ele>
        <time>2013-08-11T16:37:09Z</time>
      </trkpt>
      <trkpt lat="42.45067" lon="2.06799">
        <ele>1661.1</ele>
        <time>2013-08-11T16:37:14Z</time>
      </trkpt>
      <trkpt lat="42.45065" lon="2.06804">
        <ele>1660.6</ele>
        <time>2013-08-11T16:37:18Z</time>
      </trkpt>
      <trkpt lat="42.45066" lon="2.06809">
        <ele>1659.7</ele>
        <time>2013-08-11T16:37:22Z</time>
      </trkpt>
      <trkpt lat="42.45067" lon="2.06814">
        <ele>1657</ele>
        <time>2013-08-11T16:37:31Z</time>
      </trkpt>
      <trkpt lat="42.45067" lon="2.0682">
        <ele>1656</ele>
        <time>2013-08-11T16:37:36Z</time>
      </trkpt>
      <trkpt lat="42.45067" lon="2.06826">
        <ele>1654.6</ele>
        <time>2013-08-11T16:37:41Z</time>
      </trkpt>
      <trkpt lat="42.45067" lon="2.06827">
        <ele>1654.1</ele>
        <time>2013-08-11T16:37:42Z</time>
      </trkpt>
      <trkpt lat="42.45068" lon="2.06834">
        <ele>1653.7</ele>
        <time>2013-08-11T16:37:46Z</time>
      </trkpt>
      <trkpt lat="42.45069" lon="2.06838">
        <ele>1653.2</ele>
        <time>2013-08-11T16:37:48Z</time>
      </trkpt>
      <trkpt lat="42.45071" lon="2.06842">
        <ele>1652.9</ele>
        <time>2013-08-11T16:37:50Z</time>
      </trkpt>
      <trkpt lat="42.45071" lon="2.06847">
        <ele>1652.2</ele>
        <time>2013-08-11T16:37:53Z</time>
      </trkpt>
      <trkpt lat="42.45071" lon="2.06853">
        <ele>1650.8</ele>
        <time>2013-08-11T16:37:57Z</time>
      </trkpt>
      <trkpt lat="42.4507" lon="2.06857">
        <ele>1649.9</ele>
        <time>2013-08-11T16:38:01Z</time>
      </trkpt>
      <trkpt lat="42.45069" lon="2.06862">
        <ele>1649.4</ele>
        <time>2013-08-11T16:38:04Z</time>
      </trkpt>
      <trkpt lat="42.45066" lon="2.06865">
        <ele>1648.3</ele>
        <time>2013-08-11T16:38:08Z</time>
      </trkpt>
      <trkpt lat="42.45064" lon="2.06868">
        <ele>1648.3</ele>
        <time>2013-08-11T16:38:10Z</time>
      </trkpt>
      <trkpt lat="42.45062" lon="2.06872">
        <ele>1648.4</ele>
        <time>2013-08-11T16:38:13Z</time>
      </trkpt>
      <trkpt lat="42.4506" lon="2.06877">
        <ele>1647</ele>
        <time>2013-08-11T16:38:17Z</time>
      </trkpt>
      <trkpt lat="42.45057" lon="2.06881">
        <ele>1646.1</ele>
        <time>2013-08-11T16:38:21Z</time>
      </trkpt>
      <trkpt lat="42.45058" lon="2.06887">
        <ele>1646.3</ele>
        <time>2013-08-11T16:38:27Z</time>
      </trkpt>
      <trkpt lat="42.45061" lon="2.06892">
        <ele>1645.5</ele>
        <time>2013-08-11T16:38:36Z</time>
      </trkpt>
      <trkpt lat="42.45061" lon="2.06898">
        <ele>1643.9</ele>
        <time>2013-08-11T16:38:55Z</time>
      </trkpt>
      <trkpt lat="42.45061" lon="2.06899">
        <ele>1643.6</ele>
        <time>2013-08-11T16:38:56Z</time>
      </trkpt>
      <trkpt lat="42.4506" lon="2.06909">
        <ele>1642.2</ele>
        <time>2013-08-11T16:39:11Z</time>
      </trkpt>
      <trkpt lat="42.45061" lon="2.06915">
        <ele>1641</ele>
        <time>2013-08-11T16:39:23Z</time>
      </trkpt>
      <trkpt lat="42.4506" lon="2.0692">
        <ele>1639.2</ele>
        <time>2013-08-11T16:39:29Z</time>
      </trkpt>
      <trkpt lat="42.45057" lon="2.06924">
        <ele>1638</ele>
        <time>2013-08-11T16:39:33Z</time>
      </trkpt>
      <trkpt lat="42.45055" lon="2.06929">
        <ele>1637.1</ele>
        <time>2013-08-11T16:39:37Z</time>
      </trkpt>
      <trkpt lat="42.45055" lon="2.06935">
        <ele>1637.3</ele>
        <time>2013-08-11T16:39:41Z</time>
      </trkpt>
      <trkpt lat="42.45055" lon="2.06941">
        <ele>1637.9</ele>
        <time>2013-08-11T16:39:46Z</time>
      </trkpt>
      <trkpt lat="42.45054" lon="2.06946">
        <ele>1638.1</ele>
        <time>2013-08-11T16:39:49Z</time>
      </trkpt>
      <trkpt lat="42.45052" lon="2.06951">
        <ele>1637.4</ele>
        <time>2013-08-11T16:39:53Z</time>
      </trkpt>
      <trkpt lat="42.45049" lon="2.06955">
        <ele>1637.7</ele>
        <time>2013-08-11T16:39:57Z</time>
      </trkpt>
      <trkpt lat="42.45049" lon="2.06956">
        <ele>1637.5</ele>
        <time>2013-08-11T16:39:58Z</time>
      </trkpt>
      <trkpt lat="42.45046" lon="2.06965">
        <ele>1636.5</ele>
        <time>2013-08-11T16:40:04Z</time>
      </trkpt>
      <trkpt lat="42.45045" lon="2.0697">
        <ele>1636.8</ele>
        <time>2013-08-11T16:40:07Z</time>
      </trkpt>
      <trkpt lat="42.45044" lon="2.06975">
        <ele>1635.7</ele>
        <time>2013-08-11T16:40:11Z</time>
      </trkpt>
      <trkpt lat="42.45042" lon="2.0698">
        <ele>1633.6</ele>
        <time>2013-08-11T16:40:19Z</time>
      </trkpt>
      <trkpt lat="42.45042" lon="2.06986">
        <ele>1633.2</ele>
        <time>2013-08-11T16:40:25Z</time>
      </trkpt>
      <trkpt lat="42.4504" lon="2.0699">
        <ele>1631.3</ele>
        <time>2013-08-11T16:40:29Z</time>
      </trkpt>
      <trkpt lat="42.4504" lon="2.06995">
        <ele>1630</ele>
        <time>2013-08-11T16:40:34Z</time>
      </trkpt>
      <trkpt lat="42.4504" lon="2.07">
        <ele>1629.3</ele>
        <time>2013-08-11T16:40:37Z</time>
      </trkpt>
      <trkpt lat="42.45039" lon="2.07006">
        <ele>1627.1</ele>
        <time>2013-08-11T16:40:41Z</time>
      </trkpt>
      <trkpt lat="42.45037" lon="2.0701">
        <ele>1626.3</ele>
        <time>2013-08-11T16:40:47Z</time>
      </trkpt>
      <trkpt lat="42.45035" lon="2.07015">
        <ele>1625.8</ele>
        <time>2013-08-11T16:40:52Z</time>
      </trkpt>
      <trkpt lat="42.45035" lon="2.0702">
        <ele>1624.8</ele>
        <time>2013-08-11T16:40:57Z</time>
      </trkpt>
      <trkpt lat="42.45038" lon="2.07024">
        <ele>1623.3</ele>
        <time>2013-08-11T16:41:01Z</time>
      </trkpt>
      <trkpt lat="42.45038" lon="2.07025">
        <ele>1623</ele>
        <time>2013-08-11T16:41:02Z</time>
      </trkpt>
      <trkpt lat="42.4504" lon="2.07035">
        <ele>1621.2</ele>
        <time>2013-08-11T16:41:09Z</time>
      </trkpt>
      <trkpt lat="42.45042" lon="2.0704">
        <ele>1620.7</ele>
        <time>2013-08-11T16:41:12Z</time>
      </trkpt>
      <trkpt lat="42.45042" lon="2.07046">
        <ele>1620.5</ele>
        <time>2013-08-11T16:41:16Z</time>
      </trkpt>
      <trkpt lat="42.45043" lon="2.07051">
        <ele>1619.7</ele>
        <time>2013-08-11T16:41:20Z</time>
      </trkpt>
      <trkpt lat="42.45046" lon="2.07056">
        <ele>1618.4</ele>
        <time>2013-08-11T16:41:36Z</time>
      </trkpt>
      <trkpt lat="42.45046" lon="2.07062">
        <ele>1618.5</ele>
        <time>2013-08-11T16:41:45Z</time>
      </trkpt>
      <trkpt lat="42.45049" lon="2.07066">
        <ele>1618.2</ele>
        <time>2013-08-11T16:42:31Z</time>
      </trkpt>
      <trkpt lat="42.45049" lon="2.07067">
        <ele>1618.1</ele>
        <time>2013-08-11T16:42:32Z</time>
      </trkpt>
      <trkpt lat="42.45051" lon="2.07076">
        <ele>1616.8</ele>
        <time>2013-08-11T16:42:37Z</time>
      </trkpt>
      <trkpt lat="42.45051" lon="2.0708">
        <ele>1616.8</ele>
        <time>2013-08-11T16:42:40Z</time>
      </trkpt>
      <trkpt lat="42.45051" lon="2.07086">
        <ele>1616.9</ele>
        <time>2013-08-11T16:42:43Z</time>
      </trkpt>
      <trkpt lat="42.4505" lon="2.07091">
        <ele>1617.1</ele>
        <time>2013-08-11T16:42:46Z</time>
      </trkpt>
      <trkpt lat="42.45051" lon="2.07097">
        <ele>1617.2</ele>
        <time>2013-08-11T16:42:49Z</time>
      </trkpt>
      <trkpt lat="42.45051" lon="2.07102">
        <ele>1617.1</ele>
        <time>2013-08-11T16:42:52Z</time>
      </trkpt>
      <trkpt lat="42.45051" lon="2.07108">
        <ele>1617</ele>
        <time>2013-08-11T16:42:55Z</time>
      </trkpt>
      <trkpt lat="42.45048" lon="2.07112">
        <ele>1616.6</ele>
        <time>2013-08-11T16:42:58Z</time>
      </trkpt>
      <trkpt lat="42.45046" lon="2.07117">
        <ele>1616.1</ele>
        <time>2013-08-11T16:43:01Z</time>
      </trkpt>
      <trkpt lat="42.45045" lon="2.07121">
        <ele>1615.8</ele>
        <time>2013-08-11T16:43:03Z</time>
      </trkpt>
      <trkpt lat="42.45043" lon="2.07125">
        <ele>1616.1</ele>
        <time>2013-08-11T16:43:05Z</time>
      </trkpt>
      <trkpt lat="42.45041" lon="2.07129">
        <ele>1616</ele>
        <time>2013-08-11T16:43:08Z</time>
      </trkpt>
      <trkpt lat="42.45038" lon="2.07133">
        <ele>1615.6</ele>
        <time>2013-08-11T16:43:11Z</time>
      </trkpt>
      <trkpt lat="42.45036" lon="2.07137">
        <ele>1615.8</ele>
        <time>2013-08-11T16:43:13Z</time>
      </trkpt>
      <trkpt lat="42.45033" lon="2.07141">
        <ele>1616.3</ele>
        <time>2013-08-11T16:43:16Z</time>
      </trkpt>
      <trkpt lat="42.45032" lon="2.07145">
        <ele>1616.5</ele>
        <time>2013-08-11T16:43:18Z</time>
      </trkpt>
      <trkpt lat="42.45029" lon="2.0715">
        <ele>1616</ele>
        <time>2013-08-11T16:43:21Z</time>
      </trkpt>
      <trkpt lat="42.45028" lon="2.07155">
        <ele>1616</ele>
        <time>2013-08-11T16:43:23Z</time>
      </trkpt>
      <trkpt lat="42.45025" lon="2.07159">
        <ele>1616.1</ele>
        <time>2013-08-11T16:43:26Z</time>
      </trkpt>
      <trkpt lat="42.45022" lon="2.07163">
        <ele>1615.9</ele>
        <time>2013-08-11T16:43:29Z</time>
      </trkpt>
      <trkpt lat="42.4502" lon="2.07166">
        <ele>1615.7</ele>
        <time>2013-08-11T16:43:31Z</time>
      </trkpt>
      <trkpt lat="42.45017" lon="2.07169">
        <ele>1616</ele>
        <time>2013-08-11T16:43:33Z</time>
      </trkpt>
      <trkpt lat="42.45016" lon="2.07171">
        <ele>1616.2</ele>
        <time>2013-08-11T16:43:34Z</time>
      </trkpt>
      <trkpt lat="42.45012" lon="2.07176">
        <ele>1615.8</ele>
        <time>2013-08-11T16:43:38Z</time>
      </trkpt>
      <trkpt lat="42.45009" lon="2.0718">
        <ele>1616</ele>
        <time>2013-08-11T16:43:41Z</time>
      </trkpt>
      <trkpt lat="42.45005" lon="2.07184">
        <ele>1615.9</ele>
        <time>2013-08-11T16:43:44Z</time>
      </trkpt>
      <trkpt lat="42.45002" lon="2.07187">
        <ele>1616.6</ele>
        <time>2013-08-11T16:43:47Z</time>
      </trkpt>
      <trkpt lat="42.44999" lon="2.07191">
        <ele>1615.5</ele>
        <time>2013-08-11T16:43:50Z</time>
      </trkpt>
      <trkpt lat="42.44995" lon="2.07195">
        <ele>1616.1</ele>
        <time>2013-08-11T16:43:53Z</time>
      </trkpt>
      <trkpt lat="42.44993" lon="2.07197">
        <ele>1616.6</ele>
        <time>2013-08-11T16:43:55Z</time>
      </trkpt>
      <trkpt lat="42.44989" lon="2.072">
        <ele>1617</ele>
        <time>2013-08-11T16:43:58Z</time>
      </trkpt>
      <trkpt lat="42.44986" lon="2.07204">
        <ele>1616.6</ele>
        <time>2013-08-11T16:44:01Z</time>
      </trkpt>
      <trkpt lat="42.44983" lon="2.07207">
        <ele>1615.9</ele>
        <time>2013-08-11T16:44:04Z</time>
      </trkpt>
      <trkpt lat="42.4498" lon="2.07211">
        <ele>1615.8</ele>
        <time>2013-08-11T16:44:07Z</time>
      </trkpt>
      <trkpt lat="42.44977" lon="2.07213">
        <ele>1616.4</ele>
        <time>2013-08-11T16:44:10Z</time>
      </trkpt>
      <trkpt lat="42.44974" lon="2.07218">
        <ele>1616.2</ele>
        <time>2013-08-11T16:44:13Z</time>
      </trkpt>
      <trkpt lat="42.44973" lon="2.07221">
        <ele>1616.3</ele>
        <time>2013-08-11T16:44:15Z</time>
      </trkpt>
      <trkpt lat="42.44971" lon="2.07225">
        <ele>1616.6</ele>
        <time>2013-08-11T16:44:17Z</time>
      </trkpt>
      <trkpt lat="42.44969" lon="2.07229">
        <ele>1616.8</ele>
        <time>2013-08-11T16:44:19Z</time>
      </trkpt>
      <trkpt lat="42.44968" lon="2.07233">
        <ele>1616.8</ele>
        <time>2013-08-11T16:44:21Z</time>
      </trkpt>
      <trkpt lat="42.44967" lon="2.07238">
        <ele>1616.8</ele>
        <time>2013-08-11T16:44:23Z</time>
      </trkpt>
      <trkpt lat="42.44967" lon="2.07243">
        <ele>1616.7</ele>
        <time>2013-08-11T16:44:25Z</time>
      </trkpt>
      <trkpt lat="42.44966" lon="2.07247">
        <ele>1616</ele>
        <time>2013-08-11T16:44:27Z</time>
      </trkpt>
      <trkpt lat="42.44966" lon="2.07251">
        <ele>1615.5</ele>
        <time>2013-08-11T16:44:29Z</time>
      </trkpt>
      <trkpt lat="42.44966" lon="2.07256">
        <ele>1615.1</ele>
        <time>2013-08-11T16:44:31Z</time>
      </trkpt>
      <trkpt lat="42.44967" lon="2.07261">
        <ele>1615.3</ele>
        <time>2013-08-11T16:44:33Z</time>
      </trkpt>
      <trkpt lat="42.44967" lon="2.07265">
        <ele>1615.7</ele>
        <time>2013-08-11T16:44:35Z</time>
      </trkpt>
      <trkpt lat="42.44968" lon="2.07268">
        <ele>1615.7</ele>
        <time>2013-08-11T16:44:36Z</time>
      </trkpt>
      <trkpt lat="42.44969" lon="2.07274">
        <ele>1615.3</ele>
        <time>2013-08-11T16:44:39Z</time>
      </trkpt>
      <trkpt lat="42.44969" lon="2.0728">
        <ele>1614.7</ele>
        <time>2013-08-11T16:44:42Z</time>
      </trkpt>
      <trkpt lat="42.4497" lon="2.07284">
        <ele>1614.4</ele>
        <time>2013-08-11T16:44:44Z</time>
      </trkpt>
      <trkpt lat="42.4497" lon="2.07288">
        <ele>1614.5</ele>
        <time>2013-08-11T16:44:46Z</time>
      </trkpt>
      <trkpt lat="42.44969" lon="2.07293">
        <ele>1614.9</ele>
        <time>2013-08-11T16:44:48Z</time>
      </trkpt>
      <trkpt lat="42.44967" lon="2.07298">
        <ele>1614.3</ele>
        <time>2013-08-11T16:44:52Z</time>
      </trkpt>
      <trkpt lat="42.44965" lon="2.07302">
        <ele>1614.1</ele>
        <time>2013-08-11T16:44:56Z</time>
      </trkpt>
      <trkpt lat="42.44962" lon="2.07305">
        <ele>1614.3</ele>
        <time>2013-08-11T16:44:59Z</time>
      </trkpt>
      <trkpt lat="42.44958" lon="2.07308">
        <ele>1613.8</ele>
        <time>2013-08-11T16:45:03Z</time>
      </trkpt>
      <trkpt lat="42.44956" lon="2.07312">
        <ele>1613.7</ele>
        <time>2013-08-11T16:45:06Z</time>
      </trkpt>
      <trkpt lat="42.44953" lon="2.07317">
        <ele>1614</ele>
        <time>2013-08-11T16:45:09Z</time>
      </trkpt>
      <trkpt lat="42.44951" lon="2.07321">
        <ele>1614</ele>
        <time>2013-08-11T16:45:12Z</time>
      </trkpt>
      <trkpt lat="42.4495" lon="2.07324">
        <ele>1613.8</ele>
        <time>2013-08-11T16:45:14Z</time>
      </trkpt>
      <trkpt lat="42.44949" lon="2.07329">
        <ele>1613.5</ele>
        <time>2013-08-11T16:45:16Z</time>
      </trkpt>
      <trkpt lat="42.44948" lon="2.07333">
        <ele>1613.8</ele>
        <time>2013-08-11T16:45:18Z</time>
      </trkpt>
      <trkpt lat="42.44947" lon="2.07338">
        <ele>1614.2</ele>
        <time>2013-08-11T16:45:21Z</time>
      </trkpt>
      <trkpt lat="42.44946" lon="2.07343">
        <ele>1614</ele>
        <time>2013-08-11T16:45:23Z</time>
      </trkpt>
      <trkpt lat="42.44946" lon="2.07348">
        <ele>1613.8</ele>
        <time>2013-08-11T16:45:25Z</time>
      </trkpt>
      <trkpt lat="42.44946" lon="2.07352">
        <ele>1613.7</ele>
        <time>2013-08-11T16:45:27Z</time>
      </trkpt>
      <trkpt lat="42.44946" lon="2.07358">
        <ele>1613.5</ele>
        <time>2013-08-11T16:45:29Z</time>
      </trkpt>
      <trkpt lat="42.44945" lon="2.07363">
        <ele>1613.7</ele>
        <time>2013-08-11T16:45:31Z</time>
      </trkpt>
      <trkpt lat="42.44945" lon="2.07369">
        <ele>1613.7</ele>
        <time>2013-08-11T16:45:34Z</time>
      </trkpt>
      <trkpt lat="42.44944" lon="2.07373">
        <ele>1613.5</ele>
        <time>2013-08-11T16:45:36Z</time>
      </trkpt>
      <trkpt lat="42.44944" lon="2.07375">
        <ele>1613.2</ele>
        <time>2013-08-11T16:45:37Z</time>
      </trkpt>
      <trkpt lat="42.44942" lon="2.07384">
        <ele>1612.5</ele>
        <time>2013-08-11T16:45:43Z</time>
      </trkpt>
      <trkpt lat="42.44939" lon="2.07387">
        <ele>1613.2</ele>
        <time>2013-08-11T16:45:47Z</time>
      </trkpt>
      <trkpt lat="42.44936" lon="2.07389">
        <ele>1613.7</ele>
        <time>2013-08-11T16:45:50Z</time>
      </trkpt>
      <trkpt lat="42.44934" lon="2.07392">
        <ele>1613.9</ele>
        <time>2013-08-11T16:45:53Z</time>
      </trkpt>
      <trkpt lat="42.44931" lon="2.07397">
        <ele>1613.6</ele>
        <time>2013-08-11T16:45:55Z</time>
      </trkpt>
      <trkpt lat="42.44928" lon="2.074">
        <ele>1613.5</ele>
        <time>2013-08-11T16:45:59Z</time>
      </trkpt>
      <trkpt lat="42.44924" lon="2.07402">
        <ele>1613.9</ele>
        <time>2013-08-11T16:46:02Z</time>
      </trkpt>
      <trkpt lat="42.4492" lon="2.07403">
        <ele>1613.9</ele>
        <time>2013-08-11T16:46:05Z</time>
      </trkpt>
      <trkpt lat="42.44916" lon="2.07404">
        <ele>1614</ele>
        <time>2013-08-11T16:46:08Z</time>
      </trkpt>
      <trkpt lat="42.44912" lon="2.07405">
        <ele>1613.7</ele>
        <time>2013-08-11T16:46:11Z</time>
      </trkpt>
      <trkpt lat="42.44908" lon="2.07406">
        <ele>1613.8</ele>
        <time>2013-08-11T16:46:14Z</time>
      </trkpt>
      <trkpt lat="42.44904" lon="2.07407">
        <ele>1614.4</ele>
        <time>2013-08-11T16:46:17Z</time>
      </trkpt>
      <trkpt lat="42.449" lon="2.07409">
        <ele>1613.8</ele>
        <time>2013-08-11T16:46:20Z</time>
      </trkpt>
      <trkpt lat="42.44896" lon="2.07411">
        <ele>1613.2</ele>
        <time>2013-08-11T16:46:23Z</time>
      </trkpt>
      <trkpt lat="42.44893" lon="2.07414">
        <ele>1613.3</ele>
        <time>2013-08-11T16:46:25Z</time>
      </trkpt>
      <trkpt lat="42.4489" lon="2.07418">
        <ele>1613.7</ele>
        <time>2013-08-11T16:46:28Z</time>
      </trkpt>
      <trkpt lat="42.44888" lon="2.07422">
        <ele>1613.7</ele>
        <time>2013-08-11T16:46:31Z</time>
      </trkpt>
      <trkpt lat="42.44884" lon="2.07425">
        <ele>1613.9</ele>
        <time>2013-08-11T16:46:34Z</time>
      </trkpt>
      <trkpt lat="42.4488" lon="2.07427">
        <ele>1614.1</ele>
        <time>2013-08-11T16:46:37Z</time>
      </trkpt>
      <trkpt lat="42.44879" lon="2.07428">
        <ele>1613.9</ele>
        <time>2013-08-11T16:46:38Z</time>
      </trkpt>
      <trkpt lat="42.44873" lon="2.07431">
        <ele>1613.8</ele>
        <time>2013-08-11T16:46:42Z</time>
      </trkpt>
      <trkpt lat="42.44869" lon="2.07432">
        <ele>1613.8</ele>
        <time>2013-08-11T16:46:45Z</time>
      </trkpt>
      <trkpt lat="42.44866" lon="2.07434">
        <ele>1613.7</ele>
        <time>2013-08-11T16:46:47Z</time>
      </trkpt>
      <trkpt lat="42.44864" lon="2.07435">
        <ele>1613.5</ele>
        <time>2013-08-11T16:46:49Z</time>
      </trkpt>
      <trkpt lat="42.44861" lon="2.07437">
        <ele>1613.8</ele>
        <time>2013-08-11T16:46:51Z</time>
      </trkpt>
      <trkpt lat="42.44857" lon="2.07439">
        <ele>1614.1</ele>
        <time>2013-08-11T16:46:54Z</time>
      </trkpt>
      <trkpt lat="42.44853" lon="2.0744">
        <ele>1614.1</ele>
        <time>2013-08-11T16:46:57Z</time>
      </trkpt>
      <trkpt lat="42.44849" lon="2.07442">
        <ele>1613.8</ele>
        <time>2013-08-11T16:47:00Z</time>
      </trkpt>
      <trkpt lat="42.44846" lon="2.07443">
        <ele>1613.7</ele>
        <time>2013-08-11T16:47:02Z</time>
      </trkpt>
      <trkpt lat="42.44842" lon="2.07445">
        <ele>1613.8</ele>
        <time>2013-08-11T16:47:05Z</time>
      </trkpt>
      <trkpt lat="42.44838" lon="2.07447">
        <ele>1613.2</ele>
        <time>2013-08-11T16:47:08Z</time>
      </trkpt>
      <trkpt lat="42.44835" lon="2.07449">
        <ele>1612.7</ele>
        <time>2013-08-11T16:47:11Z</time>
      </trkpt>
      <trkpt lat="42.44831" lon="2.07452">
        <ele>1612.7</ele>
        <time>2013-08-11T16:47:14Z</time>
      </trkpt>
      <trkpt lat="42.44828" lon="2.07454">
        <ele>1612.7</ele>
        <time>2013-08-11T16:47:16Z</time>
      </trkpt>
      <trkpt lat="42.44824" lon="2.07456">
        <ele>1612.8</ele>
        <time>2013-08-11T16:47:20Z</time>
      </trkpt>
      <trkpt lat="42.44821" lon="2.07459">
        <ele>1613.1</ele>
        <time>2013-08-11T16:47:24Z</time>
      </trkpt>
      <trkpt lat="42.44818" lon="2.07462">
        <ele>1612.9</ele>
        <time>2013-08-11T16:47:27Z</time>
      </trkpt>
      <trkpt lat="42.44814" lon="2.07462">
        <ele>1613.2</ele>
        <time>2013-08-11T16:47:30Z</time>
      </trkpt>
      <trkpt lat="42.4481" lon="2.07463">
        <ele>1612.5</ele>
        <time>2013-08-11T16:47:34Z</time>
      </trkpt>
      <trkpt lat="42.44806" lon="2.07465">
        <ele>1612.8</ele>
        <time>2013-08-11T16:47:38Z</time>
      </trkpt>
      <trkpt lat="42.44806" lon="2.07467">
        <ele>1612.9</ele>
        <time>2013-08-11T16:47:39Z</time>
      </trkpt>
      <trkpt lat="42.448" lon="2.0747">
        <ele>1613.3</ele>
        <time>2013-08-11T16:47:45Z</time>
      </trkpt>
      <trkpt lat="42.44796" lon="2.07472">
        <ele>1613.7</ele>
        <time>2013-08-11T16:47:48Z</time>
      </trkpt>
      <trkpt lat="42.44793" lon="2.07473">
        <ele>1613.6</ele>
        <time>2013-08-11T16:47:51Z</time>
      </trkpt>
      <trkpt lat="42.44788" lon="2.07475">
        <ele>1613.9</ele>
        <time>2013-08-11T16:47:55Z</time>
      </trkpt>
      <trkpt lat="42.44784" lon="2.07477">
        <ele>1613.7</ele>
        <time>2013-08-11T16:47:59Z</time>
      </trkpt>
      <trkpt lat="42.4478" lon="2.07479">
        <ele>1614.3</ele>
        <time>2013-08-11T16:48:05Z</time>
      </trkpt>
      <trkpt lat="42.44776" lon="2.07479">
        <ele>1614.2</ele>
        <time>2013-08-11T16:48:09Z</time>
      </trkpt>
      <trkpt lat="42.44772" lon="2.0748">
        <ele>1614.6</ele>
        <time>2013-08-11T16:48:12Z</time>
      </trkpt>
      <trkpt lat="42.44769" lon="2.07481">
        <ele>1614.7</ele>
        <time>2013-08-11T16:48:14Z</time>
      </trkpt>
      <trkpt lat="42.44765" lon="2.07481">
        <ele>1614.8</ele>
        <time>2013-08-11T16:48:17Z</time>
      </trkpt>
      <trkpt lat="42.44762" lon="2.07481">
        <ele>1614.6</ele>
        <time>2013-08-11T16:48:19Z</time>
      </trkpt>
      <trkpt lat="42.44758" lon="2.07482">
        <ele>1614.4</ele>
        <time>2013-08-11T16:48:22Z</time>
      </trkpt>
      <trkpt lat="42.44754" lon="2.0748">
        <ele>1614.9</ele>
        <time>2013-08-11T16:48:25Z</time>
      </trkpt>
      <trkpt lat="42.4475" lon="2.0748">
        <ele>1615.1</ele>
        <time>2013-08-11T16:48:28Z</time>
      </trkpt>
      <trkpt lat="42.44745" lon="2.0748">
        <ele>1614.5</ele>
        <time>2013-08-11T16:48:31Z</time>
      </trkpt>
      <trkpt lat="42.44741" lon="2.07479">
        <ele>1614.1</ele>
        <time>2013-08-11T16:48:34Z</time>
      </trkpt>
      <trkpt lat="42.44738" lon="2.07479">
        <ele>1614.8</ele>
        <time>2013-08-11T16:48:37Z</time>
      </trkpt>
      <trkpt lat="42.44733" lon="2.07479">
        <ele>1615</ele>
        <time>2013-08-11T16:48:40Z</time>
      </trkpt>
      <trkpt lat="42.44732" lon="2.07479">
        <ele>1615</ele>
        <time>2013-08-11T16:48:41Z</time>
      </trkpt>
      <trkpt lat="42.44726" lon="2.07478">
        <ele>1615.3</ele>
        <time>2013-08-11T16:48:45Z</time>
      </trkpt>
      <trkpt lat="42.44723" lon="2.07477">
        <ele>1615.6</ele>
        <time>2013-08-11T16:48:48Z</time>
      </trkpt>
      <trkpt lat="42.44719" lon="2.07477">
        <ele>1616</ele>
        <time>2013-08-11T16:48:51Z</time>
      </trkpt>
      <trkpt lat="42.44715" lon="2.07478">
        <ele>1616.4</ele>
        <time>2013-08-11T16:48:55Z</time>
      </trkpt>
      <trkpt lat="42.44711" lon="2.07478">
        <ele>1616.2</ele>
        <time>2013-08-11T16:48:58Z</time>
      </trkpt>
      <trkpt lat="42.44707" lon="2.07478">
        <ele>1616.4</ele>
        <time>2013-08-11T16:49:02Z</time>
      </trkpt>
      <trkpt lat="42.44704" lon="2.07478">
        <ele>1616.8</ele>
        <time>2013-08-11T16:49:07Z</time>
      </trkpt>
      <trkpt lat="42.447" lon="2.07478">
        <ele>1617.2</ele>
        <time>2013-08-11T16:49:10Z</time>
      </trkpt>
      <trkpt lat="42.44696" lon="2.07477">
        <ele>1618.4</ele>
        <time>2013-08-11T16:49:14Z</time>
      </trkpt>
      <trkpt lat="42.44692" lon="2.07476">
        <ele>1618.9</ele>
        <time>2013-08-11T16:49:17Z</time>
      </trkpt>
      <trkpt lat="42.44688" lon="2.07475">
        <ele>1619.3</ele>
        <time>2013-08-11T16:49:20Z</time>
      </trkpt>
      <trkpt lat="42.44684" lon="2.07475">
        <ele>1619.2</ele>
        <time>2013-08-11T16:49:23Z</time>
      </trkpt>
      <trkpt lat="42.44681" lon="2.07475">
        <ele>1619</ele>
        <time>2013-08-11T16:49:25Z</time>
      </trkpt>
      <trkpt lat="42.44677" lon="2.07476">
        <ele>1618.9</ele>
        <time>2013-08-11T16:49:27Z</time>
      </trkpt>
      <trkpt lat="42.44674" lon="2.07477">
        <ele>1618.9</ele>
        <time>2013-08-11T16:49:29Z</time>
      </trkpt>
      <trkpt lat="42.4467" lon="2.0748">
        <ele>1618.8</ele>
        <time>2013-08-11T16:49:31Z</time>
      </trkpt>
      <trkpt lat="42.44668" lon="2.07483">
        <ele>1618.9</ele>
        <time>2013-08-11T16:49:33Z</time>
      </trkpt>
      <trkpt lat="42.44665" lon="2.07485">
        <ele>1619.1</ele>
        <time>2013-08-11T16:49:35Z</time>
      </trkpt>
      <trkpt lat="42.44663" lon="2.07488">
        <ele>1618.7</ele>
        <time>2013-08-11T16:49:37Z</time>
      </trkpt>
      <trkpt lat="42.4466" lon="2.07491">
        <ele>1618.5</ele>
        <time>2013-08-11T16:49:39Z</time>
      </trkpt>
      <trkpt lat="42.44657" lon="2.07494">
        <ele>1618.5</ele>
        <time>2013-08-11T16:49:41Z</time>
      </trkpt>
      <trkpt lat="42.44656" lon="2.07496">
        <ele>1618.6</ele>
        <time>2013-08-11T16:49:42Z</time>
      </trkpt>
      <trkpt lat="42.4465" lon="2.07499">
        <ele>1618.8</ele>
        <time>2013-08-11T16:49:45Z</time>
      </trkpt>
      <trkpt lat="42.44647" lon="2.07501">
        <ele>1618</ele>
        <time>2013-08-11T16:49:47Z</time>
      </trkpt>
      <trkpt lat="42.44644" lon="2.07503">
        <ele>1617.8</ele>
        <time>2013-08-11T16:49:50Z</time>
      </trkpt>
      <trkpt lat="42.44641" lon="2.07505">
        <ele>1617.8</ele>
        <time>2013-08-11T16:49:52Z</time>
      </trkpt>
      <trkpt lat="42.44637" lon="2.07506">
        <ele>1618</ele>
        <time>2013-08-11T16:49:55Z</time>
      </trkpt>
      <trkpt lat="42.44634" lon="2.07507">
        <ele>1618.3</ele>
        <time>2013-08-11T16:49:57Z</time>
      </trkpt>
      <trkpt lat="42.44631" lon="2.07509">
        <ele>1617.9</ele>
        <time>2013-08-11T16:49:59Z</time>
      </trkpt>
      <trkpt lat="42.44628" lon="2.07511">
        <ele>1617.7</ele>
        <time>2013-08-11T16:50:01Z</time>
      </trkpt>
      <trkpt lat="42.44625" lon="2.07514">
        <ele>1617.8</ele>
        <time>2013-08-11T16:50:03Z</time>
      </trkpt>
      <trkpt lat="42.44623" lon="2.07517">
        <ele>1617.9</ele>
        <time>2013-08-11T16:50:05Z</time>
      </trkpt>
      <trkpt lat="42.4462" lon="2.0752">
        <ele>1617.9</ele>
        <time>2013-08-11T16:50:07Z</time>
      </trkpt>
      <trkpt lat="42.44618" lon="2.07524">
        <ele>1617.7</ele>
        <time>2013-08-11T16:50:09Z</time>
      </trkpt>
      <trkpt lat="42.44616" lon="2.07527">
        <ele>1617.7</ele>
        <time>2013-08-11T16:50:11Z</time>
      </trkpt>
      <trkpt lat="42.44614" lon="2.07531">
        <ele>1617.7</ele>
        <time>2013-08-11T16:50:13Z</time>
      </trkpt>
      <trkpt lat="42.44613" lon="2.07535">
        <ele>1617.6</ele>
        <time>2013-08-11T16:50:15Z</time>
      </trkpt>
      <trkpt lat="42.44611" lon="2.0754">
        <ele>1617.5</ele>
        <time>2013-08-11T16:50:17Z</time>
      </trkpt>
      <trkpt lat="42.44608" lon="2.07543">
        <ele>1617.9</ele>
        <time>2013-08-11T16:50:20Z</time>
      </trkpt>
      <trkpt lat="42.44605" lon="2.07547">
        <ele>1617.7</ele>
        <time>2013-08-11T16:50:23Z</time>
      </trkpt>
      <trkpt lat="42.44601" lon="2.07548">
        <ele>1618.2</ele>
        <time>2013-08-11T16:50:26Z</time>
      </trkpt>
      <trkpt lat="42.44597" lon="2.0755">
        <ele>1618.4</ele>
        <time>2013-08-11T16:50:29Z</time>
      </trkpt>
      <trkpt lat="42.44593" lon="2.07553">
        <ele>1618.7</ele>
        <time>2013-08-11T16:50:32Z</time>
      </trkpt>
      <trkpt lat="42.44591" lon="2.07555">
        <ele>1618.8</ele>
        <time>2013-08-11T16:50:34Z</time>
      </trkpt>
      <trkpt lat="42.44588" lon="2.07557">
        <ele>1618.8</ele>
        <time>2013-08-11T16:50:36Z</time>
      </trkpt>
      <trkpt lat="42.44586" lon="2.07561">
        <ele>1618.2</ele>
        <time>2013-08-11T16:50:38Z</time>
      </trkpt>
      <trkpt lat="42.44584" lon="2.07565">
        <ele>1618.2</ele>
        <time>2013-08-11T16:50:40Z</time>
      </trkpt>
      <trkpt lat="42.44582" lon="2.07568">
        <ele>1618.6</ele>
        <time>2013-08-11T16:50:42Z</time>
      </trkpt>
      <trkpt lat="42.44581" lon="2.0757">
        <ele>1618.6</ele>
        <time>2013-08-11T16:50:43Z</time>
      </trkpt>
      <trkpt lat="42.44579" lon="2.07576">
        <ele>1618.3</ele>
        <time>2013-08-11T16:50:46Z</time>
      </trkpt>
      <trkpt lat="42.44577" lon="2.07582">
        <ele>1617.7</ele>
        <time>2013-08-11T16:50:49Z</time>
      </trkpt>
      <trkpt lat="42.44575" lon="2.07586">
        <ele>1617.9</ele>
        <time>2013-08-11T16:50:51Z</time>
      </trkpt>
      <trkpt lat="42.44573" lon="2.07591">
        <ele>1618</ele>
        <time>2013-08-11T16:50:54Z</time>
      </trkpt>
      <trkpt lat="42.4457" lon="2.07594">
        <ele>1617.6</ele>
        <time>2013-08-11T16:50:57Z</time>
      </trkpt>
      <trkpt lat="42.44566" lon="2.07597">
        <ele>1617.2</ele>
        <time>2013-08-11T16:51:00Z</time>
      </trkpt>
      <trkpt lat="42.44563" lon="2.07598">
        <ele>1617.6</ele>
        <time>2013-08-11T16:51:02Z</time>
      </trkpt>
      <trkpt lat="42.44559" lon="2.076">
        <ele>1618.3</ele>
        <time>2013-08-11T16:51:05Z</time>
      </trkpt>
      <trkpt lat="42.44557" lon="2.07603">
        <ele>1617.8</ele>
        <time>2013-08-11T16:51:07Z</time>
      </trkpt>
      <trkpt lat="42.44553" lon="2.07606">
        <ele>1617</ele>
        <time>2013-08-11T16:51:10Z</time>
      </trkpt>
      <trkpt lat="42.4455" lon="2.07609">
        <ele>1616.7</ele>
        <time>2013-08-11T16:51:13Z</time>
      </trkpt>
      <trkpt lat="42.44547" lon="2.07612">
        <ele>1616.4</ele>
        <time>2013-08-11T16:51:16Z</time>
      </trkpt>
      <trkpt lat="42.44545" lon="2.07615">
        <ele>1616.3</ele>
        <time>2013-08-11T16:51:18Z</time>
      </trkpt>
      <trkpt lat="42.44542" lon="2.07618">
        <ele>1616.2</ele>
        <time>2013-08-11T16:51:20Z</time>
      </trkpt>
      <trkpt lat="42.4454" lon="2.0762">
        <ele>1615.8</ele>
        <time>2013-08-11T16:51:22Z</time>
      </trkpt>
      <trkpt lat="42.44537" lon="2.07624">
        <ele>1615.7</ele>
        <time>2013-08-11T16:51:25Z</time>
      </trkpt>
      <trkpt lat="42.44533" lon="2.07628">
        <ele>1615.7</ele>
        <time>2013-08-11T16:51:28Z</time>
      </trkpt>
      <trkpt lat="42.44531" lon="2.07631">
        <ele>1615.5</ele>
        <time>2013-08-11T16:51:30Z</time>
      </trkpt>
      <trkpt lat="42.44528" lon="2.07634">
        <ele>1615</ele>
        <time>2013-08-11T16:51:32Z</time>
      </trkpt>
      <trkpt lat="42.44525" lon="2.07637">
        <ele>1614.8</ele>
        <time>2013-08-11T16:51:34Z</time>
      </trkpt>
      <trkpt lat="42.44523" lon="2.07639">
        <ele>1614.7</ele>
        <time>2013-08-11T16:51:36Z</time>
      </trkpt>
      <trkpt lat="42.4452" lon="2.07641">
        <ele>1614.4</ele>
        <time>2013-08-11T16:51:38Z</time>
      </trkpt>
      <trkpt lat="42.44516" lon="2.07643">
        <ele>1614.1</ele>
        <time>2013-08-11T16:51:41Z</time>
      </trkpt>
      <trkpt lat="42.44513" lon="2.07645">
        <ele>1613.8</ele>
        <time>2013-08-11T16:51:43Z</time>
      </trkpt>
      <trkpt lat="42.44512" lon="2.07645">
        <ele>1614.1</ele>
        <time>2013-08-11T16:51:44Z</time>
      </trkpt>
      <trkpt lat="42.44508" lon="2.07648">
        <ele>1614.3</ele>
        <time>2013-08-11T16:51:47Z</time>
      </trkpt>
      <trkpt lat="42.44504" lon="2.0765">
        <ele>1614.1</ele>
        <time>2013-08-11T16:51:49Z</time>
      </trkpt>
      <trkpt lat="42.44502" lon="2.07652">
        <ele>1613.8</ele>
        <time>2013-08-11T16:51:51Z</time>
      </trkpt>
      <trkpt lat="42.44499" lon="2.07654">
        <ele>1613.5</ele>
        <time>2013-08-11T16:51:53Z</time>
      </trkpt>
      <trkpt lat="42.44496" lon="2.07658">
        <ele>1613.2</ele>
        <time>2013-08-11T16:51:56Z</time>
      </trkpt>
      <trkpt lat="42.44494" lon="2.0766">
        <ele>1613.3</ele>
        <time>2013-08-11T16:51:58Z</time>
      </trkpt>
      <trkpt lat="42.44491" lon="2.07664">
        <ele>1613.4</ele>
        <time>2013-08-11T16:52:00Z</time>
      </trkpt>
      <trkpt lat="42.44489" lon="2.07668">
        <ele>1613.4</ele>
        <time>2013-08-11T16:52:02Z</time>
      </trkpt>
      <trkpt lat="42.44487" lon="2.07671">
        <ele>1612.8</ele>
        <time>2013-08-11T16:52:04Z</time>
      </trkpt>
      <trkpt lat="42.44485" lon="2.07674">
        <ele>1612.4</ele>
        <time>2013-08-11T16:52:06Z</time>
      </trkpt>
      <trkpt lat="42.44483" lon="2.07678">
        <ele>1612.1</ele>
        <time>2013-08-11T16:52:08Z</time>
      </trkpt>
      <trkpt lat="42.4448" lon="2.07682">
        <ele>1611.5</ele>
        <time>2013-08-11T16:52:11Z</time>
      </trkpt>
      <trkpt lat="42.44478" lon="2.07686">
        <ele>1610.8</ele>
        <time>2013-08-11T16:52:14Z</time>
      </trkpt>
      <trkpt lat="42.44477" lon="2.07691">
        <ele>1610</ele>
        <time>2013-08-11T16:52:16Z</time>
      </trkpt>
      <trkpt lat="42.44476" lon="2.07695">
        <ele>1609.1</ele>
        <time>2013-08-11T16:52:18Z</time>
      </trkpt>
      <trkpt lat="42.44475" lon="2.07699">
        <ele>1608.9</ele>
        <time>2013-08-11T16:52:20Z</time>
      </trkpt>
      <trkpt lat="42.44474" lon="2.07703">
        <ele>1608.6</ele>
        <time>2013-08-11T16:52:22Z</time>
      </trkpt>
      <trkpt lat="42.44474" lon="2.07707">
        <ele>1608.2</ele>
        <time>2013-08-11T16:52:24Z</time>
      </trkpt>
      <trkpt lat="42.44472" lon="2.07713">
        <ele>1608.9</ele>
        <time>2013-08-11T16:52:27Z</time>
      </trkpt>
      <trkpt lat="42.44471" lon="2.07718">
        <ele>1608.6</ele>
        <time>2013-08-11T16:52:30Z</time>
      </trkpt>
      <trkpt lat="42.44471" lon="2.07722">
        <ele>1607.9</ele>
        <time>2013-08-11T16:52:32Z</time>
      </trkpt>
      <trkpt lat="42.44471" lon="2.07727">
        <ele>1607.2</ele>
        <time>2013-08-11T16:52:34Z</time>
      </trkpt>
      <trkpt lat="42.44471" lon="2.07732">
        <ele>1606.9</ele>
        <time>2013-08-11T16:52:36Z</time>
      </trkpt>
      <trkpt lat="42.4447" lon="2.07737">
        <ele>1606.1</ele>
        <time>2013-08-11T16:52:39Z</time>
      </trkpt>
      <trkpt lat="42.44468" lon="2.07742">
        <ele>1605</ele>
        <time>2013-08-11T16:52:42Z</time>
      </trkpt>
      <trkpt lat="42.4447" lon="2.07748">
        <ele>1604.5</ele>
        <time>2013-08-11T16:52:45Z</time>
      </trkpt>
      <trkpt lat="42.44469" lon="2.07749">
        <ele>1604.4</ele>
        <time>2013-08-11T16:52:46Z</time>
      </trkpt>
      <trkpt lat="42.44465" lon="2.07754">
        <ele>1603.9</ele>
        <time>2013-08-11T16:52:52Z</time>
      </trkpt>
      <trkpt lat="42.44462" lon="2.07757">
        <ele>1602.2</ele>
        <time>2013-08-11T16:52:55Z</time>
      </trkpt>
      <trkpt lat="42.44459" lon="2.0776">
        <ele>1601.6</ele>
        <time>2013-08-11T16:52:59Z</time>
      </trkpt>
      <trkpt lat="42.44455" lon="2.07761">
        <ele>1600.7</ele>
        <time>2013-08-11T16:53:03Z</time>
      </trkpt>
      <trkpt lat="42.44451" lon="2.07761">
        <ele>1599.5</ele>
        <time>2013-08-11T16:53:07Z</time>
      </trkpt>
      <trkpt lat="42.44447" lon="2.07761">
        <ele>1598.8</ele>
        <time>2013-08-11T16:53:10Z</time>
      </trkpt>
      <trkpt lat="42.44443" lon="2.07764">
        <ele>1598</ele>
        <time>2013-08-11T16:53:14Z</time>
      </trkpt>
      <trkpt lat="42.44439" lon="2.07765">
        <ele>1597.1</ele>
        <time>2013-08-11T16:53:18Z</time>
      </trkpt>
      <trkpt lat="42.44434" lon="2.07765">
        <ele>1595.8</ele>
        <time>2013-08-11T16:53:23Z</time>
      </trkpt>
      <trkpt lat="42.4443" lon="2.07765">
        <ele>1595.2</ele>
        <time>2013-08-11T16:53:27Z</time>
      </trkpt>
      <trkpt lat="42.44426" lon="2.07765">
        <ele>1595.3</ele>
        <time>2013-08-11T16:53:30Z</time>
      </trkpt>
      <trkpt lat="42.44422" lon="2.07767">
        <ele>1594.4</ele>
        <time>2013-08-11T16:53:33Z</time>
      </trkpt>
      <trkpt lat="42.44419" lon="2.07768">
        <ele>1593.6</ele>
        <time>2013-08-11T16:53:36Z</time>
      </trkpt>
      <trkpt lat="42.44416" lon="2.0777">
        <ele>1593.2</ele>
        <time>2013-08-11T16:53:39Z</time>
      </trkpt>
      <trkpt lat="42.44414" lon="2.07773">
        <ele>1593</ele>
        <time>2013-08-11T16:53:41Z</time>
      </trkpt>
      <trkpt lat="42.44411" lon="2.07776">
        <ele>1592.8</ele>
        <time>2013-08-11T16:53:43Z</time>
      </trkpt>
      <trkpt lat="42.44409" lon="2.07781">
        <ele>1592.7</ele>
        <time>2013-08-11T16:53:45Z</time>
      </trkpt>
      <trkpt lat="42.44407" lon="2.07785">
        <ele>1592.6</ele>
        <time>2013-08-11T16:53:47Z</time>
      </trkpt>
      <trkpt lat="42.44407" lon="2.07787">
        <ele>1592.4</ele>
        <time>2013-08-11T16:53:48Z</time>
      </trkpt>
      <trkpt lat="42.44405" lon="2.07795">
        <ele>1592</ele>
        <time>2013-08-11T16:53:51Z</time>
      </trkpt>
      <trkpt lat="42.44403" lon="2.07799">
        <ele>1592</ele>
        <time>2013-08-11T16:53:53Z</time>
      </trkpt>
      <trkpt lat="42.44401" lon="2.07803">
        <ele>1591.5</ele>
        <time>2013-08-11T16:53:55Z</time>
      </trkpt>
      <trkpt lat="42.444" lon="2.07808">
        <ele>1590.9</ele>
        <time>2013-08-11T16:53:57Z</time>
      </trkpt>
      <trkpt lat="42.44399" lon="2.07812">
        <ele>1590.7</ele>
        <time>2013-08-11T16:53:59Z</time>
      </trkpt>
      <trkpt lat="42.44398" lon="2.07816">
        <ele>1590.4</ele>
        <time>2013-08-11T16:54:01Z</time>
      </trkpt>
      <trkpt lat="42.44397" lon="2.07821">
        <ele>1590.2</ele>
        <time>2013-08-11T16:54:03Z</time>
      </trkpt>
      <trkpt lat="42.44395" lon="2.07824">
        <ele>1589.5</ele>
        <time>2013-08-11T16:54:05Z</time>
      </trkpt>
      <trkpt lat="42.44393" lon="2.0783">
        <ele>1589</ele>
        <time>2013-08-11T16:54:08Z</time>
      </trkpt>
      <trkpt lat="42.44392" lon="2.07834">
        <ele>1588.7</ele>
        <time>2013-08-11T16:54:10Z</time>
      </trkpt>
      <trkpt lat="42.44392" lon="2.07838">
        <ele>1589.2</ele>
        <time>2013-08-11T16:54:12Z</time>
      </trkpt>
      <trkpt lat="42.44391" lon="2.07843">
        <ele>1588.6</ele>
        <time>2013-08-11T16:54:15Z</time>
      </trkpt>
      <trkpt lat="42.4439" lon="2.07848">
        <ele>1588.5</ele>
        <time>2013-08-11T16:54:18Z</time>
      </trkpt>
      <trkpt lat="42.44389" lon="2.07852">
        <ele>1588.3</ele>
        <time>2013-08-11T16:54:20Z</time>
      </trkpt>
      <trkpt lat="42.44388" lon="2.07857">
        <ele>1587.9</ele>
        <time>2013-08-11T16:54:23Z</time>
      </trkpt>
      <trkpt lat="42.44385" lon="2.0786">
        <ele>1587.7</ele>
        <time>2013-08-11T16:54:26Z</time>
      </trkpt>
      <trkpt lat="42.44382" lon="2.07862">
        <ele>1587.6</ele>
        <time>2013-08-11T16:54:29Z</time>
      </trkpt>
      <trkpt lat="42.44378" lon="2.07866">
        <ele>1587.4</ele>
        <time>2013-08-11T16:54:32Z</time>
      </trkpt>
      <trkpt lat="42.44375" lon="2.07866">
        <ele>1587.6</ele>
        <time>2013-08-11T16:54:35Z</time>
      </trkpt>
      <trkpt lat="42.44372" lon="2.07867">
        <ele>1587.2</ele>
        <time>2013-08-11T16:54:37Z</time>
      </trkpt>
      <trkpt lat="42.44369" lon="2.07868">
        <ele>1586.5</ele>
        <time>2013-08-11T16:54:39Z</time>
      </trkpt>
      <trkpt lat="42.44365" lon="2.0787">
        <ele>1585.8</ele>
        <time>2013-08-11T16:54:41Z</time>
      </trkpt>
      <trkpt lat="42.44363" lon="2.07873">
        <ele>1585.8</ele>
        <time>2013-08-11T16:54:43Z</time>
      </trkpt>
      <trkpt lat="42.44359" lon="2.07875">
        <ele>1586.1</ele>
        <time>2013-08-11T16:54:45Z</time>
      </trkpt>
      <trkpt lat="42.44356" lon="2.07879">
        <ele>1585.2</ele>
        <time>2013-08-11T16:54:48Z</time>
      </trkpt>
      <trkpt lat="42.44356" lon="2.07879">
        <ele>1584.8</ele>
        <time>2013-08-11T16:54:49Z</time>
      </trkpt>
      <trkpt lat="42.44349" lon="2.07882">
        <ele>1584.5</ele>
        <time>2013-08-11T16:54:54Z</time>
      </trkpt>
      <trkpt lat="42.44345" lon="2.07884">
        <ele>1584.2</ele>
        <time>2013-08-11T16:54:57Z</time>
      </trkpt>
      <trkpt lat="42.44342" lon="2.07886">
        <ele>1584.2</ele>
        <time>2013-08-11T16:55:00Z</time>
      </trkpt>
      <trkpt lat="42.44339" lon="2.07887">
        <ele>1583.5</ele>
        <time>2013-08-11T16:55:03Z</time>
      </trkpt>
      <trkpt lat="42.44335" lon="2.07889">
        <ele>1582.6</ele>
        <time>2013-08-11T16:55:06Z</time>
      </trkpt>
      <trkpt lat="42.44332" lon="2.0789">
        <ele>1582.6</ele>
        <time>2013-08-11T16:55:09Z</time>
      </trkpt>
      <trkpt lat="42.44328" lon="2.07892">
        <ele>1583.2</ele>
        <time>2013-08-11T16:55:12Z</time>
      </trkpt>
      <trkpt lat="42.44324" lon="2.07894">
        <ele>1583.4</ele>
        <time>2013-08-11T16:55:15Z</time>
      </trkpt>
      <trkpt lat="42.4432" lon="2.07896">
        <ele>1583.4</ele>
        <time>2013-08-11T16:55:17Z</time>
      </trkpt>
      <trkpt lat="42.44317" lon="2.07899">
        <ele>1582.8</ele>
        <time>2013-08-11T16:55:20Z</time>
      </trkpt>
      <trkpt lat="42.44315" lon="2.07901">
        <ele>1582</ele>
        <time>2013-08-11T16:55:22Z</time>
      </trkpt>
      <trkpt lat="42.44313" lon="2.07905">
        <ele>1581.3</ele>
        <time>2013-08-11T16:55:24Z</time>
      </trkpt>
      <trkpt lat="42.44311" lon="2.0791">
        <ele>1580.9</ele>
        <time>2013-08-11T16:55:26Z</time>
      </trkpt>
      <trkpt lat="42.4431" lon="2.07915">
        <ele>1580.1</ele>
        <time>2013-08-11T16:55:28Z</time>
      </trkpt>
      <trkpt lat="42.44308" lon="2.0792">
        <ele>1579.7</ele>
        <time>2013-08-11T16:55:30Z</time>
      </trkpt>
      <trkpt lat="42.44308" lon="2.07924">
        <ele>1579.3</ele>
        <time>2013-08-11T16:55:32Z</time>
      </trkpt>
      <trkpt lat="42.44306" lon="2.07928">
        <ele>1579</ele>
        <time>2013-08-11T16:55:34Z</time>
      </trkpt>
      <trkpt lat="42.44304" lon="2.07931">
        <ele>1578.7</ele>
        <time>2013-08-11T16:55:36Z</time>
      </trkpt>
      <trkpt lat="42.44302" lon="2.07936">
        <ele>1578</ele>
        <time>2013-08-11T16:55:39Z</time>
      </trkpt>
      <trkpt lat="42.44298" lon="2.07937">
        <ele>1577.8</ele>
        <time>2013-08-11T16:55:42Z</time>
      </trkpt>
      <trkpt lat="42.44294" lon="2.07936">
        <ele>1576.5</ele>
        <time>2013-08-11T16:55:45Z</time>
      </trkpt>
      <trkpt lat="42.4429" lon="2.07936">
        <ele>1575.2</ele>
        <time>2013-08-11T16:55:49Z</time>
      </trkpt>
      <trkpt lat="42.44289" lon="2.07936">
        <ele>1575.4</ele>
        <time>2013-08-11T16:55:50Z</time>
      </trkpt>
      <trkpt lat="42.44282" lon="2.07936">
        <ele>1575</ele>
        <time>2013-08-11T16:55:58Z</time>
      </trkpt>
      <trkpt lat="42.44279" lon="2.07938">
        <ele>1574.4</ele>
        <time>2013-08-11T16:56:02Z</time>
      </trkpt>
      <trkpt lat="42.44275" lon="2.07941">
        <ele>1573.9</ele>
        <time>2013-08-11T16:56:06Z</time>
      </trkpt>
      <trkpt lat="42.44272" lon="2.07942">
        <ele>1574</ele>
        <time>2013-08-11T16:56:08Z</time>
      </trkpt>
      <trkpt lat="42.44268" lon="2.07945">
        <ele>1574.4</ele>
        <time>2013-08-11T16:56:11Z</time>
      </trkpt>
      <trkpt lat="42.44265" lon="2.07947">
        <ele>1575</ele>
        <time>2013-08-11T16:56:13Z</time>
      </trkpt>
      <trkpt lat="42.44262" lon="2.0795">
        <ele>1574.7</ele>
        <time>2013-08-11T16:56:16Z</time>
      </trkpt>
      <trkpt lat="42.44258" lon="2.07952">
        <ele>1574.7</ele>
        <time>2013-08-11T16:56:19Z</time>
      </trkpt>
      <trkpt lat="42.44254" lon="2.07956">
        <ele>1575.3</ele>
        <time>2013-08-11T16:56:22Z</time>
      </trkpt>
      <trkpt lat="42.44251" lon="2.07959">
        <ele>1575.6</ele>
        <time>2013-08-11T16:56:25Z</time>
      </trkpt>
      <trkpt lat="42.44248" lon="2.0796">
        <ele>1575.6</ele>
        <time>2013-08-11T16:56:27Z</time>
      </trkpt>
      <trkpt lat="42.44244" lon="2.07963">
        <ele>1575.5</ele>
        <time>2013-08-11T16:56:30Z</time>
      </trkpt>
      <trkpt lat="42.4424" lon="2.07965">
        <ele>1575.6</ele>
        <time>2013-08-11T16:56:32Z</time>
      </trkpt>
      <trkpt lat="42.44238" lon="2.07967">
        <ele>1575.6</ele>
        <time>2013-08-11T16:56:34Z</time>
      </trkpt>
      <trkpt lat="42.44234" lon="2.0797">
        <ele>1575.3</ele>
        <time>2013-08-11T16:56:37Z</time>
      </trkpt>
      <trkpt lat="42.44232" lon="2.07972">
        <ele>1575</ele>
        <time>2013-08-11T16:56:39Z</time>
      </trkpt>
      <trkpt lat="42.44229" lon="2.07973">
        <ele>1574.7</ele>
        <time>2013-08-11T16:56:41Z</time>
      </trkpt>
      <trkpt lat="42.44226" lon="2.07975">
        <ele>1574.5</ele>
        <time>2013-08-11T16:56:43Z</time>
      </trkpt>
      <trkpt lat="42.44222" lon="2.07977">
        <ele>1574.5</ele>
        <time>2013-08-11T16:56:46Z</time>
      </trkpt>
      <trkpt lat="42.44218" lon="2.07978">
        <ele>1575.5</ele>
        <time>2013-08-11T16:56:49Z</time>
      </trkpt>
      <trkpt lat="42.44214" lon="2.07979">
        <ele>1575.8</ele>
        <time>2013-08-11T16:56:52Z</time>
      </trkpt>
      <trkpt lat="42.44213" lon="2.07979">
        <ele>1575.9</ele>
        <time>2013-08-11T16:56:53Z</time>
      </trkpt>
      <trkpt lat="42.44207" lon="2.07979">
        <ele>1576.1</ele>
        <time>2013-08-11T16:56:58Z</time>
      </trkpt>
      <trkpt lat="42.44203" lon="2.07979">
        <ele>1575.8</ele>
        <time>2013-08-11T16:57:01Z</time>
      </trkpt>
      <trkpt lat="42.44199" lon="2.0798">
        <ele>1575.1</ele>
        <time>2013-08-11T16:57:04Z</time>
      </trkpt>
      <trkpt lat="42.44195" lon="2.07982">
        <ele>1574.4</ele>
        <time>2013-08-11T16:57:07Z</time>
      </trkpt>
      <trkpt lat="42.44192" lon="2.07983">
        <ele>1574.5</ele>
        <time>2013-08-11T16:57:10Z</time>
      </trkpt>
      <trkpt lat="42.44188" lon="2.07984">
        <ele>1574.4</ele>
        <time>2013-08-11T16:57:13Z</time>
      </trkpt>
      <trkpt lat="42.44184" lon="2.07986">
        <ele>1573.8</ele>
        <time>2013-08-11T16:57:16Z</time>
      </trkpt>
      <trkpt lat="42.44181" lon="2.07987">
        <ele>1573.5</ele>
        <time>2013-08-11T16:57:19Z</time>
      </trkpt>
      <trkpt lat="42.44177" lon="2.07988">
        <ele>1573.7</ele>
        <time>2013-08-11T16:57:22Z</time>
      </trkpt>
      <trkpt lat="42.44173" lon="2.07991">
        <ele>1573.7</ele>
        <time>2013-08-11T16:57:25Z</time>
      </trkpt>
      <trkpt lat="42.44169" lon="2.07991">
        <ele>1573.7</ele>
        <time>2013-08-11T16:57:28Z</time>
      </trkpt>
      <trkpt lat="42.44166" lon="2.07992">
        <ele>1573.6</ele>
        <time>2013-08-11T16:57:30Z</time>
      </trkpt>
      <trkpt lat="42.44163" lon="2.07993">
        <ele>1573.3</ele>
        <time>2013-08-11T16:57:32Z</time>
      </trkpt>
      <trkpt lat="42.4416" lon="2.07995">
        <ele>1573</ele>
        <time>2013-08-11T16:57:34Z</time>
      </trkpt>
      <trkpt lat="42.44157" lon="2.07997">
        <ele>1572.5</ele>
        <time>2013-08-11T16:57:36Z</time>
      </trkpt>
      <trkpt lat="42.44153" lon="2.07998">
        <ele>1571.9</ele>
        <time>2013-08-11T16:57:39Z</time>
      </trkpt>
      <trkpt lat="42.44149" lon="2.08001">
        <ele>1571.5</ele>
        <time>2013-08-11T16:57:42Z</time>
      </trkpt>
      <trkpt lat="42.44146" lon="2.08003">
        <ele>1571</ele>
        <time>2013-08-11T16:57:45Z</time>
      </trkpt>
      <trkpt lat="42.44143" lon="2.08005">
        <ele>1570.8</ele>
        <time>2013-08-11T16:57:47Z</time>
      </trkpt>
      <trkpt lat="42.4414" lon="2.08009">
        <ele>1570.8</ele>
        <time>2013-08-11T16:57:49Z</time>
      </trkpt>
      <trkpt lat="42.44137" lon="2.08013">
        <ele>1570.3</ele>
        <time>2013-08-11T16:57:52Z</time>
      </trkpt>
      <trkpt lat="42.44135" lon="2.08016">
        <ele>1570</ele>
        <time>2013-08-11T16:57:54Z</time>
      </trkpt>
      <trkpt lat="42.44133" lon="2.08017">
        <ele>1570</ele>
        <time>2013-08-11T16:57:55Z</time>
      </trkpt>
      <trkpt lat="42.44128" lon="2.08022">
        <ele>1570</ele>
        <time>2013-08-11T16:57:59Z</time>
      </trkpt>
      <trkpt lat="42.44127" lon="2.08016">
        <ele>1568.5</ele>
        <time>2013-08-11T16:58:04Z</time>
      </trkpt>
      <trkpt lat="42.44129" lon="2.08012">
        <ele>1568.5</ele>
        <time>2013-08-11T16:58:07Z</time>
      </trkpt>
      <trkpt lat="42.44131" lon="2.08008">
        <ele>1567.9</ele>
        <time>2013-08-11T16:58:11Z</time>
      </trkpt>
      <trkpt lat="42.44132" lon="2.08004">
        <ele>1567.6</ele>
        <time>2013-08-11T16:58:14Z</time>
      </trkpt>
      <trkpt lat="42.44134" lon="2.07999">
        <ele>1567.6</ele>
        <time>2013-08-11T16:58:17Z</time>
      </trkpt>
      <trkpt lat="42.44136" lon="2.07995">
        <ele>1567.6</ele>
        <time>2013-08-11T16:58:19Z</time>
      </trkpt>
      <trkpt lat="42.44139" lon="2.07992">
        <ele>1566.8</ele>
        <time>2013-08-11T16:58:22Z</time>
      </trkpt>
      <trkpt lat="42.44141" lon="2.07988">
        <ele>1565.9</ele>
        <time>2013-08-11T16:58:26Z</time>
      </trkpt>
      <trkpt lat="42.44143" lon="2.07984">
        <ele>1565.4</ele>
        <time>2013-08-11T16:58:28Z</time>
      </trkpt>
      <trkpt lat="42.44145" lon="2.0798">
        <ele>1565.8</ele>
        <time>2013-08-11T16:58:31Z</time>
      </trkpt>
      <trkpt lat="42.44147" lon="2.07974">
        <ele>1565.3</ele>
        <time>2013-08-11T16:58:35Z</time>
      </trkpt>
      <trkpt lat="42.44148" lon="2.0797">
        <ele>1565</ele>
        <time>2013-08-11T16:58:38Z</time>
      </trkpt>
      <trkpt lat="42.44151" lon="2.07965">
        <ele>1564.7</ele>
        <time>2013-08-11T16:58:42Z</time>
      </trkpt>
      <trkpt lat="42.44153" lon="2.07962">
        <ele>1564.3</ele>
        <time>2013-08-11T16:58:44Z</time>
      </trkpt>
      <trkpt lat="42.44157" lon="2.07958">
        <ele>1564.1</ele>
        <time>2013-08-11T16:58:47Z</time>
      </trkpt>
      <trkpt lat="42.44159" lon="2.07957">
        <ele>1564.1</ele>
        <time>2013-08-11T16:58:49Z</time>
      </trkpt>
      <trkpt lat="42.44163" lon="2.07956">
        <ele>1564.1</ele>
        <time>2013-08-11T16:58:51Z</time>
      </trkpt>
      <trkpt lat="42.44166" lon="2.07955">
        <ele>1564</ele>
        <time>2013-08-11T16:58:53Z</time>
      </trkpt>
      <trkpt lat="42.44169" lon="2.07955">
        <ele>1563.8</ele>
        <time>2013-08-11T16:58:55Z</time>
      </trkpt>
      <trkpt lat="42.44171" lon="2.07955">
        <ele>1563.7</ele>
        <time>2013-08-11T16:58:56Z</time>
      </trkpt>
      <trkpt lat="42.44176" lon="2.07954">
        <ele>1563.2</ele>
        <time>2013-08-11T16:58:59Z</time>
      </trkpt>
      <trkpt lat="42.44179" lon="2.07956">
        <ele>1562.5</ele>
        <time>2013-08-11T16:59:02Z</time>
      </trkpt>
      <trkpt lat="42.44183" lon="2.07956">
        <ele>1562.6</ele>
        <time>2013-08-11T16:59:05Z</time>
      </trkpt>
      <trkpt lat="42.44187" lon="2.07957">
        <ele>1562.6</ele>
        <time>2013-08-11T16:59:07Z</time>
      </trkpt>
      <trkpt lat="42.4419" lon="2.07957">
        <ele>1562.4</ele>
        <time>2013-08-11T16:59:09Z</time>
      </trkpt>
      <trkpt lat="42.44194" lon="2.07958">
        <ele>1562.4</ele>
        <time>2013-08-11T16:59:12Z</time>
      </trkpt>
      <trkpt lat="42.44198" lon="2.07958">
        <ele>1562.3</ele>
        <time>2013-08-11T16:59:15Z</time>
      </trkpt>
      <trkpt lat="42.44202" lon="2.07957">
        <ele>1561.8</ele>
        <time>2013-08-11T16:59:17Z</time>
      </trkpt>
      <trkpt lat="42.44205" lon="2.07956">
        <ele>1561.2</ele>
        <time>2013-08-11T16:59:19Z</time>
      </trkpt>
      <trkpt lat="42.4421" lon="2.07955">
        <ele>1561.1</ele>
        <time>2013-08-11T16:59:22Z</time>
      </trkpt>
      <trkpt lat="42.44214" lon="2.07954">
        <ele>1561.3</ele>
        <time>2013-08-11T16:59:26Z</time>
      </trkpt>
      <trkpt lat="42.44216" lon="2.07951">
        <ele>1561.2</ele>
        <time>2013-08-11T16:59:28Z</time>
      </trkpt>
      <trkpt lat="42.44218" lon="2.07947">
        <ele>1560.7</ele>
        <time>2013-08-11T16:59:30Z</time>
      </trkpt>
      <trkpt lat="42.44221" lon="2.07943">
        <ele>1560</ele>
        <time>2013-08-11T16:59:33Z</time>
      </trkpt>
      <trkpt lat="42.44222" lon="2.07939">
        <ele>1559.8</ele>
        <time>2013-08-11T16:59:35Z</time>
      </trkpt>
      <trkpt lat="42.44224" lon="2.07934">
        <ele>1559.4</ele>
        <time>2013-08-11T16:59:37Z</time>
      </trkpt>
      <trkpt lat="42.44225" lon="2.0793">
        <ele>1559.4</ele>
        <time>2013-08-11T16:59:39Z</time>
      </trkpt>
      <trkpt lat="42.44227" lon="2.07927">
        <ele>1559.4</ele>
        <time>2013-08-11T16:59:41Z</time>
      </trkpt>
      <trkpt lat="42.44228" lon="2.07923">
        <ele>1559.3</ele>
        <time>2013-08-11T16:59:43Z</time>
      </trkpt>
      <trkpt lat="42.4423" lon="2.07919">
        <ele>1559.1</ele>
        <time>2013-08-11T16:59:45Z</time>
      </trkpt>
      <trkpt lat="42.44231" lon="2.07914">
        <ele>1559.2</ele>
        <time>2013-08-11T16:59:47Z</time>
      </trkpt>
      <trkpt lat="42.44233" lon="2.07909">
        <ele>1559.3</ele>
        <time>2013-08-11T16:59:49Z</time>
      </trkpt>
      <trkpt lat="42.44234" lon="2.07905">
        <ele>1559.4</ele>
        <time>2013-08-11T16:59:51Z</time>
      </trkpt>
      <trkpt lat="42.44236" lon="2.07901">
        <ele>1559.3</ele>
        <time>2013-08-11T16:59:53Z</time>
      </trkpt>
      <trkpt lat="42.44238" lon="2.07897">
        <ele>1558.9</ele>
        <time>2013-08-11T16:59:55Z</time>
      </trkpt>
      <trkpt lat="42.4424" lon="2.07892">
        <ele>1558.2</ele>
        <time>2013-08-11T16:59:58Z</time>
      </trkpt>
      <trkpt lat="42.4424" lon="2.0789">
        <ele>1558</ele>
        <time>2013-08-11T16:59:59Z</time>
      </trkpt>
      <trkpt lat="42.44244" lon="2.07883">
        <ele>1557.9</ele>
        <time>2013-08-11T17:00:04Z</time>
      </trkpt>
      <trkpt lat="42.44247" lon="2.0788">
        <ele>1557.3</ele>
        <time>2013-08-11T17:00:06Z</time>
      </trkpt>
      <trkpt lat="42.44249" lon="2.07878">
        <ele>1557</ele>
        <time>2013-08-11T17:00:08Z</time>
      </trkpt>
      <trkpt lat="42.44252" lon="2.07876">
        <ele>1556.9</ele>
        <time>2013-08-11T17:00:10Z</time>
      </trkpt>
      <trkpt lat="42.44255" lon="2.07873">
        <ele>1556.9</ele>
        <time>2013-08-11T17:00:12Z</time>
      </trkpt>
      <trkpt lat="42.44257" lon="2.0787">
        <ele>1556.9</ele>
        <time>2013-08-11T17:00:14Z</time>
      </trkpt>
      <trkpt lat="42.4426" lon="2.07868">
        <ele>1557.2</ele>
        <time>2013-08-11T17:00:16Z</time>
      </trkpt>
      <trkpt lat="42.44262" lon="2.07865">
        <ele>1557.1</ele>
        <time>2013-08-11T17:00:18Z</time>
      </trkpt>
      <trkpt lat="42.44265" lon="2.07862">
        <ele>1557</ele>
        <time>2013-08-11T17:00:20Z</time>
      </trkpt>
      <trkpt lat="42.44268" lon="2.07858">
        <ele>1556.3</ele>
        <time>2013-08-11T17:00:23Z</time>
      </trkpt>
      <trkpt lat="42.44271" lon="2.07854">
        <ele>1556.4</ele>
        <time>2013-08-11T17:00:25Z</time>
      </trkpt>
      <trkpt lat="42.44273" lon="2.07852">
        <ele>1556.2</ele>
        <time>2013-08-11T17:00:27Z</time>
      </trkpt>
      <trkpt lat="42.44276" lon="2.0785">
        <ele>1555.9</ele>
        <time>2013-08-11T17:00:29Z</time>
      </trkpt>
      <trkpt lat="42.4428" lon="2.07846">
        <ele>1555.8</ele>
        <time>2013-08-11T17:00:32Z</time>
      </trkpt>
      <trkpt lat="42.44283" lon="2.07843">
        <ele>1555.1</ele>
        <time>2013-08-11T17:00:35Z</time>
      </trkpt>
      <trkpt lat="42.44286" lon="2.07842">
        <ele>1554.9</ele>
        <time>2013-08-11T17:00:37Z</time>
      </trkpt>
      <trkpt lat="42.4429" lon="2.07841">
        <ele>1555</ele>
        <time>2013-08-11T17:00:39Z</time>
      </trkpt>
      <trkpt lat="42.44293" lon="2.0784">
        <ele>1554.9</ele>
        <time>2013-08-11T17:00:41Z</time>
      </trkpt>
      <trkpt lat="42.44297" lon="2.07839">
        <ele>1554.5</ele>
        <time>2013-08-11T17:00:45Z</time>
      </trkpt>
      <trkpt lat="42.44301" lon="2.07838">
        <ele>1554.1</ele>
        <time>2013-08-11T17:00:48Z</time>
      </trkpt>
      <trkpt lat="42.44305" lon="2.07836">
        <ele>1553.4</ele>
        <time>2013-08-11T17:00:51Z</time>
      </trkpt>
      <trkpt lat="42.44309" lon="2.07835">
        <ele>1553.7</ele>
        <time>2013-08-11T17:00:54Z</time>
      </trkpt>
      <trkpt lat="42.44313" lon="2.07836">
        <ele>1553.6</ele>
        <time>2013-08-11T17:00:56Z</time>
      </trkpt>
      <trkpt lat="42.44317" lon="2.07836">
        <ele>1553.2</ele>
        <time>2013-08-11T17:00:58Z</time>
      </trkpt>
      <trkpt lat="42.44321" lon="2.07836">
        <ele>1553</ele>
        <time>2013-08-11T17:01:00Z</time>
      </trkpt>
      <trkpt lat="42.44323" lon="2.07836">
        <ele>1553</ele>
        <time>2013-08-11T17:01:01Z</time>
      </trkpt>
      <trkpt lat="42.44329" lon="2.07836">
        <ele>1552.1</ele>
        <time>2013-08-11T17:01:04Z</time>
      </trkpt>
      <trkpt lat="42.44332" lon="2.07835">
        <ele>1551.8</ele>
        <time>2013-08-11T17:01:06Z</time>
      </trkpt>
      <trkpt lat="42.44335" lon="2.07834">
        <ele>1551.6</ele>
        <time>2013-08-11T17:01:08Z</time>
      </trkpt>
      <trkpt lat="42.44339" lon="2.07833">
        <ele>1551.7</ele>
        <time>2013-08-11T17:01:10Z</time>
      </trkpt>
      <trkpt lat="42.44343" lon="2.07832">
        <ele>1551.3</ele>
        <time>2013-08-11T17:01:12Z</time>
      </trkpt>
      <trkpt lat="42.44346" lon="2.07829">
        <ele>1550.7</ele>
        <time>2013-08-11T17:01:14Z</time>
      </trkpt>
      <trkpt lat="42.44349" lon="2.07826">
        <ele>1550.8</ele>
        <time>2013-08-11T17:01:17Z</time>
      </trkpt>
      <trkpt lat="42.44352" lon="2.07821">
        <ele>1550.9</ele>
        <time>2013-08-11T17:01:20Z</time>
      </trkpt>
      <trkpt lat="42.44354" lon="2.07817">
        <ele>1550.9</ele>
        <time>2013-08-11T17:01:22Z</time>
      </trkpt>
      <trkpt lat="42.44355" lon="2.07812">
        <ele>1550.9</ele>
        <time>2013-08-11T17:01:24Z</time>
      </trkpt>
      <trkpt lat="42.44356" lon="2.07806">
        <ele>1550.4</ele>
        <time>2013-08-11T17:01:26Z</time>
      </trkpt>
      <trkpt lat="42.44356" lon="2.07801">
        <ele>1550.2</ele>
        <time>2013-08-11T17:01:28Z</time>
      </trkpt>
      <trkpt lat="42.44356" lon="2.07795">
        <ele>1550.2</ele>
        <time>2013-08-11T17:01:30Z</time>
      </trkpt>
      <trkpt lat="42.44356" lon="2.0779">
        <ele>1549.8</ele>
        <time>2013-08-11T17:01:32Z</time>
      </trkpt>
      <trkpt lat="42.44356" lon="2.07784">
        <ele>1549.7</ele>
        <time>2013-08-11T17:01:34Z</time>
      </trkpt>
      <trkpt lat="42.44357" lon="2.07781">
        <ele>1549.7</ele>
        <time>2013-08-11T17:01:35Z</time>
      </trkpt>
      <trkpt lat="42.44356" lon="2.07775">
        <ele>1549.5</ele>
        <time>2013-08-11T17:01:37Z</time>
      </trkpt>
      <trkpt lat="42.44356" lon="2.0777">
        <ele>1549.3</ele>
        <time>2013-08-11T17:01:39Z</time>
      </trkpt>
      <trkpt lat="42.44356" lon="2.07765">
        <ele>1548.6</ele>
        <time>2013-08-11T17:01:42Z</time>
      </trkpt>
      <trkpt lat="42.44358" lon="2.0776">
        <ele>1548.4</ele>
        <time>2013-08-11T17:01:45Z</time>
      </trkpt>
      <trkpt lat="42.44358" lon="2.07755">
        <ele>1548.2</ele>
        <time>2013-08-11T17:01:48Z</time>
      </trkpt>
      <trkpt lat="42.44358" lon="2.0775">
        <ele>1548.2</ele>
        <time>2013-08-11T17:01:50Z</time>
      </trkpt>
      <trkpt lat="42.44358" lon="2.07745">
        <ele>1548.2</ele>
        <time>2013-08-11T17:01:52Z</time>
      </trkpt>
      <trkpt lat="42.44358" lon="2.0774">
        <ele>1548.6</ele>
        <time>2013-08-11T17:01:54Z</time>
      </trkpt>
      <trkpt lat="42.4436" lon="2.07736">
        <ele>1548.1</ele>
        <time>2013-08-11T17:01:57Z</time>
      </trkpt>
      <trkpt lat="42.44362" lon="2.07731">
        <ele>1547.2</ele>
        <time>2013-08-11T17:02:00Z</time>
      </trkpt>
      <trkpt lat="42.44363" lon="2.07726">
        <ele>1547</ele>
        <time>2013-08-11T17:02:03Z</time>
      </trkpt>
      <trkpt lat="42.44364" lon="2.07725">
        <ele>1546.9</ele>
        <time>2013-08-11T17:02:04Z</time>
      </trkpt>
      <trkpt lat="42.44367" lon="2.07718">
        <ele>1547.1</ele>
        <time>2013-08-11T17:02:08Z</time>
      </trkpt>
      <trkpt lat="42.44368" lon="2.07714">
        <ele>1546.6</ele>
        <time>2013-08-11T17:02:10Z</time>
      </trkpt>
      <trkpt lat="42.44368" lon="2.07708">
        <ele>1546.4</ele>
        <time>2013-08-11T17:02:13Z</time>
      </trkpt>
      <trkpt lat="42.44369" lon="2.07703">
        <ele>1546.7</ele>
        <time>2013-08-11T17:02:15Z</time>
      </trkpt>
      <trkpt lat="42.44369" lon="2.07697">
        <ele>1545.7</ele>
        <time>2013-08-11T17:02:18Z</time>
      </trkpt>
      <trkpt lat="42.44371" lon="2.07693">
        <ele>1545.3</ele>
        <time>2013-08-11T17:02:20Z</time>
      </trkpt>
      <trkpt lat="42.44373" lon="2.07688">
        <ele>1544.8</ele>
        <time>2013-08-11T17:02:23Z</time>
      </trkpt>
      <trkpt lat="42.44375" lon="2.07685">
        <ele>1544.1</ele>
        <time>2013-08-11T17:02:26Z</time>
      </trkpt>
      <trkpt lat="42.44378" lon="2.07683">
        <ele>1543.7</ele>
        <time>2013-08-11T17:02:28Z</time>
      </trkpt>
      <trkpt lat="42.44381" lon="2.0768">
        <ele>1544.1</ele>
        <time>2013-08-11T17:02:30Z</time>
      </trkpt>
      <trkpt lat="42.44383" lon="2.07677">
        <ele>1544.6</ele>
        <time>2013-08-11T17:02:33Z</time>
      </trkpt>
      <trkpt lat="42.44386" lon="2.07674">
        <ele>1544.5</ele>
        <time>2013-08-11T17:02:36Z</time>
      </trkpt>
      <trkpt lat="42.44389" lon="2.07673">
        <ele>1544.6</ele>
        <time>2013-08-11T17:02:38Z</time>
      </trkpt>
      <trkpt lat="42.44392" lon="2.07669">
        <ele>1544.5</ele>
        <time>2013-08-11T17:02:41Z</time>
      </trkpt>
      <trkpt lat="42.44394" lon="2.07668">
        <ele>1544.2</ele>
        <time>2013-08-11T17:02:43Z</time>
      </trkpt>
      <trkpt lat="42.44397" lon="2.07664">
        <ele>1543.8</ele>
        <time>2013-08-11T17:02:46Z</time>
      </trkpt>
      <trkpt lat="42.44399" lon="2.07661">
        <ele>1543.5</ele>
        <time>2013-08-11T17:02:48Z</time>
      </trkpt>
      <trkpt lat="42.44402" lon="2.07658">
        <ele>1543.1</ele>
        <time>2013-08-11T17:02:51Z</time>
      </trkpt>
      <trkpt lat="42.44403" lon="2.07654">
        <ele>1542.9</ele>
        <time>2013-08-11T17:02:53Z</time>
      </trkpt>
      <trkpt lat="42.44404" lon="2.0765">
        <ele>1542.4</ele>
        <time>2013-08-11T17:02:55Z</time>
      </trkpt>
      <trkpt lat="42.44405" lon="2.07646">
        <ele>1542.4</ele>
        <time>2013-08-11T17:02:57Z</time>
      </trkpt>
      <trkpt lat="42.44405" lon="2.07641">
        <ele>1542.5</ele>
        <time>2013-08-11T17:02:59Z</time>
      </trkpt>
      <trkpt lat="42.44408" lon="2.07637">
        <ele>1542.1</ele>
        <time>2013-08-11T17:03:01Z</time>
      </trkpt>
      <trkpt lat="42.4441" lon="2.07634">
        <ele>1542</ele>
        <time>2013-08-11T17:03:02Z</time>
      </trkpt>
      <trkpt lat="42.44414" lon="2.07632">
        <ele>1541.8</ele>
        <time>2013-08-11T17:03:04Z</time>
      </trkpt>
      <trkpt lat="42.44416" lon="2.0763">
        <ele>1541.8</ele>
        <time>2013-08-11T17:03:05Z</time>
      </trkpt>
      <trkpt lat="42.44421" lon="2.07626">
        <ele>1541.6</ele>
        <time>2013-08-11T17:03:08Z</time>
      </trkpt>
      <trkpt lat="42.44424" lon="2.07623">
        <ele>1541.3</ele>
        <time>2013-08-11T17:03:10Z</time>
      </trkpt>
      <trkpt lat="42.44428" lon="2.07621">
        <ele>1541.2</ele>
        <time>2013-08-11T17:03:12Z</time>
      </trkpt>
      <trkpt lat="42.4443" lon="2.0762">
        <ele>1541.2</ele>
        <time>2013-08-11T17:03:13Z</time>
      </trkpt>
      <trkpt lat="42.44433" lon="2.07619">
        <ele>1541.3</ele>
        <time>2013-08-11T17:03:14Z</time>
      </trkpt>
      <trkpt lat="42.44437" lon="2.07618">
        <ele>1541.2</ele>
        <time>2013-08-11T17:03:16Z</time>
      </trkpt>
      <trkpt lat="42.44441" lon="2.07616">
        <ele>1541</ele>
        <time>2013-08-11T17:03:18Z</time>
      </trkpt>
      <trkpt lat="42.44444" lon="2.07615">
        <ele>1540.9</ele>
        <time>2013-08-11T17:03:19Z</time>
      </trkpt>
      <trkpt lat="42.44447" lon="2.07615">
        <ele>1540.6</ele>
        <time>2013-08-11T17:03:20Z</time>
      </trkpt>
      <trkpt lat="42.4445" lon="2.07615">
        <ele>1540.4</ele>
        <time>2013-08-11T17:03:21Z</time>
      </trkpt>
      <trkpt lat="42.44454" lon="2.07613">
        <ele>1539.9</ele>
        <time>2013-08-11T17:03:23Z</time>
      </trkpt>
      <trkpt lat="42.44456" lon="2.07608">
        <ele>1539</ele>
        <time>2013-08-11T17:03:26Z</time>
      </trkpt>
      <trkpt lat="42.44455" lon="2.07603">
        <ele>1538.7</ele>
        <time>2013-08-11T17:03:28Z</time>
      </trkpt>
      <trkpt lat="42.44454" lon="2.076">
        <ele>1538.6</ele>
        <time>2013-08-11T17:03:29Z</time>
      </trkpt>
      <trkpt lat="42.44452" lon="2.07597">
        <ele>1538.6</ele>
        <time>2013-08-11T17:03:30Z</time>
      </trkpt>
      <trkpt lat="42.44451" lon="2.07592">
        <ele>1538.5</ele>
        <time>2013-08-11T17:03:32Z</time>
      </trkpt>
      <trkpt lat="42.44451" lon="2.07588">
        <ele>1538.5</ele>
        <time>2013-08-11T17:03:34Z</time>
      </trkpt>
      <trkpt lat="42.4445" lon="2.07584">
        <ele>1538.4</ele>
        <time>2013-08-11T17:03:36Z</time>
      </trkpt>
      <trkpt lat="42.44448" lon="2.07579">
        <ele>1538.4</ele>
        <time>2013-08-11T17:03:38Z</time>
      </trkpt>
      <trkpt lat="42.44446" lon="2.07575">
        <ele>1537.7</ele>
        <time>2013-08-11T17:03:40Z</time>
      </trkpt>
      <trkpt lat="42.44444" lon="2.07571">
        <ele>1537.5</ele>
        <time>2013-08-11T17:03:42Z</time>
      </trkpt>
      <trkpt lat="42.44443" lon="2.07566">
        <ele>1537.5</ele>
        <time>2013-08-11T17:03:44Z</time>
      </trkpt>
      <trkpt lat="42.44442" lon="2.07562">
        <ele>1537</ele>
        <time>2013-08-11T17:03:46Z</time>
      </trkpt>
      <trkpt lat="42.44442" lon="2.07556">
        <ele>1537</ele>
        <time>2013-08-11T17:03:49Z</time>
      </trkpt>
      <trkpt lat="42.44439" lon="2.07552">
        <ele>1537.4</ele>
        <time>2013-08-11T17:03:54Z</time>
      </trkpt>
      <trkpt lat="42.44438" lon="2.07547">
        <ele>1537.2</ele>
        <time>2013-08-11T17:03:58Z</time>
      </trkpt>
      <trkpt lat="42.4444" lon="2.07543">
        <ele>1536.6</ele>
        <time>2013-08-11T17:04:00Z</time>
      </trkpt>
      <trkpt lat="42.44442" lon="2.0754">
        <ele>1536.6</ele>
        <time>2013-08-11T17:04:02Z</time>
      </trkpt>
      <trkpt lat="42.44446" lon="2.07537">
        <ele>1536.3</ele>
        <time>2013-08-11T17:04:06Z</time>
      </trkpt>
      <trkpt lat="42.44446" lon="2.07535">
        <ele>1536.3</ele>
        <time>2013-08-11T17:04:07Z</time>
      </trkpt>
      <trkpt lat="42.44451" lon="2.07529">
        <ele>1535.6</ele>
        <time>2013-08-11T17:04:14Z</time>
      </trkpt>
      <trkpt lat="42.44454" lon="2.07526">
        <ele>1535.4</ele>
        <time>2013-08-11T17:04:17Z</time>
      </trkpt>
      <trkpt lat="42.44458" lon="2.07522">
        <ele>1535.2</ele>
        <time>2013-08-11T17:04:20Z</time>
      </trkpt>
      <trkpt lat="42.4446" lon="2.07518">
        <ele>1535</ele>
        <time>2013-08-11T17:04:23Z</time>
      </trkpt>
      <trkpt lat="42.44463" lon="2.07515">
        <ele>1535.2</ele>
        <time>2013-08-11T17:04:26Z</time>
      </trkpt>
      <trkpt lat="42.44465" lon="2.07512">
        <ele>1534.3</ele>
        <time>2013-08-11T17:04:28Z</time>
      </trkpt>
      <trkpt lat="42.44469" lon="2.0751">
        <ele>1533.9</ele>
        <time>2013-08-11T17:04:30Z</time>
      </trkpt>
      <trkpt lat="42.44471" lon="2.07508">
        <ele>1533.7</ele>
        <time>2013-08-11T17:04:32Z</time>
      </trkpt>
      <trkpt lat="42.44473" lon="2.07504">
        <ele>1533.1</ele>
        <time>2013-08-11T17:04:34Z</time>
      </trkpt>
      <trkpt lat="42.44474" lon="2.075">
        <ele>1532.7</ele>
        <time>2013-08-11T17:04:36Z</time>
      </trkpt>
      <trkpt lat="42.44477" lon="2.07497">
        <ele>1532.4</ele>
        <time>2013-08-11T17:04:38Z</time>
      </trkpt>
      <trkpt lat="42.44479" lon="2.07495">
        <ele>1532.1</ele>
        <time>2013-08-11T17:04:40Z</time>
      </trkpt>
      <trkpt lat="42.44482" lon="2.07492">
        <ele>1532</ele>
        <time>2013-08-11T17:04:42Z</time>
      </trkpt>
      <trkpt lat="42.44485" lon="2.0749">
        <ele>1532</ele>
        <time>2013-08-11T17:04:44Z</time>
      </trkpt>
      <trkpt lat="42.44488" lon="2.07488">
        <ele>1532.4</ele>
        <time>2013-08-11T17:04:47Z</time>
      </trkpt>
      <trkpt lat="42.44491" lon="2.07484">
        <ele>1532</ele>
        <time>2013-08-11T17:04:50Z</time>
      </trkpt>
      <trkpt lat="42.44494" lon="2.0748">
        <ele>1531.9</ele>
        <time>2013-08-11T17:04:53Z</time>
      </trkpt>
      <trkpt lat="42.44497" lon="2.07477">
        <ele>1531.9</ele>
        <time>2013-08-11T17:04:55Z</time>
      </trkpt>
      <trkpt lat="42.44498" lon="2.07471">
        <ele>1531.9</ele>
        <time>2013-08-11T17:04:58Z</time>
      </trkpt>
      <trkpt lat="42.44501" lon="2.07469">
        <ele>1531.6</ele>
        <time>2013-08-11T17:05:00Z</time>
      </trkpt>
      <trkpt lat="42.44504" lon="2.07466">
        <ele>1531.7</ele>
        <time>2013-08-11T17:05:02Z</time>
      </trkpt>
      <trkpt lat="42.44506" lon="2.07462">
        <ele>1532</ele>
        <time>2013-08-11T17:05:05Z</time>
      </trkpt>
      <trkpt lat="42.44509" lon="2.07458">
        <ele>1532.1</ele>
        <time>2013-08-11T17:05:07Z</time>
      </trkpt>
      <trkpt lat="42.4451" lon="2.07457">
        <ele>1531.9</ele>
        <time>2013-08-11T17:05:08Z</time>
      </trkpt>
      <trkpt lat="42.44512" lon="2.07451">
        <ele>1531.4</ele>
        <time>2013-08-11T17:05:11Z</time>
      </trkpt>
      <trkpt lat="42.44514" lon="2.07447">
        <ele>1531</ele>
        <time>2013-08-11T17:05:13Z</time>
      </trkpt>
      <trkpt lat="42.44516" lon="2.07442">
        <ele>1530.7</ele>
        <time>2013-08-11T17:05:15Z</time>
      </trkpt>
      <trkpt lat="42.44519" lon="2.0744">
        <ele>1530.5</ele>
        <time>2013-08-11T17:05:17Z</time>
      </trkpt>
      <trkpt lat="42.44521" lon="2.07437">
        <ele>1530.7</ele>
        <time>2013-08-11T17:05:19Z</time>
      </trkpt>
      <trkpt lat="42.44523" lon="2.07433">
        <ele>1530.3</ele>
        <time>2013-08-11T17:05:21Z</time>
      </trkpt>
      <trkpt lat="42.44526" lon="2.07431">
        <ele>1529.6</ele>
        <time>2013-08-11T17:05:23Z</time>
      </trkpt>
      <trkpt lat="42.44528" lon="2.07427">
        <ele>1529.8</ele>
        <time>2013-08-11T17:05:25Z</time>
      </trkpt>
      <trkpt lat="42.4453" lon="2.07423">
        <ele>1529.3</ele>
        <time>2013-08-11T17:05:27Z</time>
      </trkpt>
      <trkpt lat="42.44533" lon="2.07419">
        <ele>1528.7</ele>
        <time>2013-08-11T17:05:29Z</time>
      </trkpt>
      <trkpt lat="42.44534" lon="2.07414">
        <ele>1528.5</ele>
        <time>2013-08-11T17:05:31Z</time>
      </trkpt>
      <trkpt lat="42.44536" lon="2.0741">
        <ele>1528.6</ele>
        <time>2013-08-11T17:05:33Z</time>
      </trkpt>
      <trkpt lat="42.44537" lon="2.07406">
        <ele>1528</ele>
        <time>2013-08-11T17:05:35Z</time>
      </trkpt>
      <trkpt lat="42.44539" lon="2.07402">
        <ele>1527.7</ele>
        <time>2013-08-11T17:05:37Z</time>
      </trkpt>
      <trkpt lat="42.44541" lon="2.07397">
        <ele>1527.5</ele>
        <time>2013-08-11T17:05:39Z</time>
      </trkpt>
      <trkpt lat="42.44542" lon="2.07392">
        <ele>1527.1</ele>
        <time>2013-08-11T17:05:41Z</time>
      </trkpt>
      <trkpt lat="42.44543" lon="2.07388">
        <ele>1527.1</ele>
        <time>2013-08-11T17:05:43Z</time>
      </trkpt>
      <trkpt lat="42.44543" lon="2.07384">
        <ele>1527.1</ele>
        <time>2013-08-11T17:05:45Z</time>
      </trkpt>
      <trkpt lat="42.44542" lon="2.07381">
        <ele>1526.9</ele>
        <time>2013-08-11T17:05:46Z</time>
      </trkpt>
      <trkpt lat="42.44542" lon="2.07376">
        <ele>1526.6</ele>
        <time>2013-08-11T17:05:48Z</time>
      </trkpt>
      <trkpt lat="42.44541" lon="2.07371">
        <ele>1526.2</ele>
        <time>2013-08-11T17:05:51Z</time>
      </trkpt>
      <trkpt lat="42.4454" lon="2.07366">
        <ele>1525</ele>
        <time>2013-08-11T17:05:56Z</time>
      </trkpt>
      <trkpt lat="42.44542" lon="2.07362">
        <ele>1524.2</ele>
        <time>2013-08-11T17:06:01Z</time>
      </trkpt>
      <trkpt lat="42.44542" lon="2.07357">
        <ele>1523.7</ele>
        <time>2013-08-11T17:06:05Z</time>
      </trkpt>
      <trkpt lat="42.44542" lon="2.07353">
        <ele>1523.5</ele>
        <time>2013-08-11T17:06:07Z</time>
      </trkpt>
      <trkpt lat="42.44542" lon="2.07348">
        <ele>1523.3</ele>
        <time>2013-08-11T17:06:09Z</time>
      </trkpt>
      <trkpt lat="42.4454" lon="2.07346">
        <ele>1523.1</ele>
        <time>2013-08-11T17:06:10Z</time>
      </trkpt>
      <trkpt lat="42.44536" lon="2.07339">
        <ele>1522.2</ele>
        <time>2013-08-11T17:06:15Z</time>
      </trkpt>
      <trkpt lat="42.44534" lon="2.07335">
        <ele>1521</ele>
        <time>2013-08-11T17:06:25Z</time>
      </trkpt>
      <trkpt lat="42.44532" lon="2.0733">
        <ele>1520.3</ele>
        <time>2013-08-11T17:06:30Z</time>
      </trkpt>
      <trkpt lat="42.4453" lon="2.07326">
        <ele>1519.8</ele>
        <time>2013-08-11T17:06:34Z</time>
      </trkpt>
      <trkpt lat="42.44531" lon="2.07321">
        <ele>1519.9</ele>
        <time>2013-08-11T17:06:38Z</time>
      </trkpt>
      <trkpt lat="42.44532" lon="2.07317">
        <ele>1519.7</ele>
        <time>2013-08-11T17:06:41Z</time>
      </trkpt>
      <trkpt lat="42.44532" lon="2.07311">
        <ele>1519.6</ele>
        <time>2013-08-11T17:06:44Z</time>
      </trkpt>
      <trkpt lat="42.44533" lon="2.07305">
        <ele>1519.1</ele>
        <time>2013-08-11T17:06:47Z</time>
      </trkpt>
      <trkpt lat="42.44534" lon="2.073">
        <ele>1518.7</ele>
        <time>2013-08-11T17:06:49Z</time>
      </trkpt>
      <trkpt lat="42.44535" lon="2.07296">
        <ele>1517.7</ele>
        <time>2013-08-11T17:06:51Z</time>
      </trkpt>
      <trkpt lat="42.44535" lon="2.07291">
        <ele>1517.2</ele>
        <time>2013-08-11T17:06:53Z</time>
      </trkpt>
      <trkpt lat="42.44534" lon="2.07286">
        <ele>1517.1</ele>
        <time>2013-08-11T17:06:55Z</time>
      </trkpt>
      <trkpt lat="42.44533" lon="2.07283">
        <ele>1517.1</ele>
        <time>2013-08-11T17:06:56Z</time>
      </trkpt>
      <trkpt lat="42.44532" lon="2.0728">
        <ele>1516.9</ele>
        <time>2013-08-11T17:06:57Z</time>
      </trkpt>
      <trkpt lat="42.44532" lon="2.07276">
        <ele>1516.9</ele>
        <time>2013-08-11T17:06:58Z</time>
      </trkpt>
      <trkpt lat="42.44531" lon="2.07272">
        <ele>1516.8</ele>
        <time>2013-08-11T17:06:59Z</time>
      </trkpt>
      <trkpt lat="42.4453" lon="2.07267">
        <ele>1516.6</ele>
        <time>2013-08-11T17:07:01Z</time>
      </trkpt>
      <trkpt lat="42.44529" lon="2.07264">
        <ele>1516.2</ele>
        <time>2013-08-11T17:07:03Z</time>
      </trkpt>
      <trkpt lat="42.44526" lon="2.07261">
        <ele>1515.7</ele>
        <time>2013-08-11T17:07:05Z</time>
      </trkpt>
      <trkpt lat="42.44527" lon="2.07257">
        <ele>1514.9</ele>
        <time>2013-08-11T17:07:11Z</time>
      </trkpt>
      <trkpt lat="42.44529" lon="2.07257">
        <ele>1515</ele>
        <time>2013-08-11T17:07:12Z</time>
      </trkpt>
      <trkpt lat="42.44532" lon="2.07252">
        <ele>1515.8</ele>
        <time>2013-08-11T17:07:15Z</time>
      </trkpt>
      <trkpt lat="42.44533" lon="2.07248">
        <ele>1515.4</ele>
        <time>2013-08-11T17:07:17Z</time>
      </trkpt>
      <trkpt lat="42.44534" lon="2.07243">
        <ele>1515.2</ele>
        <time>2013-08-11T17:07:19Z</time>
      </trkpt>
      <trkpt lat="42.44534" lon="2.07237">
        <ele>1515</ele>
        <time>2013-08-11T17:07:21Z</time>
      </trkpt>
      <trkpt lat="42.44536" lon="2.07232">
        <ele>1515</ele>
        <time>2013-08-11T17:07:23Z</time>
      </trkpt>
      <trkpt lat="42.44535" lon="2.07226">
        <ele>1514.4</ele>
        <time>2013-08-11T17:07:25Z</time>
      </trkpt>
      <trkpt lat="42.44535" lon="2.07221">
        <ele>1513.7</ele>
        <time>2013-08-11T17:07:27Z</time>
      </trkpt>
      <trkpt lat="42.44538" lon="2.07218">
        <ele>1513.5</ele>
        <time>2013-08-11T17:07:29Z</time>
      </trkpt>
      <trkpt lat="42.44542" lon="2.07214">
        <ele>1513.6</ele>
        <time>2013-08-11T17:07:31Z</time>
      </trkpt>
      <trkpt lat="42.44543" lon="2.07209">
        <ele>1513.6</ele>
        <time>2013-08-11T17:07:33Z</time>
      </trkpt>
      <trkpt lat="42.44542" lon="2.07203">
        <ele>1513.9</ele>
        <time>2013-08-11T17:07:35Z</time>
      </trkpt>
      <trkpt lat="42.44541" lon="2.07197">
        <ele>1514.4</ele>
        <time>2013-08-11T17:07:37Z</time>
      </trkpt>
      <trkpt lat="42.4454" lon="2.07194">
        <ele>1514.1</ele>
        <time>2013-08-11T17:07:38Z</time>
      </trkpt>
      <trkpt lat="42.44538" lon="2.07191">
        <ele>1513.8</ele>
        <time>2013-08-11T17:07:39Z</time>
      </trkpt>
      <trkpt lat="42.44536" lon="2.07186">
        <ele>1513.4</ele>
        <time>2013-08-11T17:07:41Z</time>
      </trkpt>
      <trkpt lat="42.44534" lon="2.07182">
        <ele>1513.2</ele>
        <time>2013-08-11T17:07:43Z</time>
      </trkpt>
      <trkpt lat="42.44534" lon="2.07177">
        <ele>1512.7</ele>
        <time>2013-08-11T17:07:46Z</time>
      </trkpt>
      <trkpt lat="42.44536" lon="2.07173">
        <ele>1512.8</ele>
        <time>2013-08-11T17:07:49Z</time>
      </trkpt>
      <trkpt lat="42.4454" lon="2.0717">
        <ele>1512.5</ele>
        <time>2013-08-11T17:07:52Z</time>
      </trkpt>
      <trkpt lat="42.44542" lon="2.07166">
        <ele>1512.6</ele>
        <time>2013-08-11T17:07:56Z</time>
      </trkpt>
      <trkpt lat="42.44546" lon="2.07163">
        <ele>1511.7</ele>
        <time>2013-08-11T17:08:00Z</time>
      </trkpt>
      <trkpt lat="42.44548" lon="2.07159">
        <ele>1511</ele>
        <time>2013-08-11T17:08:04Z</time>
      </trkpt>
      <trkpt lat="42.44551" lon="2.07156">
        <ele>1510.5</ele>
        <time>2013-08-11T17:08:06Z</time>
      </trkpt>
      <trkpt lat="42.44554" lon="2.07153">
        <ele>1510.8</ele>
        <time>2013-08-11T17:08:08Z</time>
      </trkpt>
      <trkpt lat="42.44557" lon="2.07152">
        <ele>1510.7</ele>
        <time>2013-08-11T17:08:10Z</time>
      </trkpt>
      <trkpt lat="42.4456" lon="2.07149">
        <ele>1510.5</ele>
        <time>2013-08-11T17:08:12Z</time>
      </trkpt>
      <trkpt lat="42.44561" lon="2.07148">
        <ele>1510.4</ele>
        <time>2013-08-11T17:08:13Z</time>
      </trkpt>
      <trkpt lat="42.44567" lon="2.07144">
        <ele>1510.2</ele>
        <time>2013-08-11T17:08:16Z</time>
      </trkpt>
      <trkpt lat="42.44571" lon="2.07141">
        <ele>1510.1</ele>
        <time>2013-08-11T17:08:19Z</time>
      </trkpt>
      <trkpt lat="42.44573" lon="2.07137">
        <ele>1510</ele>
        <time>2013-08-11T17:08:21Z</time>
      </trkpt>
      <trkpt lat="42.44576" lon="2.07133">
        <ele>1509.4</ele>
        <time>2013-08-11T17:08:23Z</time>
      </trkpt>
      <trkpt lat="42.44578" lon="2.0713">
        <ele>1508.8</ele>
        <time>2013-08-11T17:08:25Z</time>
      </trkpt>
      <trkpt lat="42.44581" lon="2.07128">
        <ele>1508.4</ele>
        <time>2013-08-11T17:08:27Z</time>
      </trkpt>
      <trkpt lat="42.44584" lon="2.07126">
        <ele>1508.3</ele>
        <time>2013-08-11T17:08:29Z</time>
      </trkpt>
      <trkpt lat="42.44587" lon="2.07126">
        <ele>1508.3</ele>
        <time>2013-08-11T17:08:31Z</time>
      </trkpt>
      <trkpt lat="42.44589" lon="2.07125">
        <ele>1508</ele>
        <time>2013-08-11T17:08:32Z</time>
      </trkpt>
      <trkpt lat="42.44594" lon="2.07126">
        <ele>1507.6</ele>
        <time>2013-08-11T17:08:34Z</time>
      </trkpt>
      <trkpt lat="42.44598" lon="2.07127">
        <ele>1507.5</ele>
        <time>2013-08-11T17:08:36Z</time>
      </trkpt>
      <trkpt lat="42.44601" lon="2.07129">
        <ele>1507.6</ele>
        <time>2013-08-11T17:08:38Z</time>
      </trkpt>
      <trkpt lat="42.44603" lon="2.07129">
        <ele>1507.5</ele>
        <time>2013-08-11T17:08:39Z</time>
      </trkpt>
      <trkpt lat="42.44607" lon="2.07131">
        <ele>1507.5</ele>
        <time>2013-08-11T17:08:41Z</time>
      </trkpt>
      <trkpt lat="42.44611" lon="2.07134">
        <ele>1506.9</ele>
        <time>2013-08-11T17:08:43Z</time>
      </trkpt>
      <trkpt lat="42.44614" lon="2.07136">
        <ele>1506.8</ele>
        <time>2013-08-11T17:08:45Z</time>
      </trkpt>
      <trkpt lat="42.44618" lon="2.07139">
        <ele>1506.9</ele>
        <time>2013-08-11T17:08:47Z</time>
      </trkpt>
      <trkpt lat="42.4462" lon="2.07144">
        <ele>1506.8</ele>
        <time>2013-08-11T17:08:49Z</time>
      </trkpt>
      <trkpt lat="42.44624" lon="2.07147">
        <ele>1506.7</ele>
        <time>2013-08-11T17:08:51Z</time>
      </trkpt>
      <trkpt lat="42.44627" lon="2.0715">
        <ele>1506</ele>
        <time>2013-08-11T17:08:53Z</time>
      </trkpt>
      <trkpt lat="42.44628" lon="2.07154">
        <ele>1506.2</ele>
        <time>2013-08-11T17:08:55Z</time>
      </trkpt>
      <trkpt lat="42.44631" lon="2.07157">
        <ele>1506.7</ele>
        <time>2013-08-11T17:08:57Z</time>
      </trkpt>
      <trkpt lat="42.44634" lon="2.0716">
        <ele>1506.3</ele>
        <time>2013-08-11T17:08:59Z</time>
      </trkpt>
      <trkpt lat="42.44637" lon="2.07163">
        <ele>1505.9</ele>
        <time>2013-08-11T17:09:01Z</time>
      </trkpt>
      <trkpt lat="42.4464" lon="2.07165">
        <ele>1505.5</ele>
        <time>2013-08-11T17:09:03Z</time>
      </trkpt>
      <trkpt lat="42.44643" lon="2.07168">
        <ele>1505.7</ele>
        <time>2013-08-11T17:09:05Z</time>
      </trkpt>
      <trkpt lat="42.44646" lon="2.0717">
        <ele>1505.8</ele>
        <time>2013-08-11T17:09:07Z</time>
      </trkpt>
      <trkpt lat="42.44649" lon="2.07173">
        <ele>1505.5</ele>
        <time>2013-08-11T17:09:09Z</time>
      </trkpt>
      <trkpt lat="42.44652" lon="2.07175">
        <ele>1505.3</ele>
        <time>2013-08-11T17:09:11Z</time>
      </trkpt>
      <trkpt lat="42.44655" lon="2.07178">
        <ele>1505.1</ele>
        <time>2013-08-11T17:09:13Z</time>
      </trkpt>
      <trkpt lat="42.44656" lon="2.07179">
        <ele>1505.1</ele>
        <time>2013-08-11T17:09:14Z</time>
      </trkpt>
      <trkpt lat="42.44662" lon="2.07183">
        <ele>1504.7</ele>
        <time>2013-08-11T17:09:18Z</time>
      </trkpt>
      <trkpt lat="42.44664" lon="2.07186">
        <ele>1504.6</ele>
        <time>2013-08-11T17:09:20Z</time>
      </trkpt>
      <trkpt lat="42.44667" lon="2.07188">
        <ele>1504.7</ele>
        <time>2013-08-11T17:09:22Z</time>
      </trkpt>
      <trkpt lat="42.4467" lon="2.07191">
        <ele>1504.4</ele>
        <time>2013-08-11T17:09:24Z</time>
      </trkpt>
      <trkpt lat="42.44672" lon="2.07194">
        <ele>1504.3</ele>
        <time>2013-08-11T17:09:26Z</time>
      </trkpt>
      <trkpt lat="42.44675" lon="2.07197">
        <ele>1503.5</ele>
        <time>2013-08-11T17:09:28Z</time>
      </trkpt>
      <trkpt lat="42.44677" lon="2.07201">
        <ele>1503.3</ele>
        <time>2013-08-11T17:09:31Z</time>
      </trkpt>
      <trkpt lat="42.44678" lon="2.07206">
        <ele>1502.9</ele>
        <time>2013-08-11T17:09:34Z</time>
      </trkpt>
      <trkpt lat="42.4468" lon="2.0721">
        <ele>1502.1</ele>
        <time>2013-08-11T17:09:37Z</time>
      </trkpt>
      <trkpt lat="42.44684" lon="2.07212">
        <ele>1499.8</ele>
        <time>2013-08-11T17:09:47Z</time>
      </trkpt>
      <trkpt lat="42.44688" lon="2.07213">
        <ele>1499.5</ele>
        <time>2013-08-11T17:09:51Z</time>
      </trkpt>
      <trkpt lat="42.44692" lon="2.07215">
        <ele>1499.1</ele>
        <time>2013-08-11T17:09:55Z</time>
      </trkpt>
      <trkpt lat="42.44695" lon="2.07216">
        <ele>1499.2</ele>
        <time>2013-08-11T17:09:57Z</time>
      </trkpt>
      <trkpt lat="42.44699" lon="2.07217">
        <ele>1498.8</ele>
        <time>2013-08-11T17:09:59Z</time>
      </trkpt>
      <trkpt lat="42.44701" lon="2.07218">
        <ele>1498.5</ele>
        <time>2013-08-11T17:10:00Z</time>
      </trkpt>
      <trkpt lat="42.44705" lon="2.07221">
        <ele>1498.2</ele>
        <time>2013-08-11T17:10:02Z</time>
      </trkpt>
      <trkpt lat="42.44708" lon="2.07224">
        <ele>1498.1</ele>
        <time>2013-08-11T17:10:04Z</time>
      </trkpt>
      <trkpt lat="42.44712" lon="2.07225">
        <ele>1497.7</ele>
        <time>2013-08-11T17:10:07Z</time>
      </trkpt>
      <trkpt lat="42.44715" lon="2.07226">
        <ele>1497.9</ele>
        <time>2013-08-11T17:10:09Z</time>
      </trkpt>
      <trkpt lat="42.44718" lon="2.07229">
        <ele>1497.6</ele>
        <time>2013-08-11T17:10:11Z</time>
      </trkpt>
      <trkpt lat="42.44722" lon="2.0723">
        <ele>1497.2</ele>
        <time>2013-08-11T17:10:13Z</time>
      </trkpt>
      <trkpt lat="42.44726" lon="2.07231">
        <ele>1497.2</ele>
        <time>2013-08-11T17:10:16Z</time>
      </trkpt>
      <trkpt lat="42.44728" lon="2.07232">
        <ele>1497.2</ele>
        <time>2013-08-11T17:10:17Z</time>
      </trkpt>
      <trkpt lat="42.44733" lon="2.07235">
        <ele>1496.8</ele>
        <time>2013-08-11T17:10:20Z</time>
      </trkpt>
      <trkpt lat="42.44737" lon="2.07236">
        <ele>1496.1</ele>
        <time>2013-08-11T17:10:23Z</time>
      </trkpt>
      <trkpt lat="42.44742" lon="2.07238">
        <ele>1496.1</ele>
        <time>2013-08-11T17:10:26Z</time>
      </trkpt>
      <trkpt lat="42.44746" lon="2.07238">
        <ele>1496.1</ele>
        <time>2013-08-11T17:10:29Z</time>
      </trkpt>
      <trkpt lat="42.44749" lon="2.07238">
        <ele>1495.5</ele>
        <time>2013-08-11T17:10:32Z</time>
      </trkpt>
      <trkpt lat="42.44753" lon="2.07236">
        <ele>1495.5</ele>
        <time>2013-08-11T17:10:35Z</time>
      </trkpt>
      <trkpt lat="42.44757" lon="2.07234">
        <ele>1495.3</ele>
        <time>2013-08-11T17:10:38Z</time>
      </trkpt>
      <trkpt lat="42.4476" lon="2.07231">
        <ele>1494.7</ele>
        <time>2013-08-11T17:10:41Z</time>
      </trkpt>
      <trkpt lat="42.44763" lon="2.07226">
        <ele>1494.2</ele>
        <time>2013-08-11T17:10:44Z</time>
      </trkpt>
      <trkpt lat="42.44764" lon="2.07223">
        <ele>1494.1</ele>
        <time>2013-08-11T17:10:45Z</time>
      </trkpt>
      <trkpt lat="42.44765" lon="2.07217">
        <ele>1493.7</ele>
        <time>2013-08-11T17:10:47Z</time>
      </trkpt>
      <trkpt lat="42.44765" lon="2.07213">
        <ele>1493.4</ele>
        <time>2013-08-11T17:10:49Z</time>
      </trkpt>
      <trkpt lat="42.44764" lon="2.07208">
        <ele>1493.6</ele>
        <time>2013-08-11T17:10:51Z</time>
      </trkpt>
      <trkpt lat="42.44764" lon="2.07202">
        <ele>1493.5</ele>
        <time>2013-08-11T17:10:55Z</time>
      </trkpt>
      <trkpt lat="42.44762" lon="2.07198">
        <ele>1493</ele>
        <time>2013-08-11T17:10:59Z</time>
      </trkpt>
      <trkpt lat="42.44761" lon="2.07193">
        <ele>1493.1</ele>
        <time>2013-08-11T17:11:08Z</time>
      </trkpt>
      <trkpt lat="42.4476" lon="2.07188">
        <ele>1491.1</ele>
        <time>2013-08-11T17:11:13Z</time>
      </trkpt>
      <trkpt lat="42.4476" lon="2.07182">
        <ele>1490</ele>
        <time>2013-08-11T17:11:17Z</time>
      </trkpt>
      <trkpt lat="42.44759" lon="2.07181">
        <ele>1489.9</ele>
        <time>2013-08-11T17:11:18Z</time>
      </trkpt>
      <trkpt lat="42.4476" lon="2.07172">
        <ele>1489.5</ele>
        <time>2013-08-11T17:11:23Z</time>
      </trkpt>
      <trkpt lat="42.4476" lon="2.07167">
        <ele>1489.4</ele>
        <time>2013-08-11T17:11:25Z</time>
      </trkpt>
      <trkpt lat="42.4476" lon="2.07162">
        <ele>1489.4</ele>
        <time>2013-08-11T17:11:27Z</time>
      </trkpt>
      <trkpt lat="42.4476" lon="2.07157">
        <ele>1489.4</ele>
        <time>2013-08-11T17:11:29Z</time>
      </trkpt>
      <trkpt lat="42.44761" lon="2.07151">
        <ele>1489.1</ele>
        <time>2013-08-11T17:11:31Z</time>
      </trkpt>
      <trkpt lat="42.44762" lon="2.07147">
        <ele>1488.6</ele>
        <time>2013-08-11T17:11:33Z</time>
      </trkpt>
      <trkpt lat="42.44763" lon="2.07143">
        <ele>1488.3</ele>
        <time>2013-08-11T17:11:35Z</time>
      </trkpt>
      <trkpt lat="42.44764" lon="2.07138">
        <ele>1487.5</ele>
        <time>2013-08-11T17:11:38Z</time>
      </trkpt>
      <trkpt lat="42.44766" lon="2.07133">
        <ele>1486.7</ele>
        <time>2013-08-11T17:11:41Z</time>
      </trkpt>
      <trkpt lat="42.44767" lon="2.07128">
        <ele>1486.4</ele>
        <time>2013-08-11T17:11:45Z</time>
      </trkpt>
      <trkpt lat="42.4477" lon="2.07124">
        <ele>1486</ele>
        <time>2013-08-11T17:11:48Z</time>
      </trkpt>
      <trkpt lat="42.44774" lon="2.07121">
        <ele>1485.7</ele>
        <time>2013-08-11T17:11:51Z</time>
      </trkpt>
      <trkpt lat="42.44778" lon="2.07119">
        <ele>1485.7</ele>
        <time>2013-08-11T17:11:54Z</time>
      </trkpt>
      <trkpt lat="42.44781" lon="2.07115">
        <ele>1485.5</ele>
        <time>2013-08-11T17:11:57Z</time>
      </trkpt>
      <trkpt lat="42.44784" lon="2.07113">
        <ele>1485</ele>
        <time>2013-08-11T17:11:59Z</time>
      </trkpt>
      <trkpt lat="42.44787" lon="2.07111">
        <ele>1484.8</ele>
        <time>2013-08-11T17:12:01Z</time>
      </trkpt>
      <trkpt lat="42.4479" lon="2.07109">
        <ele>1484.9</ele>
        <time>2013-08-11T17:12:03Z</time>
      </trkpt>
      <trkpt lat="42.44793" lon="2.07108">
        <ele>1485.3</ele>
        <time>2013-08-11T17:12:05Z</time>
      </trkpt>
      <trkpt lat="42.44796" lon="2.07106">
        <ele>1484.9</ele>
        <time>2013-08-11T17:12:07Z</time>
      </trkpt>
      <trkpt lat="42.44798" lon="2.07103">
        <ele>1484.9</ele>
        <time>2013-08-11T17:12:09Z</time>
      </trkpt>
      <trkpt lat="42.44801" lon="2.071">
        <ele>1485</ele>
        <time>2013-08-11T17:12:11Z</time>
      </trkpt>
      <trkpt lat="42.44804" lon="2.07097">
        <ele>1485</ele>
        <time>2013-08-11T17:12:14Z</time>
      </trkpt>
      <trkpt lat="42.44807" lon="2.07093">
        <ele>1484.5</ele>
        <time>2013-08-11T17:12:17Z</time>
      </trkpt>
      <trkpt lat="42.4481" lon="2.0709">
        <ele>1483.7</ele>
        <time>2013-08-11T17:12:20Z</time>
      </trkpt>
      <trkpt lat="42.44811" lon="2.07088">
        <ele>1483.5</ele>
        <time>2013-08-11T17:12:21Z</time>
      </trkpt>
      <trkpt lat="42.44814" lon="2.07083">
        <ele>1483.4</ele>
        <time>2013-08-11T17:12:24Z</time>
      </trkpt>
      <trkpt lat="42.44817" lon="2.0708">
        <ele>1483.5</ele>
        <time>2013-08-11T17:12:26Z</time>
      </trkpt>
      <trkpt lat="42.44819" lon="2.07076">
        <ele>1483.6</ele>
        <time>2013-08-11T17:12:28Z</time>
      </trkpt>
      <trkpt lat="42.44821" lon="2.07071">
        <ele>1483</ele>
        <time>2013-08-11T17:12:30Z</time>
      </trkpt>
      <trkpt lat="42.44823" lon="2.07066">
        <ele>1482.6</ele>
        <time>2013-08-11T17:12:32Z</time>
      </trkpt>
      <trkpt lat="42.44824" lon="2.07062">
        <ele>1482.3</ele>
        <time>2013-08-11T17:12:34Z</time>
      </trkpt>
      <trkpt lat="42.44825" lon="2.07059">
        <ele>1482</ele>
        <time>2013-08-11T17:12:36Z</time>
      </trkpt>
      <trkpt lat="42.44826" lon="2.07053">
        <ele>1482</ele>
        <time>2013-08-11T17:12:38Z</time>
      </trkpt>
      <trkpt lat="42.44826" lon="2.07047">
        <ele>1482.2</ele>
        <time>2013-08-11T17:12:40Z</time>
      </trkpt>
      <trkpt lat="42.44828" lon="2.07043">
        <ele>1481.9</ele>
        <time>2013-08-11T17:12:42Z</time>
      </trkpt>
      <trkpt lat="42.44831" lon="2.0704">
        <ele>1481.7</ele>
        <time>2013-08-11T17:12:44Z</time>
      </trkpt>
      <trkpt lat="42.44832" lon="2.07036">
        <ele>1481.4</ele>
        <time>2013-08-11T17:12:46Z</time>
      </trkpt>
      <trkpt lat="42.44833" lon="2.07031">
        <ele>1481.2</ele>
        <time>2013-08-11T17:12:48Z</time>
      </trkpt>
      <trkpt lat="42.44834" lon="2.07027">
        <ele>1481.1</ele>
        <time>2013-08-11T17:12:50Z</time>
      </trkpt>
      <trkpt lat="42.44836" lon="2.07023">
        <ele>1480.7</ele>
        <time>2013-08-11T17:12:52Z</time>
      </trkpt>
      <trkpt lat="42.44837" lon="2.07019">
        <ele>1480.4</ele>
        <time>2013-08-11T17:12:54Z</time>
      </trkpt>
      <trkpt lat="42.44838" lon="2.07014">
        <ele>1480.1</ele>
        <time>2013-08-11T17:12:56Z</time>
      </trkpt>
      <trkpt lat="42.44839" lon="2.07011">
        <ele>1479.9</ele>
        <time>2013-08-11T17:12:58Z</time>
      </trkpt>
      <trkpt lat="42.44842" lon="2.07008">
        <ele>1479.8</ele>
        <time>2013-08-11T17:13:00Z</time>
      </trkpt>
      <trkpt lat="42.44845" lon="2.07007">
        <ele>1479.6</ele>
        <time>2013-08-11T17:13:01Z</time>
      </trkpt>
      <trkpt lat="42.44848" lon="2.07006">
        <ele>1479.4</ele>
        <time>2013-08-11T17:13:02Z</time>
      </trkpt>
      <trkpt lat="42.4485" lon="2.07006">
        <ele>1479.3</ele>
        <time>2013-08-11T17:13:03Z</time>
      </trkpt>
      <trkpt lat="42.44853" lon="2.07005">
        <ele>1478.9</ele>
        <time>2013-08-11T17:13:04Z</time>
      </trkpt>
      <trkpt lat="42.44857" lon="2.07002">
        <ele>1478.4</ele>
        <time>2013-08-11T17:13:06Z</time>
      </trkpt>
      <trkpt lat="42.4486" lon="2.07">
        <ele>1478.2</ele>
        <time>2013-08-11T17:13:08Z</time>
      </trkpt>
      <trkpt lat="42.44863" lon="2.06997">
        <ele>1478.3</ele>
        <time>2013-08-11T17:13:10Z</time>
      </trkpt>
      <trkpt lat="42.44865" lon="2.06994">
        <ele>1478.5</ele>
        <time>2013-08-11T17:13:12Z</time>
      </trkpt>
      <trkpt lat="42.44868" lon="2.06991">
        <ele>1478.2</ele>
        <time>2013-08-11T17:13:14Z</time>
      </trkpt>
      <trkpt lat="42.44871" lon="2.06988">
        <ele>1478</ele>
        <time>2013-08-11T17:13:16Z</time>
      </trkpt>
      <trkpt lat="42.44874" lon="2.06985">
        <ele>1477.9</ele>
        <time>2013-08-11T17:13:18Z</time>
      </trkpt>
      <trkpt lat="42.44877" lon="2.06984">
        <ele>1477.7</ele>
        <time>2013-08-11T17:13:20Z</time>
      </trkpt>
      <trkpt lat="42.4488" lon="2.0698">
        <ele>1477.6</ele>
        <time>2013-08-11T17:13:23Z</time>
      </trkpt>
      <trkpt lat="42.44881" lon="2.06979">
        <ele>1477.6</ele>
        <time>2013-08-11T17:13:24Z</time>
      </trkpt>
      <trkpt lat="42.44885" lon="2.06973">
        <ele>1476.5</ele>
        <time>2013-08-11T17:13:29Z</time>
      </trkpt>
      <trkpt lat="42.44887" lon="2.06969">
        <ele>1476.1</ele>
        <time>2013-08-11T17:13:32Z</time>
      </trkpt>
      <trkpt lat="42.44889" lon="2.06964">
        <ele>1476.2</ele>
        <time>2013-08-11T17:13:35Z</time>
      </trkpt>
      <trkpt lat="42.4489" lon="2.06958">
        <ele>1475.8</ele>
        <time>2013-08-11T17:13:38Z</time>
      </trkpt>
      <trkpt lat="42.44891" lon="2.06953">
        <ele>1475.1</ele>
        <time>2013-08-11T17:13:41Z</time>
      </trkpt>
      <trkpt lat="42.44891" lon="2.06948">
        <ele>1475.1</ele>
        <time>2013-08-11T17:13:43Z</time>
      </trkpt>
      <trkpt lat="42.44891" lon="2.06944">
        <ele>1474.9</ele>
        <time>2013-08-11T17:13:45Z</time>
      </trkpt>
      <trkpt lat="42.4489" lon="2.06939">
        <ele>1474.7</ele>
        <time>2013-08-11T17:13:47Z</time>
      </trkpt>
      <trkpt lat="42.4489" lon="2.06934">
        <ele>1474.5</ele>
        <time>2013-08-11T17:13:49Z</time>
      </trkpt>
      <trkpt lat="42.44889" lon="2.06929">
        <ele>1474.3</ele>
        <time>2013-08-11T17:13:51Z</time>
      </trkpt>
      <trkpt lat="42.44887" lon="2.06924">
        <ele>1473.8</ele>
        <time>2013-08-11T17:13:53Z</time>
      </trkpt>
      <trkpt lat="42.44884" lon="2.0692">
        <ele>1473.6</ele>
        <time>2013-08-11T17:13:55Z</time>
      </trkpt>
      <trkpt lat="42.44882" lon="2.06915">
        <ele>1473.6</ele>
        <time>2013-08-11T17:13:57Z</time>
      </trkpt>
      <trkpt lat="42.44882" lon="2.0691">
        <ele>1473.2</ele>
        <time>2013-08-11T17:13:59Z</time>
      </trkpt>
      <trkpt lat="42.44879" lon="2.06905">
        <ele>1473</ele>
        <time>2013-08-11T17:14:01Z</time>
      </trkpt>
      <trkpt lat="42.44878" lon="2.069">
        <ele>1472.9</ele>
        <time>2013-08-11T17:14:03Z</time>
      </trkpt>
      <trkpt lat="42.44877" lon="2.06895">
        <ele>1472.8</ele>
        <time>2013-08-11T17:14:05Z</time>
      </trkpt>
      <trkpt lat="42.44876" lon="2.06889">
        <ele>1472.7</ele>
        <time>2013-08-11T17:14:07Z</time>
      </trkpt>
      <trkpt lat="42.44874" lon="2.06884">
        <ele>1472.3</ele>
        <time>2013-08-11T17:14:09Z</time>
      </trkpt>
      <trkpt lat="42.44872" lon="2.06881">
        <ele>1472.1</ele>
        <time>2013-08-11T17:14:10Z</time>
      </trkpt>
      <trkpt lat="42.4487" lon="2.06878">
        <ele>1472.1</ele>
        <time>2013-08-11T17:14:11Z</time>
      </trkpt>
      <trkpt lat="42.44869" lon="2.06875">
        <ele>1472</ele>
        <time>2013-08-11T17:14:12Z</time>
      </trkpt>
      <trkpt lat="42.44867" lon="2.0687">
        <ele>1471.8</ele>
        <time>2013-08-11T17:14:14Z</time>
      </trkpt>
      <trkpt lat="42.44865" lon="2.06865">
        <ele>1471.4</ele>
        <time>2013-08-11T17:14:16Z</time>
      </trkpt>
      <trkpt lat="42.44863" lon="2.06861">
        <ele>1471.1</ele>
        <time>2013-08-11T17:14:18Z</time>
      </trkpt>
      <trkpt lat="42.4486" lon="2.06857">
        <ele>1470.8</ele>
        <time>2013-08-11T17:14:20Z</time>
      </trkpt>
      <trkpt lat="42.44859" lon="2.06853">
        <ele>1470.6</ele>
        <time>2013-08-11T17:14:22Z</time>
      </trkpt>
      <trkpt lat="42.44859" lon="2.06848">
        <ele>1470.4</ele>
        <time>2013-08-11T17:14:24Z</time>
      </trkpt>
      <trkpt lat="42.44859" lon="2.06846">
        <ele>1470.2</ele>
        <time>2013-08-11T17:14:25Z</time>
      </trkpt>
      <trkpt lat="42.44861" lon="2.06837">
        <ele>1469.4</ele>
        <time>2013-08-11T17:14:30Z</time>
      </trkpt>
      <trkpt lat="42.44863" lon="2.06833">
        <ele>1468.6</ele>
        <time>2013-08-11T17:14:32Z</time>
      </trkpt>
      <trkpt lat="42.44866" lon="2.0683">
        <ele>1468.5</ele>
        <time>2013-08-11T17:14:34Z</time>
      </trkpt>
      <trkpt lat="42.4487" lon="2.06829">
        <ele>1468.3</ele>
        <time>2013-08-11T17:14:36Z</time>
      </trkpt>
      <trkpt lat="42.44873" lon="2.06825">
        <ele>1468</ele>
        <time>2013-08-11T17:14:38Z</time>
      </trkpt>
      <trkpt lat="42.44874" lon="2.06822">
        <ele>1468</ele>
        <time>2013-08-11T17:14:40Z</time>
      </trkpt>
      <trkpt lat="42.44877" lon="2.06818">
        <ele>1468</ele>
        <time>2013-08-11T17:14:42Z</time>
      </trkpt>
      <trkpt lat="42.44879" lon="2.06814">
        <ele>1467.8</ele>
        <time>2013-08-11T17:14:44Z</time>
      </trkpt>
      <trkpt lat="42.4488" lon="2.06811">
        <ele>1467.6</ele>
        <time>2013-08-11T17:14:46Z</time>
      </trkpt>
      <trkpt lat="42.44881" lon="2.06806">
        <ele>1467.1</ele>
        <time>2013-08-11T17:14:49Z</time>
      </trkpt>
      <trkpt lat="42.44882" lon="2.06802">
        <ele>1466.8</ele>
        <time>2013-08-11T17:14:51Z</time>
      </trkpt>
      <trkpt lat="42.44883" lon="2.06797">
        <ele>1467.3</ele>
        <time>2013-08-11T17:14:53Z</time>
      </trkpt>
      <trkpt lat="42.44883" lon="2.06793">
        <ele>1467.1</ele>
        <time>2013-08-11T17:14:55Z</time>
      </trkpt>
      <trkpt lat="42.44883" lon="2.06788">
        <ele>1466.6</ele>
        <time>2013-08-11T17:14:57Z</time>
      </trkpt>
      <trkpt lat="42.44882" lon="2.06784">
        <ele>1465.9</ele>
        <time>2013-08-11T17:14:59Z</time>
      </trkpt>
      <trkpt lat="42.44882" lon="2.0678">
        <ele>1465.2</ele>
        <time>2013-08-11T17:15:01Z</time>
      </trkpt>
      <trkpt lat="42.44882" lon="2.06775">
        <ele>1465</ele>
        <time>2013-08-11T17:15:03Z</time>
      </trkpt>
      <trkpt lat="42.44882" lon="2.06769">
        <ele>1465</ele>
        <time>2013-08-11T17:15:06Z</time>
      </trkpt>
      <trkpt lat="42.44882" lon="2.06765">
        <ele>1464.9</ele>
        <time>2013-08-11T17:15:08Z</time>
      </trkpt>
      <trkpt lat="42.44881" lon="2.0676">
        <ele>1464.5</ele>
        <time>2013-08-11T17:15:10Z</time>
      </trkpt>
      <trkpt lat="42.4488" lon="2.06756">
        <ele>1464.5</ele>
        <time>2013-08-11T17:15:12Z</time>
      </trkpt>
      <trkpt lat="42.44882" lon="2.0675">
        <ele>1464.4</ele>
        <time>2013-08-11T17:15:15Z</time>
      </trkpt>
      <trkpt lat="42.44883" lon="2.06746">
        <ele>1464.3</ele>
        <time>2013-08-11T17:15:18Z</time>
      </trkpt>
      <trkpt lat="42.44885" lon="2.06741">
        <ele>1464.1</ele>
        <time>2013-08-11T17:15:21Z</time>
      </trkpt>
      <trkpt lat="42.44887" lon="2.06738">
        <ele>1463.9</ele>
        <time>2013-08-11T17:15:23Z</time>
      </trkpt>
      <trkpt lat="42.44889" lon="2.06733">
        <ele>1463.8</ele>
        <time>2013-08-11T17:15:26Z</time>
      </trkpt>
      <trkpt lat="42.44889" lon="2.06732">
        <ele>1463.7</ele>
        <time>2013-08-11T17:15:27Z</time>
      </trkpt>
      <trkpt lat="42.44891" lon="2.06724">
        <ele>1462.6</ele>
        <time>2013-08-11T17:15:33Z</time>
      </trkpt>
      <trkpt lat="42.44896" lon="2.06723">
        <ele>1462.2</ele>
        <time>2013-08-11T17:15:38Z</time>
      </trkpt>
      <trkpt lat="42.449" lon="2.06724">
        <ele>1461.2</ele>
        <time>2013-08-11T17:15:44Z</time>
      </trkpt>
      <trkpt lat="42.44903" lon="2.06726">
        <ele>1461.2</ele>
        <time>2013-08-11T17:15:48Z</time>
      </trkpt>
      <trkpt lat="42.44907" lon="2.06726">
        <ele>1461.6</ele>
        <time>2013-08-11T17:15:51Z</time>
      </trkpt>
      <trkpt lat="42.44911" lon="2.06726">
        <ele>1461.5</ele>
        <time>2013-08-11T17:15:53Z</time>
      </trkpt>
      <trkpt lat="42.44914" lon="2.06725">
        <ele>1461.2</ele>
        <time>2013-08-11T17:15:56Z</time>
      </trkpt>
      <trkpt lat="42.44916" lon="2.0672">
        <ele>1461</ele>
        <time>2013-08-11T17:16:01Z</time>
      </trkpt>
      <trkpt lat="42.44919" lon="2.06716">
        <ele>1460.6</ele>
        <time>2013-08-11T17:16:04Z</time>
      </trkpt>
      <trkpt lat="42.44919" lon="2.0671">
        <ele>1460.3</ele>
        <time>2013-08-11T17:16:07Z</time>
      </trkpt>
      <trkpt lat="42.44919" lon="2.06706">
        <ele>1460</ele>
        <time>2013-08-11T17:16:09Z</time>
      </trkpt>
      <trkpt lat="42.44921" lon="2.06702">
        <ele>1459.7</ele>
        <time>2013-08-11T17:16:11Z</time>
      </trkpt>
      <trkpt lat="42.44922" lon="2.06697">
        <ele>1459.8</ele>
        <time>2013-08-11T17:16:13Z</time>
      </trkpt>
      <trkpt lat="42.44921" lon="2.06693">
        <ele>1459.9</ele>
        <time>2013-08-11T17:16:15Z</time>
      </trkpt>
      <trkpt lat="42.44922" lon="2.06688">
        <ele>1460</ele>
        <time>2013-08-11T17:16:17Z</time>
      </trkpt>
      <trkpt lat="42.44922" lon="2.06682">
        <ele>1459.6</ele>
        <time>2013-08-11T17:16:19Z</time>
      </trkpt>
      <trkpt lat="42.44922" lon="2.06678">
        <ele>1459.4</ele>
        <time>2013-08-11T17:16:21Z</time>
      </trkpt>
      <trkpt lat="42.44922" lon="2.06672">
        <ele>1459.5</ele>
        <time>2013-08-11T17:16:24Z</time>
      </trkpt>
      <trkpt lat="42.44923" lon="2.06668">
        <ele>1459.4</ele>
        <time>2013-08-11T17:16:26Z</time>
      </trkpt>
      <trkpt lat="42.44925" lon="2.06663">
        <ele>1459.2</ele>
        <time>2013-08-11T17:16:29Z</time>
      </trkpt>
      <trkpt lat="42.44925" lon="2.06661">
        <ele>1459.2</ele>
        <time>2013-08-11T17:16:30Z</time>
      </trkpt>
      <trkpt lat="42.44928" lon="2.06653">
        <ele>1458.8</ele>
        <time>2013-08-11T17:16:35Z</time>
      </trkpt>
      <trkpt lat="42.44929" lon="2.06648">
        <ele>1458.8</ele>
        <time>2013-08-11T17:16:37Z</time>
      </trkpt>
      <trkpt lat="42.44929" lon="2.06644">
        <ele>1458.2</ele>
        <time>2013-08-11T17:16:39Z</time>
      </trkpt>
      <trkpt lat="42.44928" lon="2.0664">
        <ele>1457.9</ele>
        <time>2013-08-11T17:16:41Z</time>
      </trkpt>
      <trkpt lat="42.44927" lon="2.06635">
        <ele>1457.9</ele>
        <time>2013-08-11T17:16:43Z</time>
      </trkpt>
      <trkpt lat="42.44928" lon="2.06631">
        <ele>1456.9</ele>
        <time>2013-08-11T17:16:46Z</time>
      </trkpt>
      <trkpt lat="42.4493" lon="2.06625">
        <ele>1456.7</ele>
        <time>2013-08-11T17:16:49Z</time>
      </trkpt>
      <trkpt lat="42.44933" lon="2.06623">
        <ele>1456.8</ele>
        <time>2013-08-11T17:16:51Z</time>
      </trkpt>
      <trkpt lat="42.44936" lon="2.06619">
        <ele>1456.9</ele>
        <time>2013-08-11T17:16:53Z</time>
      </trkpt>
      <trkpt lat="42.44938" lon="2.06616">
        <ele>1456.3</ele>
        <time>2013-08-11T17:16:55Z</time>
      </trkpt>
      <trkpt lat="42.4494" lon="2.06611">
        <ele>1455.6</ele>
        <time>2013-08-11T17:16:58Z</time>
      </trkpt>
      <trkpt lat="42.44942" lon="2.06607">
        <ele>1455.2</ele>
        <time>2013-08-11T17:17:00Z</time>
      </trkpt>
      <trkpt lat="42.44943" lon="2.06603">
        <ele>1454.9</ele>
        <time>2013-08-11T17:17:02Z</time>
      </trkpt>
      <trkpt lat="42.44946" lon="2.06599">
        <ele>1454.9</ele>
        <time>2013-08-11T17:17:05Z</time>
      </trkpt>
      <trkpt lat="42.44947" lon="2.06594">
        <ele>1454.3</ele>
        <time>2013-08-11T17:17:08Z</time>
      </trkpt>
      <trkpt lat="42.44947" lon="2.06589">
        <ele>1454.4</ele>
        <time>2013-08-11T17:17:11Z</time>
      </trkpt>
      <trkpt lat="42.44946" lon="2.06585">
        <ele>1454.2</ele>
        <time>2013-08-11T17:17:13Z</time>
      </trkpt>
      <trkpt lat="42.44945" lon="2.0658">
        <ele>1453.8</ele>
        <time>2013-08-11T17:17:15Z</time>
      </trkpt>
      <trkpt lat="42.44949" lon="2.06578">
        <ele>1452</ele>
        <time>2013-08-11T17:17:47Z</time>
      </trkpt>
      <trkpt lat="42.4495" lon="2.06577">
        <ele>1451.8</ele>
        <time>2013-08-11T17:17:48Z</time>
      </trkpt>
      <trkpt lat="42.44955" lon="2.06575">
        <ele>1451.5</ele>
        <time>2013-08-11T17:17:52Z</time>
      </trkpt>
      <trkpt lat="42.44959" lon="2.06573">
        <ele>1451.6</ele>
        <time>2013-08-11T17:17:54Z</time>
      </trkpt>
      <trkpt lat="42.44962" lon="2.0657">
        <ele>1451.7</ele>
        <time>2013-08-11T17:17:56Z</time>
      </trkpt>
      <trkpt lat="42.44964" lon="2.06566">
        <ele>1451.3</ele>
        <time>2013-08-11T17:17:58Z</time>
      </trkpt>
      <trkpt lat="42.44965" lon="2.06561">
        <ele>1451</ele>
        <time>2013-08-11T17:18:01Z</time>
      </trkpt>
      <trkpt lat="42.44965" lon="2.06556">
        <ele>1450.9</ele>
        <time>2013-08-11T17:18:03Z</time>
      </trkpt>
      <trkpt lat="42.44963" lon="2.06551">
        <ele>1450.2</ele>
        <time>2013-08-11T17:18:05Z</time>
      </trkpt>
      <trkpt lat="42.44962" lon="2.06546">
        <ele>1449.8</ele>
        <time>2013-08-11T17:18:07Z</time>
      </trkpt>
      <trkpt lat="42.44963" lon="2.06541">
        <ele>1449.6</ele>
        <time>2013-08-11T17:18:10Z</time>
      </trkpt>
      <trkpt lat="42.44965" lon="2.06536">
        <ele>1449</ele>
        <time>2013-08-11T17:18:13Z</time>
      </trkpt>
      <trkpt lat="42.44965" lon="2.06531">
        <ele>1448.3</ele>
        <time>2013-08-11T17:18:15Z</time>
      </trkpt>
      <trkpt lat="42.44967" lon="2.06527">
        <ele>1448.2</ele>
        <time>2013-08-11T17:18:18Z</time>
      </trkpt>
      <trkpt lat="42.4497" lon="2.06524">
        <ele>1447.7</ele>
        <time>2013-08-11T17:18:20Z</time>
      </trkpt>
      <trkpt lat="42.44972" lon="2.06522">
        <ele>1447.2</ele>
        <time>2013-08-11T17:18:22Z</time>
      </trkpt>
      <trkpt lat="42.44976" lon="2.06519">
        <ele>1446.7</ele>
        <time>2013-08-11T17:18:24Z</time>
      </trkpt>
      <trkpt lat="42.44978" lon="2.06517">
        <ele>1446.3</ele>
        <time>2013-08-11T17:18:26Z</time>
      </trkpt>
      <trkpt lat="42.44981" lon="2.06513">
        <ele>1446.2</ele>
        <time>2013-08-11T17:18:28Z</time>
      </trkpt>
      <trkpt lat="42.44984" lon="2.0651">
        <ele>1446.3</ele>
        <time>2013-08-11T17:18:30Z</time>
      </trkpt>
      <trkpt lat="42.44986" lon="2.06507">
        <ele>1446.3</ele>
        <time>2013-08-11T17:18:32Z</time>
      </trkpt>
      <trkpt lat="42.44989" lon="2.06504">
        <ele>1446.3</ele>
        <time>2013-08-11T17:18:34Z</time>
      </trkpt>
      <trkpt lat="42.44993" lon="2.06501">
        <ele>1445.7</ele>
        <time>2013-08-11T17:18:37Z</time>
      </trkpt>
      <trkpt lat="42.44997" lon="2.065">
        <ele>1445.4</ele>
        <time>2013-08-11T17:18:40Z</time>
      </trkpt>
      <trkpt lat="42.45" lon="2.065">
        <ele>1445.3</ele>
        <time>2013-08-11T17:18:41Z</time>
      </trkpt>
      <trkpt lat="42.45002" lon="2.065">
        <ele>1445.2</ele>
        <time>2013-08-11T17:18:42Z</time>
      </trkpt>
      <trkpt lat="42.45006" lon="2.06499">
        <ele>1445</ele>
        <time>2013-08-11T17:18:44Z</time>
      </trkpt>
      <trkpt lat="42.45009" lon="2.06496">
        <ele>1444.6</ele>
        <time>2013-08-11T17:18:47Z</time>
      </trkpt>
      <trkpt lat="42.4501" lon="2.06491">
        <ele>1444.2</ele>
        <time>2013-08-11T17:18:50Z</time>
      </trkpt>
      <trkpt lat="42.45011" lon="2.06489">
        <ele>1444.1</ele>
        <time>2013-08-11T17:18:51Z</time>
      </trkpt>
      <trkpt lat="42.45011" lon="2.06481">
        <ele>1444.1</ele>
        <time>2013-08-11T17:18:55Z</time>
      </trkpt>
      <trkpt lat="42.45012" lon="2.06475">
        <ele>1443.8</ele>
        <time>2013-08-11T17:18:58Z</time>
      </trkpt>
      <trkpt lat="42.45015" lon="2.06471">
        <ele>1443.3</ele>
        <time>2013-08-11T17:19:01Z</time>
      </trkpt>
      <trkpt lat="42.45019" lon="2.06469">
        <ele>1443.2</ele>
        <time>2013-08-11T17:19:03Z</time>
      </trkpt>
      <trkpt lat="42.45022" lon="2.06467">
        <ele>1442.6</ele>
        <time>2013-08-11T17:19:05Z</time>
      </trkpt>
      <trkpt lat="42.45025" lon="2.06465">
        <ele>1442.2</ele>
        <time>2013-08-11T17:19:07Z</time>
      </trkpt>
      <trkpt lat="42.45027" lon="2.06461">
        <ele>1442.2</ele>
        <time>2013-08-11T17:19:10Z</time>
      </trkpt>
      <trkpt lat="42.4503" lon="2.06457">
        <ele>1441.8</ele>
        <time>2013-08-11T17:19:13Z</time>
      </trkpt>
      <trkpt lat="42.45031" lon="2.06452">
        <ele>1441.4</ele>
        <time>2013-08-11T17:19:17Z</time>
      </trkpt>
      <trkpt lat="42.45034" lon="2.06448">
        <ele>1441.5</ele>
        <time>2013-08-11T17:19:21Z</time>
      </trkpt>
      <trkpt lat="42.45038" lon="2.06444">
        <ele>1441</ele>
        <time>2013-08-11T17:19:25Z</time>
      </trkpt>
      <trkpt lat="42.45041" lon="2.06443">
        <ele>1440.6</ele>
        <time>2013-08-11T17:19:27Z</time>
      </trkpt>
      <trkpt lat="42.45045" lon="2.0644">
        <ele>1440.2</ele>
        <time>2013-08-11T17:19:30Z</time>
      </trkpt>
      <trkpt lat="42.45049" lon="2.06439">
        <ele>1440</ele>
        <time>2013-08-11T17:19:33Z</time>
      </trkpt>
      <trkpt lat="42.45052" lon="2.06437">
        <ele>1439.8</ele>
        <time>2013-08-11T17:19:35Z</time>
      </trkpt>
      <trkpt lat="42.45055" lon="2.06436">
        <ele>1439.8</ele>
        <time>2013-08-11T17:19:37Z</time>
      </trkpt>
      <trkpt lat="42.45059" lon="2.06435">
        <ele>1439.9</ele>
        <time>2013-08-11T17:19:39Z</time>
      </trkpt>
      <trkpt lat="42.45063" lon="2.06432">
        <ele>1439.9</ele>
        <time>2013-08-11T17:19:41Z</time>
      </trkpt>
      <trkpt lat="42.45065" lon="2.06431">
        <ele>1439.9</ele>
        <time>2013-08-11T17:19:42Z</time>
      </trkpt>
      <trkpt lat="42.45069" lon="2.0643">
        <ele>1439</ele>
        <time>2013-08-11T17:19:44Z</time>
      </trkpt>
      <trkpt lat="42.45073" lon="2.06427">
        <ele>1438.6</ele>
        <time>2013-08-11T17:19:46Z</time>
      </trkpt>
      <trkpt lat="42.45076" lon="2.06425">
        <ele>1438.4</ele>
        <time>2013-08-11T17:19:48Z</time>
      </trkpt>
      <trkpt lat="42.45079" lon="2.06423">
        <ele>1438.2</ele>
        <time>2013-08-11T17:19:50Z</time>
      </trkpt>
      <trkpt lat="42.45082" lon="2.06421">
        <ele>1437.9</ele>
        <time>2013-08-11T17:19:53Z</time>
      </trkpt>
      <trkpt lat="42.45083" lon="2.0642">
        <ele>1437.8</ele>
        <time>2013-08-11T17:19:54Z</time>
      </trkpt>
      <trkpt lat="42.45088" lon="2.06415">
        <ele>1437.4</ele>
        <time>2013-08-11T17:19:59Z</time>
      </trkpt>
      <trkpt lat="42.45091" lon="2.0641">
        <ele>1436.9</ele>
        <time>2013-08-11T17:20:03Z</time>
      </trkpt>
      <trkpt lat="42.45092" lon="2.06406">
        <ele>1436.8</ele>
        <time>2013-08-11T17:20:05Z</time>
      </trkpt>
      <trkpt lat="42.45095" lon="2.06402">
        <ele>1436.8</ele>
        <time>2013-08-11T17:20:07Z</time>
      </trkpt>
      <trkpt lat="42.45098" lon="2.06399">
        <ele>1436.5</ele>
        <time>2013-08-11T17:20:11Z</time>
      </trkpt>
      <trkpt lat="42.451" lon="2.06396">
        <ele>1436.5</ele>
        <time>2013-08-11T17:20:13Z</time>
      </trkpt>
      <trkpt lat="42.45102" lon="2.06394">
        <ele>1436.6</ele>
        <time>2013-08-11T17:20:14Z</time>
      </trkpt>
      <trkpt lat="42.45105" lon="2.0639">
        <ele>1435.6</ele>
        <time>2013-08-11T17:20:16Z</time>
      </trkpt>
      <trkpt lat="42.45107" lon="2.06385">
        <ele>1435.2</ele>
        <time>2013-08-11T17:20:18Z</time>
      </trkpt>
      <trkpt lat="42.45108" lon="2.06382">
        <ele>1435.2</ele>
        <time>2013-08-11T17:20:19Z</time>
      </trkpt>
      <trkpt lat="42.45109" lon="2.06379">
        <ele>1435.2</ele>
        <time>2013-08-11T17:20:20Z</time>
      </trkpt>
      <trkpt lat="42.45109" lon="2.06373">
        <ele>1434</ele>
        <time>2013-08-11T17:20:22Z</time>
      </trkpt>
      <trkpt lat="42.45109" lon="2.06368">
        <ele>1433.5</ele>
        <time>2013-08-11T17:20:24Z</time>
      </trkpt>
      <trkpt lat="42.4511" lon="2.06363">
        <ele>1433.3</ele>
        <time>2013-08-11T17:20:26Z</time>
      </trkpt>
      <trkpt lat="42.45112" lon="2.06358">
        <ele>1433.1</ele>
        <time>2013-08-11T17:20:28Z</time>
      </trkpt>
      <trkpt lat="42.45112" lon="2.06354">
        <ele>1433</ele>
        <time>2013-08-11T17:20:30Z</time>
      </trkpt>
      <trkpt lat="42.45113" lon="2.06348">
        <ele>1432.7</ele>
        <time>2013-08-11T17:20:33Z</time>
      </trkpt>
      <trkpt lat="42.45112" lon="2.06343">
        <ele>1432</ele>
        <time>2013-08-11T17:20:35Z</time>
      </trkpt>
      <trkpt lat="42.45111" lon="2.06339">
        <ele>1431.2</ele>
        <time>2013-08-11T17:20:37Z</time>
      </trkpt>
      <trkpt lat="42.45111" lon="2.06334">
        <ele>1430.4</ele>
        <time>2013-08-11T17:20:39Z</time>
      </trkpt>
      <trkpt lat="42.4511" lon="2.06329">
        <ele>1429.9</ele>
        <time>2013-08-11T17:20:41Z</time>
      </trkpt>
      <trkpt lat="42.45109" lon="2.06325">
        <ele>1429.5</ele>
        <time>2013-08-11T17:20:43Z</time>
      </trkpt>
      <trkpt lat="42.45109" lon="2.0632">
        <ele>1429.2</ele>
        <time>2013-08-11T17:20:45Z</time>
      </trkpt>
      <trkpt lat="42.45108" lon="2.06315">
        <ele>1429</ele>
        <time>2013-08-11T17:20:47Z</time>
      </trkpt>
      <trkpt lat="42.45108" lon="2.06311">
        <ele>1429</ele>
        <time>2013-08-11T17:20:49Z</time>
      </trkpt>
      <trkpt lat="42.45107" lon="2.06307">
        <ele>1428.4</ele>
        <time>2013-08-11T17:20:51Z</time>
      </trkpt>
      <trkpt lat="42.45107" lon="2.06303">
        <ele>1428.1</ele>
        <time>2013-08-11T17:20:53Z</time>
      </trkpt>
      <trkpt lat="42.45108" lon="2.06299">
        <ele>1428</ele>
        <time>2013-08-11T17:20:55Z</time>
      </trkpt>
      <trkpt lat="42.45108" lon="2.06297">
        <ele>1427.9</ele>
        <time>2013-08-11T17:20:56Z</time>
      </trkpt>
      <trkpt lat="42.45109" lon="2.06289">
        <ele>1427.5</ele>
        <time>2013-08-11T17:21:00Z</time>
      </trkpt>
      <trkpt lat="42.45109" lon="2.06285">
        <ele>1426.9</ele>
        <time>2013-08-11T17:21:02Z</time>
      </trkpt>
      <trkpt lat="42.45109" lon="2.06281">
        <ele>1426.2</ele>
        <time>2013-08-11T17:21:04Z</time>
      </trkpt>
      <trkpt lat="42.45109" lon="2.06278">
        <ele>1425.9</ele>
        <time>2013-08-11T17:21:05Z</time>
      </trkpt>
      <trkpt lat="42.45107" lon="2.06273">
        <ele>1425.5</ele>
        <time>2013-08-11T17:21:07Z</time>
      </trkpt>
      <trkpt lat="42.45109" lon="2.06267">
        <ele>1424.8</ele>
        <time>2013-08-11T17:21:10Z</time>
      </trkpt>
      <trkpt lat="42.45112" lon="2.06264">
        <ele>1424.4</ele>
        <time>2013-08-11T17:21:12Z</time>
      </trkpt>
      <trkpt lat="42.45113" lon="2.06261">
        <ele>1424.1</ele>
        <time>2013-08-11T17:21:14Z</time>
      </trkpt>
      <trkpt lat="42.45114" lon="2.06256">
        <ele>1423.7</ele>
        <time>2013-08-11T17:21:16Z</time>
      </trkpt>
      <trkpt lat="42.45114" lon="2.0625">
        <ele>1423.6</ele>
        <time>2013-08-11T17:21:19Z</time>
      </trkpt>
      <trkpt lat="42.45115" lon="2.06245">
        <ele>1423.3</ele>
        <time>2013-08-11T17:21:22Z</time>
      </trkpt>
      <trkpt lat="42.45116" lon="2.06239">
        <ele>1422.5</ele>
        <time>2013-08-11T17:21:25Z</time>
      </trkpt>
      <trkpt lat="42.45116" lon="2.06234">
        <ele>1422</ele>
        <time>2013-08-11T17:21:27Z</time>
      </trkpt>
      <trkpt lat="42.45116" lon="2.06229">
        <ele>1421.6</ele>
        <time>2013-08-11T17:21:30Z</time>
      </trkpt>
      <trkpt lat="42.45117" lon="2.06224">
        <ele>1420.8</ele>
        <time>2013-08-11T17:21:33Z</time>
      </trkpt>
      <trkpt lat="42.45115" lon="2.06219">
        <ele>1419.1</ele>
        <time>2013-08-11T17:21:41Z</time>
      </trkpt>
      <trkpt lat="42.45115" lon="2.06214">
        <ele>1418.9</ele>
        <time>2013-08-11T17:21:45Z</time>
      </trkpt>
      <trkpt lat="42.45115" lon="2.06208">
        <ele>1418.3</ele>
        <time>2013-08-11T17:21:50Z</time>
      </trkpt>
      <trkpt lat="42.45117" lon="2.06202">
        <ele>1417.4</ele>
        <time>2013-08-11T17:21:55Z</time>
      </trkpt>
      <trkpt lat="42.45118" lon="2.06196">
        <ele>1416.5</ele>
        <time>2013-08-11T17:22:02Z</time>
      </trkpt>
      <trkpt lat="42.45118" lon="2.06196">
        <ele>1416.2</ele>
        <time>2013-08-11T17:22:03Z</time>
      </trkpt>
      <trkpt lat="42.45124" lon="2.06189">
        <ele>1415.3</ele>
        <time>2013-08-11T17:22:15Z</time>
      </trkpt>
      <trkpt lat="42.45127" lon="2.06185">
        <ele>1415.5</ele>
        <time>2013-08-11T17:22:18Z</time>
      </trkpt>
      <trkpt lat="42.4513" lon="2.06183">
        <ele>1414.5</ele>
        <time>2013-08-11T17:22:22Z</time>
      </trkpt>
      <trkpt lat="42.45133" lon="2.06181">
        <ele>1414.3</ele>
        <time>2013-08-11T17:22:25Z</time>
      </trkpt>
      <trkpt lat="42.45136" lon="2.06178">
        <ele>1413.8</ele>
        <time>2013-08-11T17:22:28Z</time>
      </trkpt>
      <trkpt lat="42.45137" lon="2.06173">
        <ele>1414</ele>
        <time>2013-08-11T17:22:31Z</time>
      </trkpt>
      <trkpt lat="42.45137" lon="2.06167">
        <ele>1413.2</ele>
        <time>2013-08-11T17:22:34Z</time>
      </trkpt>
      <trkpt lat="42.45137" lon="2.06162">
        <ele>1412.5</ele>
        <time>2013-08-11T17:22:38Z</time>
      </trkpt>
      <trkpt lat="42.45135" lon="2.06156">
        <ele>1412.4</ele>
        <time>2013-08-11T17:22:45Z</time>
      </trkpt>
      <trkpt lat="42.45133" lon="2.06153">
        <ele>1411.8</ele>
        <time>2013-08-11T17:22:48Z</time>
      </trkpt>
      <trkpt lat="42.4513" lon="2.06149">
        <ele>1411.4</ele>
        <time>2013-08-11T17:22:50Z</time>
      </trkpt>
      <trkpt lat="42.45129" lon="2.06145">
        <ele>1411.6</ele>
        <time>2013-08-11T17:22:53Z</time>
      </trkpt>
      <trkpt lat="42.45127" lon="2.06139">
        <ele>1411.5</ele>
        <time>2013-08-11T17:23:01Z</time>
      </trkpt>
      <trkpt lat="42.45125" lon="2.06145">
        <ele>1411.3</ele>
        <time>2013-08-11T17:23:26Z</time>
      </trkpt>
      <trkpt lat="42.45126" lon="2.06146">
        <ele>1411.2</ele>
        <time>2013-08-11T17:23:27Z</time>
      </trkpt>
      <trkpt lat="42.45129" lon="2.06152">
        <ele>1411.3</ele>
        <time>2013-08-11T17:23:32Z</time>
      </trkpt>
      <trkpt lat="42.45132" lon="2.06156">
        <ele>1412.2</ele>
        <time>2013-08-11T17:23:35Z</time>
      </trkpt>
      <trkpt lat="42.45136" lon="2.06157">
        <ele>1412.1</ele>
        <time>2013-08-11T17:23:43Z</time>
      </trkpt>
      <trkpt lat="42.4514" lon="2.06153">
        <ele>1411.7</ele>
        <time>2013-08-11T17:23:46Z</time>
      </trkpt>
      <trkpt lat="42.45141" lon="2.0615">
        <ele>1411.2</ele>
        <time>2013-08-11T17:23:48Z</time>
      </trkpt>
      <trkpt lat="42.45144" lon="2.06148">
        <ele>1410.8</ele>
        <time>2013-08-11T17:23:50Z</time>
      </trkpt>
      <trkpt lat="42.45146" lon="2.06145">
        <ele>1410.6</ele>
        <time>2013-08-11T17:23:52Z</time>
      </trkpt>
      <trkpt lat="42.45149" lon="2.06142">
        <ele>1410.5</ele>
        <time>2013-08-11T17:23:54Z</time>
      </trkpt>
      <trkpt lat="42.45152" lon="2.0614">
        <ele>1411</ele>
        <time>2013-08-11T17:23:56Z</time>
      </trkpt>
      <trkpt lat="42.45155" lon="2.06138">
        <ele>1411.2</ele>
        <time>2013-08-11T17:23:58Z</time>
      </trkpt>
      <trkpt lat="42.45157" lon="2.06135">
        <ele>1411.2</ele>
        <time>2013-08-11T17:24:00Z</time>
      </trkpt>
      <trkpt lat="42.4516" lon="2.06132">
        <ele>1411</ele>
        <time>2013-08-11T17:24:02Z</time>
      </trkpt>
      <trkpt lat="42.45162" lon="2.06129">
        <ele>1410.7</ele>
        <time>2013-08-11T17:24:04Z</time>
      </trkpt>
      <trkpt lat="42.45164" lon="2.06125">
        <ele>1410.4</ele>
        <time>2013-08-11T17:24:07Z</time>
      </trkpt>
      <trkpt lat="42.45167" lon="2.06122">
        <ele>1411.1</ele>
        <time>2013-08-11T17:24:10Z</time>
      </trkpt>
      <trkpt lat="42.4517" lon="2.06119">
        <ele>1411.1</ele>
        <time>2013-08-11T17:24:13Z</time>
      </trkpt>
      <trkpt lat="42.45173" lon="2.06114">
        <ele>1410.7</ele>
        <time>2013-08-11T17:24:17Z</time>
      </trkpt>
      <trkpt lat="42.45175" lon="2.0611">
        <ele>1410.4</ele>
        <time>2013-08-11T17:24:20Z</time>
      </trkpt>
      <trkpt lat="42.45177" lon="2.06105">
        <ele>1410.7</ele>
        <time>2013-08-11T17:24:23Z</time>
      </trkpt>
      <trkpt lat="42.45177" lon="2.06101">
        <ele>1410.9</ele>
        <time>2013-08-11T17:24:25Z</time>
      </trkpt>
      <trkpt lat="42.45177" lon="2.06097">
        <ele>1411.1</ele>
        <time>2013-08-11T17:24:27Z</time>
      </trkpt>
      <trkpt lat="42.45178" lon="2.06095">
        <ele>1411.1</ele>
        <time>2013-08-11T17:24:28Z</time>
      </trkpt>
      <trkpt lat="42.45179" lon="2.06089">
        <ele>1411.2</ele>
        <time>2013-08-11T17:24:31Z</time>
      </trkpt>
      <trkpt lat="42.45179" lon="2.06084">
        <ele>1410.9</ele>
        <time>2013-08-11T17:24:33Z</time>
      </trkpt>
      <trkpt lat="42.4518" lon="2.0608">
        <ele>1410.6</ele>
        <time>2013-08-11T17:24:35Z</time>
      </trkpt>
      <trkpt lat="42.45182" lon="2.06075">
        <ele>1410.6</ele>
        <time>2013-08-11T17:24:38Z</time>
      </trkpt>
      <trkpt lat="42.45182" lon="2.0607">
        <ele>1410.3</ele>
        <time>2013-08-11T17:24:41Z</time>
      </trkpt>
      <trkpt lat="42.45183" lon="2.06064">
        <ele>1410.4</ele>
        <time>2013-08-11T17:24:44Z</time>
      </trkpt>
      <trkpt lat="42.45185" lon="2.06059">
        <ele>1410.3</ele>
        <time>2013-08-11T17:24:48Z</time>
      </trkpt>
      <trkpt lat="42.45188" lon="2.06057">
        <ele>1409.8</ele>
        <time>2013-08-11T17:24:50Z</time>
      </trkpt>
      <trkpt lat="42.45191" lon="2.06053">
        <ele>1409.8</ele>
        <time>2013-08-11T17:24:53Z</time>
      </trkpt>
      <trkpt lat="42.45194" lon="2.0605">
        <ele>1409.7</ele>
        <time>2013-08-11T17:24:55Z</time>
      </trkpt>
      <trkpt lat="42.45197" lon="2.06048">
        <ele>1409.7</ele>
        <time>2013-08-11T17:24:58Z</time>
      </trkpt>
      <trkpt lat="42.452" lon="2.06047">
        <ele>1409.4</ele>
        <time>2013-08-11T17:25:00Z</time>
      </trkpt>
      <trkpt lat="42.45203" lon="2.06043">
        <ele>1408.8</ele>
        <time>2013-08-11T17:25:03Z</time>
      </trkpt>
      <trkpt lat="42.45206" lon="2.0604">
        <ele>1408.7</ele>
        <time>2013-08-11T17:25:06Z</time>
      </trkpt>
      <trkpt lat="42.45209" lon="2.06036">
        <ele>1408.6</ele>
        <time>2013-08-11T17:25:09Z</time>
      </trkpt>
      <trkpt lat="42.45212" lon="2.06033">
        <ele>1408.6</ele>
        <time>2013-08-11T17:25:11Z</time>
      </trkpt>
      <trkpt lat="42.45214" lon="2.0603">
        <ele>1408.6</ele>
        <time>2013-08-11T17:25:13Z</time>
      </trkpt>
      <trkpt lat="42.45216" lon="2.06026">
        <ele>1408.3</ele>
        <time>2013-08-11T17:25:15Z</time>
      </trkpt>
      <trkpt lat="42.4522" lon="2.06022">
        <ele>1407.7</ele>
        <time>2013-08-11T17:25:18Z</time>
      </trkpt>
      <trkpt lat="42.45223" lon="2.06018">
        <ele>1407.3</ele>
        <time>2013-08-11T17:25:21Z</time>
      </trkpt>
      <trkpt lat="42.45226" lon="2.06015">
        <ele>1407.3</ele>
        <time>2013-08-11T17:25:23Z</time>
      </trkpt>
      <trkpt lat="42.45227" lon="2.06012">
        <ele>1407.1</ele>
        <time>2013-08-11T17:25:25Z</time>
      </trkpt>
      <trkpt lat="42.45231" lon="2.06009">
        <ele>1407.1</ele>
        <time>2013-08-11T17:25:27Z</time>
      </trkpt>
      <trkpt lat="42.45233" lon="2.06006">
        <ele>1407.3</ele>
        <time>2013-08-11T17:25:29Z</time>
      </trkpt>
      <trkpt lat="42.45235" lon="2.06005">
        <ele>1407.4</ele>
        <time>2013-08-11T17:25:30Z</time>
      </trkpt>
      <trkpt lat="42.45238" lon="2.06001">
        <ele>1407.2</ele>
        <time>2013-08-11T17:25:33Z</time>
      </trkpt>
      <trkpt lat="42.45241" lon="2.05998">
        <ele>1407.4</ele>
        <time>2013-08-11T17:25:35Z</time>
      </trkpt>
      <trkpt lat="42.45243" lon="2.05994">
        <ele>1407.1</ele>
        <time>2013-08-11T17:25:38Z</time>
      </trkpt>
      <trkpt lat="42.45245" lon="2.05991">
        <ele>1407.1</ele>
        <time>2013-08-11T17:25:40Z</time>
      </trkpt>
      <trkpt lat="42.45247" lon="2.05987">
        <ele>1407.3</ele>
        <time>2013-08-11T17:25:42Z</time>
      </trkpt>
      <trkpt lat="42.45249" lon="2.05983">
        <ele>1407.4</ele>
        <time>2013-08-11T17:25:44Z</time>
      </trkpt>
      <trkpt lat="42.4525" lon="2.05979">
        <ele>1407.5</ele>
        <time>2013-08-11T17:25:46Z</time>
      </trkpt>
      <trkpt lat="42.45252" lon="2.05976">
        <ele>1407.1</ele>
        <time>2013-08-11T17:25:48Z</time>
      </trkpt>
      <trkpt lat="42.45254" lon="2.05973">
        <ele>1407.1</ele>
        <time>2013-08-11T17:25:50Z</time>
      </trkpt>
      <trkpt lat="42.45257" lon="2.05969">
        <ele>1407.7</ele>
        <time>2013-08-11T17:25:53Z</time>
      </trkpt>
      <trkpt lat="42.45261" lon="2.05969">
        <ele>1408.6</ele>
        <time>2013-08-11T17:25:57Z</time>
      </trkpt>
      <trkpt lat="42.45265" lon="2.0597">
        <ele>1409.8</ele>
        <time>2013-08-11T17:26:01Z</time>
      </trkpt>
      <trkpt lat="42.45269" lon="2.0597">
        <ele>1409.8</ele>
        <time>2013-08-11T17:26:05Z</time>
      </trkpt>
      <trkpt lat="42.45273" lon="2.05971">
        <ele>1409.7</ele>
        <time>2013-08-11T17:26:09Z</time>
      </trkpt>
      <trkpt lat="42.45277" lon="2.05974">
        <ele>1410.4</ele>
        <time>2013-08-11T17:26:13Z</time>
      </trkpt>
      <trkpt lat="42.45278" lon="2.05979">
        <ele>1411.2</ele>
        <time>2013-08-11T17:26:17Z</time>
      </trkpt>
      <trkpt lat="42.45281" lon="2.05981">
        <ele>1411.5</ele>
        <time>2013-08-11T17:26:20Z</time>
      </trkpt>
      <trkpt lat="42.45285" lon="2.05984">
        <ele>1412.1</ele>
        <time>2013-08-11T17:26:23Z</time>
      </trkpt>
      <trkpt lat="42.45289" lon="2.05986">
        <ele>1412.2</ele>
        <time>2013-08-11T17:26:26Z</time>
      </trkpt>
      <trkpt lat="42.45293" lon="2.05988">
        <ele>1413</ele>
        <time>2013-08-11T17:26:29Z</time>
      </trkpt>
      <trkpt lat="42.45296" lon="2.0599">
        <ele>1413.7</ele>
        <time>2013-08-11T17:26:32Z</time>
      </trkpt>
      <trkpt lat="42.45297" lon="2.05991">
        <ele>1413.9</ele>
        <time>2013-08-11T17:26:33Z</time>
      </trkpt>
      <trkpt lat="42.45303" lon="2.05997">
        <ele>1414.4</ele>
        <time>2013-08-11T17:26:39Z</time>
      </trkpt>
      <trkpt lat="42.45306" lon="2.05999">
        <ele>1414.6</ele>
        <time>2013-08-11T17:26:42Z</time>
      </trkpt>
      <trkpt lat="42.45309" lon="2.06003">
        <ele>1414.9</ele>
        <time>2013-08-11T17:26:46Z</time>
      </trkpt>
      <trkpt lat="42.45312" lon="2.06006">
        <ele>1416.2</ele>
        <time>2013-08-11T17:26:49Z</time>
      </trkpt>
      <trkpt lat="42.45315" lon="2.0601">
        <ele>1416.2</ele>
        <time>2013-08-11T17:26:52Z</time>
      </trkpt>
      <trkpt lat="42.45319" lon="2.06013">
        <ele>1416.6</ele>
        <time>2013-08-11T17:26:55Z</time>
      </trkpt>
      <trkpt lat="42.45321" lon="2.06018">
        <ele>1416.5</ele>
        <time>2013-08-11T17:26:58Z</time>
      </trkpt>
      <trkpt lat="42.45325" lon="2.06021">
        <ele>1416.7</ele>
        <time>2013-08-11T17:27:01Z</time>
      </trkpt>
      <trkpt lat="42.45328" lon="2.06025">
        <ele>1417.3</ele>
        <time>2013-08-11T17:27:04Z</time>
      </trkpt>
      <trkpt lat="42.45331" lon="2.06028">
        <ele>1418.2</ele>
        <time>2013-08-11T17:27:07Z</time>
      </trkpt>
      <trkpt lat="42.45334" lon="2.06031">
        <ele>1418.7</ele>
        <time>2013-08-11T17:27:10Z</time>
      </trkpt>
      <trkpt lat="42.45336" lon="2.06035">
        <ele>1418.9</ele>
        <time>2013-08-11T17:27:13Z</time>
      </trkpt>
      <trkpt lat="42.45339" lon="2.06039">
        <ele>1419.4</ele>
        <time>2013-08-11T17:27:16Z</time>
      </trkpt>
      <trkpt lat="42.45341" lon="2.06043">
        <ele>1420</ele>
        <time>2013-08-11T17:27:19Z</time>
      </trkpt>
      <trkpt lat="42.45344" lon="2.06046">
        <ele>1420.7</ele>
        <time>2013-08-11T17:27:22Z</time>
      </trkpt>
      <trkpt lat="42.45348" lon="2.06049">
        <ele>1421</ele>
        <time>2013-08-11T17:27:25Z</time>
      </trkpt>
      <trkpt lat="42.45351" lon="2.06051">
        <ele>1421.3</ele>
        <time>2013-08-11T17:27:28Z</time>
      </trkpt>
      <trkpt lat="42.45354" lon="2.06054">
        <ele>1422</ele>
        <time>2013-08-11T17:27:31Z</time>
      </trkpt>
      <trkpt lat="42.45356" lon="2.06058">
        <ele>1421.9</ele>
        <time>2013-08-11T17:27:34Z</time>
      </trkpt>
      <trkpt lat="42.45357" lon="2.06059">
        <ele>1422</ele>
        <time>2013-08-11T17:27:35Z</time>
      </trkpt>
      <trkpt lat="42.45362" lon="2.06064">
        <ele>1422.3</ele>
        <time>2013-08-11T17:27:40Z</time>
      </trkpt>
      <trkpt lat="42.45364" lon="2.06067">
        <ele>1422.5</ele>
        <time>2013-08-11T17:27:43Z</time>
      </trkpt>
      <trkpt lat="42.45366" lon="2.06071">
        <ele>1422.9</ele>
        <time>2013-08-11T17:27:46Z</time>
      </trkpt>
      <trkpt lat="42.4537" lon="2.06075">
        <ele>1423.2</ele>
        <time>2013-08-11T17:27:49Z</time>
      </trkpt>
      <trkpt lat="42.45371" lon="2.06079">
        <ele>1423.5</ele>
        <time>2013-08-11T17:27:52Z</time>
      </trkpt>
      <trkpt lat="42.45372" lon="2.06084">
        <ele>1423.6</ele>
        <time>2013-08-11T17:27:55Z</time>
      </trkpt>
      <trkpt lat="42.45373" lon="2.06089">
        <ele>1423.9</ele>
        <time>2013-08-11T17:27:58Z</time>
      </trkpt>
      <trkpt lat="42.45374" lon="2.06094">
        <ele>1424.2</ele>
        <time>2013-08-11T17:28:01Z</time>
      </trkpt>
      <trkpt lat="42.45375" lon="2.06098">
        <ele>1424.4</ele>
        <time>2013-08-11T17:28:04Z</time>
      </trkpt>
      <trkpt lat="42.45376" lon="2.06102">
        <ele>1424.8</ele>
        <time>2013-08-11T17:28:07Z</time>
      </trkpt>
      <trkpt lat="42.45378" lon="2.06107">
        <ele>1425.6</ele>
        <time>2013-08-11T17:28:11Z</time>
      </trkpt>
      <trkpt lat="42.4538" lon="2.06112">
        <ele>1426</ele>
        <time>2013-08-11T17:28:15Z</time>
      </trkpt>
      <trkpt lat="42.45381" lon="2.06116">
        <ele>1425.8</ele>
        <time>2013-08-11T17:28:18Z</time>
      </trkpt>
      <trkpt lat="42.45384" lon="2.0612">
        <ele>1425.9</ele>
        <time>2013-08-11T17:28:21Z</time>
      </trkpt>
      <trkpt lat="42.45387" lon="2.06122">
        <ele>1425.9</ele>
        <time>2013-08-11T17:28:24Z</time>
      </trkpt>
      <trkpt lat="42.45392" lon="2.06123">
        <ele>1426</ele>
        <time>2013-08-11T17:28:27Z</time>
      </trkpt>
      <trkpt lat="42.45396" lon="2.06123">
        <ele>1426.7</ele>
        <time>2013-08-11T17:28:30Z</time>
      </trkpt>
      <trkpt lat="42.45399" lon="2.06123">
        <ele>1427.1</ele>
        <time>2013-08-11T17:28:32Z</time>
      </trkpt>
      <trkpt lat="42.45403" lon="2.06123">
        <ele>1427.6</ele>
        <time>2013-08-11T17:28:35Z</time>
      </trkpt>
      <trkpt lat="42.45405" lon="2.06123">
        <ele>1427.4</ele>
        <time>2013-08-11T17:28:36Z</time>
      </trkpt>
      <trkpt lat="42.45411" lon="2.06122">
        <ele>1427.8</ele>
        <time>2013-08-11T17:28:43Z</time>
      </trkpt>
      <trkpt lat="42.45415" lon="2.06121">
        <ele>1428.2</ele>
        <time>2013-08-11T17:28:48Z</time>
      </trkpt>
      <trkpt lat="42.45419" lon="2.06125">
        <ele>1428.6</ele>
        <time>2013-08-11T17:29:08Z</time>
      </trkpt>
      <trkpt lat="42.45421" lon="2.06129">
        <ele>1429.3</ele>
        <time>2013-08-11T17:29:13Z</time>
      </trkpt>
      <trkpt lat="42.45423" lon="2.06133">
        <ele>1429.2</ele>
        <time>2013-08-11T17:29:17Z</time>
      </trkpt>
      <trkpt lat="42.45426" lon="2.06137">
        <ele>1428.8</ele>
        <time>2013-08-11T17:29:21Z</time>
      </trkpt>
      <trkpt lat="42.4543" lon="2.06141">
        <ele>1429.4</ele>
        <time>2013-08-11T17:29:25Z</time>
      </trkpt>
      <trkpt lat="42.45432" lon="2.06144">
        <ele>1429.5</ele>
        <time>2013-08-11T17:29:28Z</time>
      </trkpt>
      <trkpt lat="42.45435" lon="2.06148">
        <ele>1429.8</ele>
        <time>2013-08-11T17:29:32Z</time>
      </trkpt>
      <trkpt lat="42.45436" lon="2.06153">
        <ele>1430.1</ele>
        <time>2013-08-11T17:29:35Z</time>
      </trkpt>
      <trkpt lat="42.45436" lon="2.06158">
        <ele>1430.5</ele>
        <time>2013-08-11T17:29:39Z</time>
      </trkpt>
      <trkpt lat="42.45436" lon="2.06159">
        <ele>1430.9</ele>
        <time>2013-08-11T17:29:40Z</time>
      </trkpt>
      <trkpt lat="42.45435" lon="2.06168">
        <ele>1431.8</ele>
        <time>2013-08-11T17:29:45Z</time>
      </trkpt>
      <trkpt lat="42.45437" lon="2.06173">
        <ele>1432</ele>
        <time>2013-08-11T17:29:48Z</time>
      </trkpt>
      <trkpt lat="42.45439" lon="2.06177">
        <ele>1432.7</ele>
        <time>2013-08-11T17:29:52Z</time>
      </trkpt>
      <trkpt lat="42.45441" lon="2.06182">
        <ele>1433.6</ele>
        <time>2013-08-11T17:29:58Z</time>
      </trkpt>
      <trkpt lat="42.45444" lon="2.06186">
        <ele>1433.9</ele>
        <time>2013-08-11T17:30:03Z</time>
      </trkpt>
      <trkpt lat="42.45447" lon="2.06189">
        <ele>1434.9</ele>
        <time>2013-08-11T17:30:08Z</time>
      </trkpt>
      <trkpt lat="42.45449" lon="2.06194">
        <ele>1435.5</ele>
        <time>2013-08-11T17:30:12Z</time>
      </trkpt>
      <trkpt lat="42.4545" lon="2.06197">
        <ele>1435.8</ele>
        <time>2013-08-11T17:30:14Z</time>
      </trkpt>
      <trkpt lat="42.45453" lon="2.06201">
        <ele>1435.6</ele>
        <time>2013-08-11T17:30:16Z</time>
      </trkpt>
      <trkpt lat="42.45454" lon="2.06206">
        <ele>1436.1</ele>
        <time>2013-08-11T17:30:19Z</time>
      </trkpt>
      <trkpt lat="42.45456" lon="2.0621">
        <ele>1436.3</ele>
        <time>2013-08-11T17:30:21Z</time>
      </trkpt>
      <trkpt lat="42.45457" lon="2.06214">
        <ele>1436.5</ele>
        <time>2013-08-11T17:30:23Z</time>
      </trkpt>
      <trkpt lat="42.45458" lon="2.06219">
        <ele>1436.8</ele>
        <time>2013-08-11T17:30:26Z</time>
      </trkpt>
      <trkpt lat="42.45459" lon="2.06224">
        <ele>1437.3</ele>
        <time>2013-08-11T17:30:30Z</time>
      </trkpt>
      <trkpt lat="42.45458" lon="2.0623">
        <ele>1437.2</ele>
        <time>2013-08-11T17:30:34Z</time>
      </trkpt>
      <trkpt lat="42.45459" lon="2.06235">
        <ele>1437.5</ele>
        <time>2013-08-11T17:30:37Z</time>
      </trkpt>
      <trkpt lat="42.45459" lon="2.06241">
        <ele>1438</ele>
        <time>2013-08-11T17:30:40Z</time>
      </trkpt>
      <trkpt lat="42.4546" lon="2.06242">
        <ele>1438.3</ele>
        <time>2013-08-11T17:30:41Z</time>
      </trkpt>
      <trkpt lat="42.45466" lon="2.06247">
        <ele>1438.2</ele>
        <time>2013-08-11T17:30:48Z</time>
      </trkpt>
      <trkpt lat="42.4547" lon="2.06249">
        <ele>1438.5</ele>
        <time>2013-08-11T17:30:52Z</time>
      </trkpt>
      <trkpt lat="42.45473" lon="2.06251">
        <ele>1439.2</ele>
        <time>2013-08-11T17:30:55Z</time>
      </trkpt>
      <trkpt lat="42.45476" lon="2.06253">
        <ele>1439.3</ele>
        <time>2013-08-11T17:30:58Z</time>
      </trkpt>
      <trkpt lat="42.45479" lon="2.06257">
        <ele>1439.6</ele>
        <time>2013-08-11T17:31:02Z</time>
      </trkpt>
      <trkpt lat="42.45483" lon="2.06259">
        <ele>1440.7</ele>
        <time>2013-08-11T17:31:06Z</time>
      </trkpt>
      <trkpt lat="42.45486" lon="2.06263">
        <ele>1441.7</ele>
        <time>2013-08-11T17:31:10Z</time>
      </trkpt>
      <trkpt lat="42.45489" lon="2.06265">
        <ele>1442.5</ele>
        <time>2013-08-11T17:31:15Z</time>
      </trkpt>
      <trkpt lat="42.45493" lon="2.06266">
        <ele>1443.1</ele>
        <time>2013-08-11T17:31:18Z</time>
      </trkpt>
      <trkpt lat="42.45494" lon="2.06272">
        <ele>1444.2</ele>
        <time>2013-08-11T17:31:25Z</time>
      </trkpt>
      <trkpt lat="42.45493" lon="2.06277">
        <ele>1444.6</ele>
        <time>2013-08-11T17:31:32Z</time>
      </trkpt>
      <trkpt lat="42.45488" lon="2.06278">
        <ele>1445.4</ele>
        <time>2013-08-11T17:31:36Z</time>
      </trkpt>
      <trkpt lat="42.45485" lon="2.06279">
        <ele>1445.8</ele>
        <time>2013-08-11T17:31:40Z</time>
      </trkpt>
      <trkpt lat="42.45483" lon="2.06284">
        <ele>1446.7</ele>
        <time>2013-08-11T17:31:44Z</time>
      </trkpt>
      <trkpt lat="42.45483" lon="2.06285">
        <ele>1446.9</ele>
        <time>2013-08-11T17:31:45Z</time>
      </trkpt>
      <trkpt lat="42.45486" lon="2.06295">
        <ele>1448.6</ele>
        <time>2013-08-11T17:31:52Z</time>
      </trkpt>
      <trkpt lat="42.45487" lon="2.06299">
        <ele>1450.1</ele>
        <time>2013-08-11T17:32:00Z</time>
      </trkpt>
      <trkpt lat="42.45488" lon="2.06304">
        <ele>1451.1</ele>
        <time>2013-08-11T17:32:04Z</time>
      </trkpt>
      <trkpt lat="42.4549" lon="2.06308">
        <ele>1451.9</ele>
        <time>2013-08-11T17:32:08Z</time>
      </trkpt>
      <trkpt lat="42.45493" lon="2.06312">
        <ele>1453.5</ele>
        <time>2013-08-11T17:32:12Z</time>
      </trkpt>
      <trkpt lat="42.45496" lon="2.06317">
        <ele>1453.9</ele>
        <time>2013-08-11T17:32:15Z</time>
      </trkpt>
      <trkpt lat="42.45497" lon="2.06322">
        <ele>1455.2</ele>
        <time>2013-08-11T17:32:20Z</time>
      </trkpt>
      <trkpt lat="42.455" lon="2.06326">
        <ele>1456.4</ele>
        <time>2013-08-11T17:32:26Z</time>
      </trkpt>
      <trkpt lat="42.45503" lon="2.06331">
        <ele>1456.8</ele>
        <time>2013-08-11T17:32:30Z</time>
      </trkpt>
      <trkpt lat="42.45506" lon="2.06334">
        <ele>1457.3</ele>
        <time>2013-08-11T17:32:41Z</time>
      </trkpt>
      <trkpt lat="42.45509" lon="2.06338">
        <ele>1458.4</ele>
        <time>2013-08-11T17:32:48Z</time>
      </trkpt>
      <trkpt lat="42.4551" lon="2.06338">
        <ele>1458.3</ele>
        <time>2013-08-11T17:32:49Z</time>
      </trkpt>
      <trkpt lat="42.45506" lon="2.06347">
        <ele>1458.5</ele>
        <time>2013-08-11T17:33:38Z</time>
      </trkpt>
      <trkpt lat="42.45505" lon="2.06352">
        <ele>1459.5</ele>
        <time>2013-08-11T17:33:42Z</time>
      </trkpt>
      <trkpt lat="42.45505" lon="2.06357">
        <ele>1460.3</ele>
        <time>2013-08-11T17:33:47Z</time>
      </trkpt>
      <trkpt lat="42.45507" lon="2.06363">
        <ele>1460.5</ele>
        <time>2013-08-11T17:33:52Z</time>
      </trkpt>
      <trkpt lat="42.45508" lon="2.06363">
        <ele>1460.5</ele>
        <time>2013-08-11T17:33:53Z</time>
      </trkpt>
      <trkpt lat="42.45513" lon="2.06369">
        <ele>1462.6</ele>
        <time>2013-08-11T17:34:03Z</time>
      </trkpt>
      <trkpt lat="42.45516" lon="2.06373">
        <ele>1463.1</ele>
        <time>2013-08-11T17:34:08Z</time>
      </trkpt>
      <trkpt lat="42.4552" lon="2.06376">
        <ele>1464.3</ele>
        <time>2013-08-11T17:34:15Z</time>
      </trkpt>
      <trkpt lat="42.4552" lon="2.06381">
        <ele>1466</ele>
        <time>2013-08-11T17:34:21Z</time>
      </trkpt>
      <trkpt lat="42.4552" lon="2.06387">
        <ele>1466.6</ele>
        <time>2013-08-11T17:34:25Z</time>
      </trkpt>
      <trkpt lat="42.4552" lon="2.06393">
        <ele>1467.3</ele>
        <time>2013-08-11T17:34:29Z</time>
      </trkpt>
      <trkpt lat="42.4552" lon="2.06398">
        <ele>1467.9</ele>
        <time>2013-08-11T17:34:33Z</time>
      </trkpt>
      <trkpt lat="42.45519" lon="2.06403">
        <ele>1468.4</ele>
        <time>2013-08-11T17:34:37Z</time>
      </trkpt>
      <trkpt lat="42.45518" lon="2.06408">
        <ele>1469.2</ele>
        <time>2013-08-11T17:34:42Z</time>
      </trkpt>
      <trkpt lat="42.45517" lon="2.06414">
        <ele>1469.1</ele>
        <time>2013-08-11T17:34:47Z</time>
      </trkpt>
      <trkpt lat="42.45517" lon="2.06419">
        <ele>1469.4</ele>
        <time>2013-08-11T17:34:50Z</time>
      </trkpt>
      <trkpt lat="42.45517" lon="2.06424">
        <ele>1469.2</ele>
        <time>2013-08-11T17:34:54Z</time>
      </trkpt>
      <trkpt lat="42.45517" lon="2.06425">
        <ele>1469.9</ele>
        <time>2013-08-11T17:34:55Z</time>
      </trkpt>
      <trkpt lat="42.4552" lon="2.06434">
        <ele>1471.3</ele>
        <time>2013-08-11T17:35:01Z</time>
      </trkpt>
      <trkpt lat="42.45521" lon="2.06439">
        <ele>1471.1</ele>
        <time>2013-08-11T17:35:04Z</time>
      </trkpt>
      <trkpt lat="42.45523" lon="2.06444">
        <ele>1471.2</ele>
        <time>2013-08-11T17:35:07Z</time>
      </trkpt>
      <trkpt lat="42.45525" lon="2.06449">
        <ele>1472.3</ele>
        <time>2013-08-11T17:35:10Z</time>
      </trkpt>
      <trkpt lat="42.45528" lon="2.06452">
        <ele>1472.8</ele>
        <time>2013-08-11T17:35:14Z</time>
      </trkpt>
      <trkpt lat="42.45532" lon="2.06455">
        <ele>1473.4</ele>
        <time>2013-08-11T17:35:19Z</time>
      </trkpt>
      <trkpt lat="42.45535" lon="2.06459">
        <ele>1474.2</ele>
        <time>2013-08-11T17:35:24Z</time>
      </trkpt>
      <trkpt lat="42.45536" lon="2.06464">
        <ele>1475.6</ele>
        <time>2013-08-11T17:35:30Z</time>
      </trkpt>
      <trkpt lat="42.45537" lon="2.06469">
        <ele>1476.1</ele>
        <time>2013-08-11T17:35:34Z</time>
      </trkpt>
      <trkpt lat="42.45538" lon="2.06474">
        <ele>1476.5</ele>
        <time>2013-08-11T17:35:38Z</time>
      </trkpt>
      <trkpt lat="42.4554" lon="2.06479">
        <ele>1476.6</ele>
        <time>2013-08-11T17:35:47Z</time>
      </trkpt>
      <trkpt lat="42.45543" lon="2.06483">
        <ele>1477.1</ele>
        <time>2013-08-11T17:35:51Z</time>
      </trkpt>
      <trkpt lat="42.45547" lon="2.06486">
        <ele>1477</ele>
        <time>2013-08-11T17:35:55Z</time>
      </trkpt>
      <trkpt lat="42.45548" lon="2.06486">
        <ele>1477.2</ele>
        <time>2013-08-11T17:35:56Z</time>
      </trkpt>
      <trkpt lat="42.45551" lon="2.06479">
        <ele>1480.4</ele>
        <time>2013-08-11T17:36:16Z</time>
      </trkpt>
      <trkpt lat="42.45551" lon="2.06473">
        <ele>1480.6</ele>
        <time>2013-08-11T17:36:20Z</time>
      </trkpt>
      <trkpt lat="42.45551" lon="2.06469">
        <ele>1481.2</ele>
        <time>2013-08-11T17:36:41Z</time>
      </trkpt>
      <trkpt lat="42.45551" lon="2.06469">
        <ele>1481.2</ele>
        <time>2013-08-11T17:36:41Z</time>
      </trkpt>
    </trkseg>
  </trk>
</gpx>